Wetterdaten: Freitag, 24.08.2018
Datum Zeit Temp. A. Feuchte A. Luftdruck Regen Wind Richtung Richtung Sonnenschein ET UV Solar Taupunkt Windchill Windböen
24.08.2018 00:00 16,7 °C 81 % 1010,3 hPa 0,0 mm 0,0 km/h (0 Bft) W-NW 292 ° 0 min 0,025 mm 0,0 UV-I 0 W/m² 13,4 °C 16,7 °C 1,6 km/h (1 Bft)
24.08.2018 00:01 16,7 °C 82 % 1010,3 hPa 0,0 mm 0,0 km/h (0 Bft) W-NW 292 ° 0 min 0,000 mm 0,0 UV-I 0 W/m² 13,6 °C 16,7 °C 1,6 km/h (1 Bft)
24.08.2018 00:02 16,7 °C 82 % 1010,4 hPa 0,0 mm 0,0 km/h (0 Bft) W-NW 292 ° 0 min 0,000 mm 0,0 UV-I 0 W/m² 13,6 °C 16,7 °C 3,2 km/h (1 Bft)
24.08.2018 00:04 16,6 °C 83 % 1010,4 hPa 0,0 mm 0,0 km/h (0 Bft) W-NW 286 ° 0 min 0,000 mm 0,0 UV-I 0 W/m² 13,7 °C 16,6 °C 0,0 km/h (0 Bft)
24.08.2018 00:05 16,6 °C 82 % 1010,4 hPa 0,0 mm 0,0 km/h (0 Bft) W-NW 286 ° 0 min 0,000 mm 0,0 UV-I 0 W/m² 13,5 °C 16,6 °C 0,0 km/h (0 Bft)
24.08.2018 00:06 16,6 °C 82 % 1010,4 hPa 0,0 mm 0,0 km/h (0 Bft) W-NW 286 ° 0 min 0,000 mm 0,0 UV-I 0 W/m² 13,5 °C 16,6 °C 0,0 km/h (0 Bft)
24.08.2018 00:07 16,6 °C 81 % 1010,4 hPa 0,0 mm 0,0 km/h (0 Bft) W-NW 286 ° 0 min 0,000 mm 0,0 UV-I 0 W/m² 13,3 °C 16,6 °C 0,0 km/h (0 Bft)
24.08.2018 00:08 16,7 °C 81 % 1010,3 hPa 0,0 mm 0,0 km/h (0 Bft) W-NW 286 ° 0 min 0,000 mm 0,0 UV-I 0 W/m² 13,4 °C 16,7 °C 0,0 km/h (0 Bft)
24.08.2018 00:09 16,7 °C 81 % 1010,4 hPa 0,0 mm 0,5 km/h (0 Bft) W-NW 286 ° 0 min 0,000 mm 0,0 UV-I 0 W/m² 13,4 °C 16,7 °C 3,2 km/h (1 Bft)
24.08.2018 00:10 16,8 °C 81 % 1010,4 hPa 0,0 mm 0,5 km/h (0 Bft) W-NW 286 ° 0 min 0,000 mm 0,0 UV-I 0 W/m² 13,5 °C 16,8 °C 1,6 km/h (1 Bft)
24.08.2018 00:11 16,8 °C 82 % 1010,3 hPa 0,0 mm 0,4 km/h (0 Bft) W-NW 286 ° 0 min 0,000 mm 0,0 UV-I 0 W/m² 13,7 °C 16,8 °C 1,6 km/h (1 Bft)
24.08.2018 00:12 16,8 °C 81 % 1010,3 hPa 0,0 mm 0,0 km/h (0 Bft) W-NW 286 ° 0 min 0,000 mm 0,0 UV-I 0 W/m² 13,5 °C 16,8 °C 0,0 km/h (0 Bft)
24.08.2018 00:13 16,8 °C 81 % 1010,3 hPa 0,0 mm 0,0 km/h (0 Bft) W-NW 286 ° 0 min 0,000 mm 0,0 UV-I 0 W/m² 13,5 °C 16,8 °C 0,0 km/h (0 Bft)
24.08.2018 00:14 16,7 °C 82 % 1010,3 hPa 0,0 mm 0,1 km/h (0 Bft) W-NW 286 ° 0 min 0,000 mm 0,0 UV-I 0 W/m² 13,6 °C 16,7 °C 1,6 km/h (1 Bft)
24.08.2018 00:15 16,6 °C 81 % 1010,3 hPa 0,0 mm 0,0 km/h (0 Bft) W-NW 286 ° 0 min 0,000 mm 0,0 UV-I 0 W/m² 13,3 °C 16,6 °C 0,0 km/h (0 Bft)
24.08.2018 00:16 16,6 °C 82 % 1010,3 hPa 0,0 mm 0,0 km/h (0 Bft) W-NW 286 ° 0 min 0,000 mm 0,0 UV-I 0 W/m² 13,5 °C 16,6 °C 0,0 km/h (0 Bft)
24.08.2018 00:17 16,6 °C 82 % 1010,3 hPa 0,0 mm 0,8 km/h (0 Bft) W-NW 286 ° 0 min 0,000 mm 0,0 UV-I 0 W/m² 13,5 °C 16,6 °C 3,2 km/h (1 Bft)
24.08.2018 00:18 16,6 °C 81 % 1010,3 hPa 0,0 mm 0,0 km/h (0 Bft) W-NW 286 ° 0 min 0,000 mm 0,0 UV-I 0 W/m² 13,3 °C 16,6 °C 0,0 km/h (0 Bft)
24.08.2018 00:19 16,6 °C 82 % 1010,3 hPa 0,0 mm 1,1 km/h (1 Bft) W-NW 285 ° 0 min 0,000 mm 0,0 UV-I 0 W/m² 13,5 °C 16,6 °C 3,2 km/h (1 Bft)
24.08.2018 00:20 16,6 °C 82 % 1010,3 hPa 0,0 mm 0,1 km/h (0 Bft) W-NW 285 ° 0 min 0,000 mm 0,0 UV-I 0 W/m² 13,5 °C 16,6 °C 1,6 km/h (1 Bft)
24.08.2018 00:21 16,4 °C 82 % 1010,4 hPa 0,0 mm 0,0 km/h (0 Bft) W-NW 285 ° 0 min 0,000 mm 0,0 UV-I 0 W/m² 13,3 °C 16,4 °C 0,0 km/h (0 Bft)
24.08.2018 00:22 16,5 °C 82 % 1010,3 hPa 0,0 mm 0,0 km/h (0 Bft) W-NW 285 ° 0 min 0,000 mm 0,0 UV-I 0 W/m² 13,4 °C 16,5 °C 0,0 km/h (0 Bft)
24.08.2018 00:23 16,4 °C 82 % 1010,3 hPa 0,0 mm 0,0 km/h (0 Bft) W-NW 285 ° 0 min 0,000 mm 0,0 UV-I 0 W/m² 13,3 °C 16,4 °C 0,0 km/h (0 Bft)
24.08.2018 00:24 16,6 °C 82 % 1010,3 hPa 0,0 mm 0,2 km/h (0 Bft) W-NW 285 ° 0 min 0,000 mm 0,0 UV-I 0 W/m² 13,5 °C 16,6 °C 1,6 km/h (1 Bft)
24.08.2018 00:25 16,4 °C 82 % 1010,4 hPa 0,0 mm 0,3 km/h (0 Bft) W-NW 285 ° 0 min 0,000 mm 0,0 UV-I 0 W/m² 13,3 °C 16,4 °C 3,2 km/h (1 Bft)
24.08.2018 00:26 16,4 °C 82 % 1010,4 hPa 0,0 mm 1,1 km/h (1 Bft) W-NW 285 ° 0 min 0,000 mm 0,0 UV-I 0 W/m² 13,3 °C 16,4 °C 3,2 km/h (1 Bft)
24.08.2018 00:27 16,4 °C 82 % 1010,4 hPa 0,0 mm 0,0 km/h (0 Bft) W-NW 285 ° 0 min 0,000 mm 0,0 UV-I 0 W/m² 13,3 °C 16,4 °C 0,0 km/h (0 Bft)
24.08.2018 00:28 16,4 °C 81 % 1010,4 hPa 0,0 mm 1,3 km/h (1 Bft) W-NW 285 ° 0 min 0,000 mm 0,0 UV-I 0 W/m² 13,1 °C 16,4 °C 4,8 km/h (1 Bft)
24.08.2018 00:29 16,4 °C 82 % 1010,4 hPa 0,0 mm 0,1 km/h (0 Bft) W-NW 285 ° 0 min 0,000 mm 0,0 UV-I 0 W/m² 13,3 °C 16,4 °C 1,6 km/h (1 Bft)
24.08.2018 00:30 16,4 °C 82 % 1010,4 hPa 0,0 mm 0,2 km/h (0 Bft) W-NW 283 ° 0 min 0,000 mm 0,0 UV-I 0 W/m² 13,3 °C 16,4 °C 1,6 km/h (1 Bft)
24.08.2018 00:31 16,4 °C 82 % 1010,4 hPa 0,0 mm 1,4 km/h (1 Bft) W-NW 298 ° 0 min 0,000 mm 0,0 UV-I 0 W/m² 13,3 °C 16,4 °C 3,2 km/h (1 Bft)
24.08.2018 00:32 16,4 °C 82 % 1010,4 hPa 0,0 mm 0,0 km/h (0 Bft) W-NW 298 ° 0 min 0,000 mm 0,0 UV-I 0 W/m² 13,3 °C 16,4 °C 0,0 km/h (0 Bft)
24.08.2018 00:33 16,3 °C 82 % 1010,4 hPa 0,0 mm 0,5 km/h (0 Bft) W-NW 298 ° 0 min 0,000 mm 0,0 UV-I 0 W/m² 13,2 °C 16,3 °C 3,2 km/h (1 Bft)
24.08.2018 00:34 16,3 °C 82 % 1010,4 hPa 0,0 mm 0,1 km/h (0 Bft) W-NW 298 ° 0 min 0,000 mm 0,0 UV-I 0 W/m² 13,2 °C 16,3 °C 1,6 km/h (1 Bft)
24.08.2018 00:35 16,3 °C 82 % 1010,4 hPa 0,0 mm 1,9 km/h (1 Bft) W-NW 296 ° 0 min 0,000 mm 0,0 UV-I 0 W/m² 13,2 °C 16,3 °C 4,8 km/h (1 Bft)
24.08.2018 00:36 16,3 °C 82 % 1010,4 hPa 0,0 mm 4,6 km/h (1 Bft) W 275 ° 0 min 0,000 mm 0,0 UV-I 0 W/m² 13,2 °C 16,3 °C 6,4 km/h (2 Bft)
24.08.2018 00:37 16,3 °C 82 % 1010,4 hPa 0,0 mm 2,8 km/h (1 Bft) W-NW 284 ° 0 min 0,000 mm 0,0 UV-I 0 W/m² 13,2 °C 16,3 °C 6,4 km/h (2 Bft)
24.08.2018 00:38 16,3 °C 82 % 1010,4 hPa 0,0 mm 1,2 km/h (1 Bft) W-NW 284 ° 0 min 0,000 mm 0,0 UV-I 0 W/m² 13,2 °C 16,3 °C 3,2 km/h (1 Bft)
24.08.2018 00:39 16,3 °C 81 % 1010,4 hPa 0,0 mm 0,8 km/h (0 Bft) W-NW 284 ° 0 min 0,000 mm 0,0 UV-I 0 W/m² 13,0 °C 16,3 °C 1,6 km/h (1 Bft)
24.08.2018 00:40 16,3 °C 81 % 1010,3 hPa 0,0 mm 1,8 km/h (1 Bft) W-NW 284 ° 0 min 0,000 mm 0,0 UV-I 0 W/m² 13,0 °C 16,3 °C 3,2 km/h (1 Bft)
24.08.2018 00:41 16,3 °C 81 % 1010,4 hPa 0,0 mm 0,2 km/h (0 Bft) W-NW 284 ° 0 min 0,000 mm 0,0 UV-I 0 W/m² 13,0 °C 16,3 °C 1,6 km/h (1 Bft)
24.08.2018 00:42 16,3 °C 82 % 1010,4 hPa 0,0 mm 0,0 km/h (0 Bft) W-NW 284 ° 0 min 0,000 mm 0,0 UV-I 0 W/m² 13,2 °C 16,3 °C 0,0 km/h (0 Bft)
24.08.2018 00:43 16,2 °C 82 % 1010,3 hPa 0,0 mm 0,5 km/h (0 Bft) SW 223 ° 0 min 0,000 mm 0,0 UV-I 0 W/m² 13,1 °C 16,2 °C 3,2 km/h (1 Bft)
24.08.2018 00:44 16,2 °C 82 % 1010,3 hPa 0,0 mm 0,0 km/h (0 Bft) SW 223 ° 0 min 0,000 mm 0,0 UV-I 0 W/m² 13,1 °C 16,2 °C 0,0 km/h (0 Bft)
24.08.2018 00:45 16,2 °C 83 % 1010,3 hPa 0,0 mm 1,3 km/h (1 Bft) SW 225 ° 0 min 0,000 mm 0,0 UV-I 0 W/m² 13,3 °C 16,2 °C 3,2 km/h (1 Bft)
24.08.2018 00:46 16,1 °C 83 % 1010,3 hPa 0,0 mm 0,8 km/h (0 Bft) SW 225 ° 0 min 0,000 mm 0,0 UV-I 0 W/m² 13,2 °C 16,1 °C 1,6 km/h (1 Bft)
24.08.2018 00:47 16,1 °C 83 % 1010,3 hPa 0,0 mm 0,6 km/h (0 Bft) SW 225 ° 0 min 0,000 mm 0,0 UV-I 0 W/m² 13,2 °C 16,1 °C 1,6 km/h (1 Bft)
24.08.2018 00:48 16,1 °C 83 % 1010,3 hPa 0,0 mm 0,4 km/h (0 Bft) SW 225 ° 0 min 0,000 mm 0,0 UV-I 0 W/m² 13,2 °C 16,1 °C 1,6 km/h (1 Bft)
24.08.2018 00:49 16,0 °C 82 % 1010,3 hPa 0,0 mm 1,6 km/h (1 Bft) SW 225 ° 0 min 0,000 mm 0,0 UV-I 0 W/m² 12,9 °C 16,0 °C 3,2 km/h (1 Bft)
24.08.2018 00:50 16,1 °C 82 % 1010,3 hPa 0,0 mm 3,2 km/h (1 Bft) SW 227 ° 0 min 0,000 mm 0,0 UV-I 0 W/m² 13,0 °C 16,1 °C 4,8 km/h (1 Bft)
24.08.2018 00:51 16,1 °C 82 % 1010,3 hPa 0,0 mm 1,5 km/h (1 Bft) SW 227 ° 0 min 0,000 mm 0,0 UV-I 0 W/m² 13,0 °C 16,1 °C 3,2 km/h (1 Bft)
24.08.2018 00:52 16,0 °C 83 % 1010,3 hPa 0,0 mm 1,4 km/h (1 Bft) S-SW 203 ° 0 min 0,000 mm 0,0 UV-I 0 W/m² 13,1 °C 16,0 °C 3,2 km/h (1 Bft)
24.08.2018 00:53 16,0 °C 83 % 1010,3 hPa 0,0 mm 0,0 km/h (0 Bft) S-SW 203 ° 0 min 0,000 mm 0,0 UV-I 0 W/m² 13,1 °C 16,0 °C 0,0 km/h (0 Bft)
24.08.2018 00:54 15,9 °C 83 % 1010,3 hPa 0,0 mm 0,9 km/h (0 Bft) W-NW 292 ° 0 min 0,000 mm 0,0 UV-I 0 W/m² 13,0 °C 15,9 °C 3,2 km/h (1 Bft)
24.08.2018 00:55 15,9 °C 83 % 1010,3 hPa 0,0 mm 0,4 km/h (0 Bft) W-NW 292 ° 0 min 0,000 mm 0,0 UV-I 0 W/m² 13,0 °C 15,9 °C 1,6 km/h (1 Bft)
24.08.2018 00:56 15,8 °C 83 % 1010,3 hPa 0,0 mm 0,6 km/h (0 Bft) W-NW 292 ° 0 min 0,000 mm 0,0 UV-I 0 W/m² 12,9 °C 15,8 °C 3,2 km/h (1 Bft)
24.08.2018 00:57 15,8 °C 84 % 1010,3 hPa 0,0 mm 0,0 km/h (0 Bft) W-NW 292 ° 0 min 0,000 mm 0,0 UV-I 0 W/m² 13,1 °C 15,8 °C 0,0 km/h (0 Bft)
24.08.2018 00:58 15,8 °C 84 % 1010,3 hPa 0,0 mm 0,0 km/h (0 Bft) W-NW 292 ° 0 min 0,000 mm 0,0 UV-I 0 W/m² 13,1 °C 15,8 °C 0,0 km/h (0 Bft)
24.08.2018 00:59 15,8 °C 84 % 1010,3 hPa 0,0 mm 0,0 km/h (0 Bft) W-NW 292 ° 0 min 0,000 mm 0,0 UV-I 0 W/m² 13,1 °C 15,8 °C 0,0 km/h (0 Bft)
24.08.2018 01:00 15,7 °C 84 % 1010,3 hPa 0,0 mm 0,0 km/h (0 Bft) W-NW 292 ° 0 min 0,000 mm 0,0 UV-I 0 W/m² 13,0 °C 15,7 °C 0,0 km/h (0 Bft)
24.08.2018 01:01 15,7 °C 84 % 1010,2 hPa 0,0 mm 0,0 km/h (0 Bft) W-NW 292 ° 0 min 0,000 mm 0,0 UV-I 0 W/m² 13,0 °C 15,7 °C 0,0 km/h (0 Bft)
24.08.2018 01:02 15,6 °C 84 % 1010,2 hPa 0,0 mm 0,0 km/h (0 Bft) W-NW 292 ° 0 min 0,000 mm 0,0 UV-I 0 W/m² 12,9 °C 15,6 °C 0,0 km/h (0 Bft)
24.08.2018 01:03 15,6 °C 84 % 1010,2 hPa 0,0 mm 0,0 km/h (0 Bft) W-NW 292 ° 0 min 0,000 mm 0,0 UV-I 0 W/m² 12,9 °C 15,6 °C 0,0 km/h (0 Bft)
24.08.2018 01:04 15,6 °C 84 % 1010,3 hPa 0,0 mm 0,0 km/h (0 Bft) W-NW 292 ° 0 min 0,000 mm 0,0 UV-I 0 W/m² 12,9 °C 15,6 °C 0,0 km/h (0 Bft)
24.08.2018 01:05 15,6 °C 84 % 1010,2 hPa 0,0 mm 0,0 km/h (0 Bft) W-NW 292 ° 0 min 0,000 mm 0,0 UV-I 0 W/m² 12,9 °C 15,6 °C 0,0 km/h (0 Bft)
24.08.2018 01:06 15,6 °C 84 % 1010,2 hPa 0,0 mm 0,0 km/h (0 Bft) W-NW 292 ° 0 min 0,000 mm 0,0 UV-I 0 W/m² 12,9 °C 15,6 °C 0,0 km/h (0 Bft)
24.08.2018 01:07 15,5 °C 84 % 1010,2 hPa 0,0 mm 0,0 km/h (0 Bft) W-NW 292 ° 0 min 0,000 mm 0,0 UV-I 0 W/m² 12,8 °C 15,5 °C 0,0 km/h (0 Bft)
24.08.2018 01:08 15,5 °C 84 % 1010,2 hPa 0,0 mm 0,0 km/h (0 Bft) W-NW 292 ° 0 min 0,000 mm 0,0 UV-I 0 W/m² 12,8 °C 15,5 °C 0,0 km/h (0 Bft)
24.08.2018 01:09 15,4 °C 84 % 1010,2 hPa 0,0 mm 0,1 km/h (0 Bft) W-NW 292 ° 0 min 0,000 mm 0,0 UV-I 0 W/m² 12,7 °C 15,4 °C 1,6 km/h (1 Bft)
24.08.2018 01:10 15,4 °C 84 % 1010,2 hPa 0,0 mm 0,0 km/h (0 Bft) W-NW 292 ° 0 min 0,000 mm 0,0 UV-I 0 W/m² 12,7 °C 15,4 °C 0,0 km/h (0 Bft)
24.08.2018 01:11 15,4 °C 85 % 1010,2 hPa 0,0 mm 0,0 km/h (0 Bft) W-NW 292 ° 0 min 0,000 mm 0,0 UV-I 0 W/m² 12,9 °C 15,4 °C 0,0 km/h (0 Bft)
24.08.2018 01:12 15,4 °C 85 % 1010,2 hPa 0,0 mm 0,0 km/h (0 Bft) W-NW 292 ° 0 min 0,000 mm 0,0 UV-I 0 W/m² 12,9 °C 15,4 °C 0,0 km/h (0 Bft)
24.08.2018 01:13 15,4 °C 84 % 1010,2 hPa 0,0 mm 0,0 km/h (0 Bft) W-NW 292 ° 0 min 0,000 mm 0,0 UV-I 0 W/m² 12,7 °C 15,4 °C 0,0 km/h (0 Bft)
24.08.2018 01:14 15,4 °C 84 % 1010,2 hPa 0,0 mm 0,0 km/h (0 Bft) W-NW 292 ° 0 min 0,000 mm 0,0 UV-I 0 W/m² 12,7 °C 15,4 °C 0,0 km/h (0 Bft)
24.08.2018 01:15 15,3 °C 84 % 1010,2 hPa 0,0 mm 0,0 km/h (0 Bft) W-NW 292 ° 0 min 0,000 mm 0,0 UV-I 0 W/m² 12,6 °C 15,3 °C 0,0 km/h (0 Bft)
24.08.2018 01:16 15,3 °C 84 % 1010,2 hPa 0,0 mm 0,0 km/h (0 Bft) W-NW 292 ° 0 min 0,000 mm 0,0 UV-I 0 W/m² 12,6 °C 15,3 °C 0,0 km/h (0 Bft)
24.08.2018 01:17 15,3 °C 85 % 1010,2 hPa 0,0 mm 0,0 km/h (0 Bft) W-NW 292 ° 0 min 0,000 mm 0,0 UV-I 0 W/m² 12,8 °C 15,3 °C 0,0 km/h (0 Bft)
24.08.2018 01:18 15,3 °C 85 % 1010,1 hPa 0,0 mm 0,0 km/h (0 Bft) W-NW 292 ° 0 min 0,000 mm 0,0 UV-I 0 W/m² 12,8 °C 15,3 °C 0,0 km/h (0 Bft)
24.08.2018 01:19 15,3 °C 85 % 1010,1 hPa 0,0 mm 0,0 km/h (0 Bft) W-NW 292 ° 0 min 0,000 mm 0,0 UV-I 0 W/m² 12,8 °C 15,3 °C 0,0 km/h (0 Bft)
24.08.2018 01:20 15,2 °C 86 % 1010,1 hPa 0,0 mm 0,0 km/h (0 Bft) W-NW 292 ° 0 min 0,000 mm 0,0 UV-I 0 W/m² 12,9 °C 15,2 °C 0,0 km/h (0 Bft)
24.08.2018 01:21 15,2 °C 86 % 1010,2 hPa 0,0 mm 0,0 km/h (0 Bft) W-NW 292 ° 0 min 0,000 mm 0,0 UV-I 0 W/m² 12,9 °C 15,2 °C 0,0 km/h (0 Bft)
24.08.2018 01:22 15,2 °C 85 % 1010,1 hPa 0,0 mm 0,0 km/h (0 Bft) W-NW 292 ° 0 min 0,000 mm 0,0 UV-I 0 W/m² 12,7 °C 15,2 °C 0,0 km/h (0 Bft)
24.08.2018 01:23 15,2 °C 85 % 1010,2 hPa 0,0 mm 0,0 km/h (0 Bft) W-NW 292 ° 0 min 0,000 mm 0,0 UV-I 0 W/m² 12,7 °C 15,2 °C 0,0 km/h (0 Bft)
24.08.2018 01:24 15,1 °C 85 % 1010,2 hPa 0,0 mm 0,0 km/h (0 Bft) W-NW 292 ° 0 min 0,000 mm 0,0 UV-I 0 W/m² 12,6 °C 15,1 °C 0,0 km/h (0 Bft)
24.08.2018 01:25 15,1 °C 86 % 1010,2 hPa 0,0 mm 0,0 km/h (0 Bft) W-NW 292 ° 0 min 0,000 mm 0,0 UV-I 0 W/m² 12,8 °C 15,1 °C 0,0 km/h (0 Bft)
24.08.2018 01:26 15,1 °C 86 % 1010,2 hPa 0,0 mm 0,0 km/h (0 Bft) W-NW 292 ° 0 min 0,000 mm 0,0 UV-I 0 W/m² 12,8 °C 15,1 °C 0,0 km/h (0 Bft)
24.08.2018 01:27 14,9 °C 86 % 1010,2 hPa 0,0 mm 0,0 km/h (0 Bft) N 0 ° 0 min 0,000 mm 0,0 UV-I 0 W/m² 12,6 °C 14,9 °C 0,0 km/h (0 Bft)
24.08.2018 01:28 14,9 °C 86 % 1010,2 hPa 0,0 mm 0,0 km/h (0 Bft) W-NW 292 ° 0 min 0,000 mm 0,0 UV-I 0 W/m² 12,6 °C 14,9 °C 1,6 km/h (1 Bft)
24.08.2018 01:29 14,8 °C 86 % 1010,3 hPa 0,0 mm 0,0 km/h (0 Bft) N 0 ° 0 min 0,000 mm 0,0 UV-I 0 W/m² 12,5 °C 14,8 °C 0,0 km/h (0 Bft)
24.08.2018 01:30 14,8 °C 87 % 1010,2 hPa 0,0 mm 0,0 km/h (0 Bft) N 0 ° 0 min 0,000 mm 0,0 UV-I 0 W/m² 12,7 °C 14,8 °C 0,0 km/h (0 Bft)
24.08.2018 01:31 14,8 °C 87 % 1010,3 hPa 0,0 mm 0,0 km/h (0 Bft) N 0 ° 0 min 0,000 mm 0,0 UV-I 0 W/m² 12,7 °C 14,8 °C 0,0 km/h (0 Bft)
24.08.2018 01:32 14,7 °C 86 % 1010,3 hPa 0,0 mm 0,0 km/h (0 Bft) N 0 ° 0 min 0,000 mm 0,0 UV-I 0 W/m² 12,4 °C 14,7 °C 0,0 km/h (0 Bft)
24.08.2018 01:33 14,7 °C 87 % 1010,3 hPa 0,0 mm 0,0 km/h (0 Bft) N 0 ° 0 min 0,000 mm 0,0 UV-I 0 W/m² 12,6 °C 14,7 °C 0,0 km/h (0 Bft)
24.08.2018 01:35 14,7 °C 87 % 1010,3 hPa 0,0 mm 0,0 km/h (0 Bft) W-NW 292 ° 0 min 0,000 mm 0,0 UV-I 0 W/m² 12,6 °C 14,7 °C 0,0 km/h (0 Bft)
24.08.2018 01:36 14,7 °C 87 % 1010,3 hPa 0,0 mm 0,0 km/h (0 Bft) W-NW 292 ° 0 min 0,000 mm 0,0 UV-I 0 W/m² 12,6 °C 14,7 °C 0,0 km/h (0 Bft)
24.08.2018 01:37 14,7 °C 87 % 1010,3 hPa 0,0 mm 0,0 km/h (0 Bft) W-NW 292 ° 0 min 0,000 mm 0,0 UV-I 0 W/m² 12,6 °C 14,7 °C 0,0 km/h (0 Bft)
24.08.2018 01:38 14,6 °C 87 % 1010,2 hPa 0,0 mm 0,0 km/h (0 Bft) W-NW 292 ° 0 min 0,000 mm 0,0 UV-I 0 W/m² 12,5 °C 14,6 °C 0,0 km/h (0 Bft)
24.08.2018 01:39 14,6 °C 87 % 1010,3 hPa 0,0 mm 0,0 km/h (0 Bft) W-NW 292 ° 0 min 0,000 mm 0,0 UV-I 0 W/m² 12,5 °C 14,6 °C 0,0 km/h (0 Bft)
24.08.2018 01:40 14,6 °C 87 % 1010,2 hPa 0,0 mm 0,1 km/h (0 Bft) W-NW 292 ° 0 min 0,000 mm 0,0 UV-I 0 W/m² 12,5 °C 14,6 °C 1,6 km/h (1 Bft)
24.08.2018 01:41 14,6 °C 87 % 1010,2 hPa 0,0 mm 0,0 km/h (0 Bft) W-NW 292 ° 0 min 0,000 mm 0,0 UV-I 0 W/m² 12,5 °C 14,6 °C 0,0 km/h (0 Bft)
24.08.2018 01:42 14,6 °C 87 % 1010,2 hPa 0,0 mm 0,0 km/h (0 Bft) N 0 ° 0 min 0,000 mm 0,0 UV-I 0 W/m² 12,5 °C 14,6 °C 0,0 km/h (0 Bft)
24.08.2018 01:43 14,4 °C 87 % 1010,2 hPa 0,0 mm 0,0 km/h (0 Bft) N 0 ° 0 min 0,000 mm 0,0 UV-I 0 W/m² 12,3 °C 14,4 °C 0,0 km/h (0 Bft)
24.08.2018 01:44 14,4 °C 87 % 1010,2 hPa 0,0 mm 0,0 km/h (0 Bft) N 0 ° 0 min 0,000 mm 0,0 UV-I 0 W/m² 12,3 °C 14,4 °C 0,0 km/h (0 Bft)
24.08.2018 01:45 14,4 °C 88 % 1010,2 hPa 0,0 mm 0,0 km/h (0 Bft) N 0 ° 0 min 0,000 mm 0,0 UV-I 0 W/m² 12,4 °C 14,4 °C 0,0 km/h (0 Bft)
24.08.2018 01:46 14,4 °C 88 % 1010,2 hPa 0,0 mm 0,0 km/h (0 Bft) N 0 ° 0 min 0,000 mm 0,0 UV-I 0 W/m² 12,4 °C 14,4 °C 0,0 km/h (0 Bft)
24.08.2018 01:47 14,3 °C 88 % 1010,2 hPa 0,0 mm 0,0 km/h (0 Bft) N 0 ° 0 min 0,000 mm 0,0 UV-I 0 W/m² 12,3 °C 14,3 °C 0,0 km/h (0 Bft)
24.08.2018 01:48 14,3 °C 88 % 1010,2 hPa 0,0 mm 0,0 km/h (0 Bft) N 0 ° 0 min 0,000 mm 0,0 UV-I 0 W/m² 12,3 °C 14,3 °C 0,0 km/h (0 Bft)
24.08.2018 01:50 14,2 °C 88 % 1010,2 hPa 0,0 mm 0,0 km/h (0 Bft) W-NW 292 ° 0 min 0,000 mm 0,0 UV-I 0 W/m² 12,2 °C 14,2 °C 0,0 km/h (0 Bft)
24.08.2018 01:51 14,2 °C 88 % 1010,1 hPa 0,0 mm 0,0 km/h (0 Bft) W-NW 292 ° 0 min 0,000 mm 0,0 UV-I 0 W/m² 12,2 °C 14,2 °C 0,0 km/h (0 Bft)
24.08.2018 01:52 14,2 °C 88 % 1010,1 hPa 0,0 mm 0,0 km/h (0 Bft) W-NW 292 ° 0 min 0,000 mm 0,0 UV-I 0 W/m² 12,2 °C 14,2 °C 0,0 km/h (0 Bft)
24.08.2018 01:53 14,2 °C 88 % 1010,2 hPa 0,0 mm 0,0 km/h (0 Bft) W-NW 292 ° 0 min 0,000 mm 0,0 UV-I 0 W/m² 12,2 °C 14,2 °C 0,0 km/h (0 Bft)
24.08.2018 01:54 14,2 °C 89 % 1010,1 hPa 0,0 mm 0,3 km/h (0 Bft) W-NW 292 ° 0 min 0,000 mm 0,0 UV-I 0 W/m² 12,4 °C 14,2 °C 1,6 km/h (1 Bft)
24.08.2018 01:55 14,1 °C 89 % 1010,1 hPa 0,0 mm 0,0 km/h (0 Bft) W-NW 292 ° 0 min 0,000 mm 0,0 UV-I 0 W/m² 12,3 °C 14,1 °C 0,0 km/h (0 Bft)
24.08.2018 01:56 14,1 °C 89 % 1010,1 hPa 0,0 mm 0,0 km/h (0 Bft) W-NW 292 ° 0 min 0,000 mm 0,0 UV-I 0 W/m² 12,3 °C 14,1 °C 0,0 km/h (0 Bft)
24.08.2018 01:57 14,0 °C 89 % 1010,1 hPa 0,0 mm 0,0 km/h (0 Bft) W-NW 292 ° 0 min 0,000 mm 0,0 UV-I 0 W/m² 12,2 °C 14,0 °C 0,0 km/h (0 Bft)
24.08.2018 01:58 14,0 °C 89 % 1010,1 hPa 0,0 mm 0,0 km/h (0 Bft) W-NW 292 ° 0 min 0,000 mm 0,0 UV-I 0 W/m² 12,2 °C 14,0 °C 0,0 km/h (0 Bft)
24.08.2018 01:59 13,9 °C 89 % 1010,1 hPa 0,0 mm 0,0 km/h (0 Bft) W-NW 292 ° 0 min 0,000 mm 0,0 UV-I 0 W/m² 12,1 °C 13,9 °C 0,0 km/h (0 Bft)
24.08.2018 02:00 13,9 °C 89 % 1010,1 hPa 0,0 mm 0,0 km/h (0 Bft) W-NW 292 ° 0 min 0,000 mm 0,0 UV-I 0 W/m² 12,1 °C 13,9 °C 0,0 km/h (0 Bft)
24.08.2018 02:01 13,9 °C 89 % 1010,1 hPa 0,0 mm 0,0 km/h (0 Bft) W-NW 292 ° 0 min 0,000 mm 0,0 UV-I 0 W/m² 12,1 °C 13,9 °C 0,0 km/h (0 Bft)
24.08.2018 02:02 13,9 °C 90 % 1010,0 hPa 0,0 mm 0,0 km/h (0 Bft) W-NW 292 ° 0 min 0,000 mm 0,0 UV-I 0 W/m² 12,3 °C 13,9 °C 0,0 km/h (0 Bft)
24.08.2018 02:03 13,9 °C 90 % 1010,0 hPa 0,0 mm 0,0 km/h (0 Bft) W-NW 292 ° 0 min 0,000 mm 0,0 UV-I 0 W/m² 12,3 °C 13,9 °C 0,0 km/h (0 Bft)
24.08.2018 02:04 13,9 °C 90 % 1010,1 hPa 0,0 mm 0,0 km/h (0 Bft) W-NW 292 ° 0 min 0,000 mm 0,0 UV-I 0 W/m² 12,3 °C 13,9 °C 0,0 km/h (0 Bft)
24.08.2018 02:05 13,9 °C 89 % 1010,0 hPa 0,0 mm 0,0 km/h (0 Bft) W-NW 292 ° 0 min 0,000 mm 0,0 UV-I 0 W/m² 12,1 °C 13,9 °C 0,0 km/h (0 Bft)
24.08.2018 02:06 13,9 °C 90 % 1010,0 hPa 0,0 mm 0,0 km/h (0 Bft) W-NW 292 ° 0 min 0,000 mm 0,0 UV-I 0 W/m² 12,3 °C 13,9 °C 0,0 km/h (0 Bft)
24.08.2018 02:07 13,9 °C 89 % 1010,1 hPa 0,0 mm 0,0 km/h (0 Bft) W-NW 292 ° 0 min 0,000 mm 0,0 UV-I 0 W/m² 12,1 °C 13,9 °C 0,0 km/h (0 Bft)
24.08.2018 02:08 13,8 °C 90 % 1010,1 hPa 0,0 mm 0,0 km/h (0 Bft) W-NW 292 ° 0 min 0,000 mm 0,0 UV-I 0 W/m² 12,2 °C 13,8 °C 0,0 km/h (0 Bft)
24.08.2018 02:09 13,8 °C 90 % 1010,1 hPa 0,0 mm 0,0 km/h (0 Bft) W-NW 292 ° 0 min 0,000 mm 0,0 UV-I 0 W/m² 12,2 °C 13,8 °C 0,0 km/h (0 Bft)
24.08.2018 02:10 13,8 °C 90 % 1010,0 hPa 0,0 mm 0,0 km/h (0 Bft) W-NW 292 ° 0 min 0,000 mm 0,0 UV-I 0 W/m² 12,2 °C 13,8 °C 0,0 km/h (0 Bft)
24.08.2018 02:11 13,8 °C 90 % 1010,1 hPa 0,0 mm 0,0 km/h (0 Bft) W-NW 292 ° 0 min 0,000 mm 0,0 UV-I 0 W/m² 12,2 °C 13,8 °C 0,0 km/h (0 Bft)
24.08.2018 02:12 13,8 °C 90 % 1010,0 hPa 0,0 mm 0,0 km/h (0 Bft) W-NW 292 ° 0 min 0,000 mm 0,0 UV-I 0 W/m² 12,2 °C 13,8 °C 0,0 km/h (0 Bft)
24.08.2018 02:13 13,8 °C 90 % 1010,0 hPa 0,0 mm 0,0 km/h (0 Bft) W-NW 292 ° 0 min 0,000 mm 0,0 UV-I 0 W/m² 12,2 °C 13,8 °C 0,0 km/h (0 Bft)
24.08.2018 02:14 13,8 °C 90 % 1010,0 hPa 0,0 mm 0,0 km/h (0 Bft) W-NW 292 ° 0 min 0,000 mm 0,0 UV-I 0 W/m² 12,2 °C 13,8 °C 0,0 km/h (0 Bft)
24.08.2018 02:15 13,8 °C 90 % 1010,0 hPa 0,0 mm 0,0 km/h (0 Bft) W-NW 292 ° 0 min 0,000 mm 0,0 UV-I 0 W/m² 12,2 °C 13,8 °C 0,0 km/h (0 Bft)
24.08.2018 02:16 13,8 °C 90 % 1010,1 hPa 0,0 mm 0,0 km/h (0 Bft) W-NW 292 ° 0 min 0,000 mm 0,0 UV-I 0 W/m² 12,2 °C 13,8 °C 0,0 km/h (0 Bft)
24.08.2018 02:17 13,8 °C 90 % 1010,1 hPa 0,0 mm 0,0 km/h (0 Bft) W-NW 292 ° 0 min 0,000 mm 0,0 UV-I 0 W/m² 12,2 °C 13,8 °C 0,0 km/h (0 Bft)
24.08.2018 02:18 13,8 °C 90 % 1010,2 hPa 0,0 mm 0,0 km/h (0 Bft) W-NW 292 ° 0 min 0,000 mm 0,0 UV-I 0 W/m² 12,2 °C 13,8 °C 0,0 km/h (0 Bft)
24.08.2018 02:19 13,8 °C 90 % 1010,2 hPa 0,0 mm 0,0 km/h (0 Bft) W-NW 292 ° 0 min 0,000 mm 0,0 UV-I 0 W/m² 12,2 °C 13,8 °C 0,0 km/h (0 Bft)
24.08.2018 02:20 13,7 °C 90 % 1010,2 hPa 0,0 mm 0,0 km/h (0 Bft) W-NW 292 ° 0 min 0,000 mm 0,0 UV-I 0 W/m² 12,1 °C 13,7 °C 0,0 km/h (0 Bft)
24.08.2018 02:21 13,7 °C 90 % 1010,2 hPa 0,0 mm 0,0 km/h (0 Bft) W-NW 292 ° 0 min 0,000 mm 0,0 UV-I 0 W/m² 12,1 °C 13,7 °C 0,0 km/h (0 Bft)
24.08.2018 02:22 13,7 °C 90 % 1010,2 hPa 0,0 mm 0,5 km/h (0 Bft) W-NW 292 ° 0 min 0,000 mm 0,0 UV-I 0 W/m² 12,1 °C 13,7 °C 1,6 km/h (1 Bft)
24.08.2018 02:23 13,7 °C 90 % 1010,2 hPa 0,0 mm 0,5 km/h (0 Bft) W-NW 292 ° 0 min 0,000 mm 0,0 UV-I 0 W/m² 12,1 °C 13,7 °C 1,6 km/h (1 Bft)
24.08.2018 02:24 13,7 °C 91 % 1010,2 hPa 0,0 mm 1,6 km/h (1 Bft) W-SW 256 ° 0 min 0,000 mm 0,0 UV-I 0 W/m² 12,3 °C 13,7 °C 3,2 km/h (1 Bft)
24.08.2018 02:25 13,8 °C 91 % 1010,1 hPa 0,0 mm 0,0 km/h (0 Bft) W-SW 256 ° 0 min 0,000 mm 0,0 UV-I 0 W/m² 12,4 °C 13,8 °C 0,0 km/h (0 Bft)
24.08.2018 02:26 13,8 °C 90 % 1010,1 hPa 0,0 mm 0,0 km/h (0 Bft) W-SW 256 ° 0 min 0,000 mm 0,0 UV-I 0 W/m² 12,2 °C 13,8 °C 0,0 km/h (0 Bft)
24.08.2018 02:27 13,8 °C 90 % 1010,1 hPa 0,0 mm 0,0 km/h (0 Bft) W-SW 256 ° 0 min 0,000 mm 0,0 UV-I 0 W/m² 12,2 °C 13,8 °C 0,0 km/h (0 Bft)
24.08.2018 02:28 13,8 °C 90 % 1010,1 hPa 0,0 mm 0,0 km/h (0 Bft) W-SW 256 ° 0 min 0,000 mm 0,0 UV-I 0 W/m² 12,2 °C 13,8 °C 0,0 km/h (0 Bft)
24.08.2018 02:29 13,8 °C 90 % 1010,1 hPa 0,0 mm 0,0 km/h (0 Bft) W-SW 256 ° 0 min 0,000 mm 0,0 UV-I 0 W/m² 12,2 °C 13,8 °C 0,0 km/h (0 Bft)
24.08.2018 02:30 13,8 °C 90 % 1010,2 hPa 0,0 mm 0,2 km/h (0 Bft) W-SW 256 ° 0 min 0,000 mm 0,0 UV-I 0 W/m² 12,2 °C 13,8 °C 3,2 km/h (1 Bft)
24.08.2018 02:31 13,7 °C 90 % 1010,2 hPa 0,0 mm 1,9 km/h (1 Bft) W-SW 256 ° 0 min 0,000 mm 0,0 UV-I 0 W/m² 12,1 °C 13,7 °C 3,2 km/h (1 Bft)
24.08.2018 02:32 13,7 °C 90 % 1010,1 hPa 0,0 mm 0,0 km/h (0 Bft) W-SW 256 ° 0 min 0,000 mm 0,0 UV-I 0 W/m² 12,1 °C 13,7 °C 0,0 km/h (0 Bft)
24.08.2018 02:33 13,7 °C 90 % 1010,1 hPa 0,0 mm 0,0 km/h (0 Bft) W-SW 256 ° 0 min 0,000 mm 0,0 UV-I 0 W/m² 12,1 °C 13,7 °C 0,0 km/h (0 Bft)
24.08.2018 02:34 13,7 °C 90 % 1010,1 hPa 0,0 mm 0,0 km/h (0 Bft) W-SW 256 ° 0 min 0,000 mm 0,0 UV-I 0 W/m² 12,1 °C 13,7 °C 0,0 km/h (0 Bft)
24.08.2018 02:35 13,7 °C 90 % 1010,2 hPa 0,0 mm 0,0 km/h (0 Bft) W-SW 256 ° 0 min 0,000 mm 0,0 UV-I 0 W/m² 12,1 °C 13,7 °C 0,0 km/h (0 Bft)
24.08.2018 02:36 13,7 °C 90 % 1010,2 hPa 0,0 mm 0,0 km/h (0 Bft) W-SW 256 ° 0 min 0,000 mm 0,0 UV-I 0 W/m² 12,1 °C 13,7 °C 0,0 km/h (0 Bft)
24.08.2018 02:37 13,7 °C 90 % 1010,1 hPa 0,0 mm 0,1 km/h (0 Bft) W-SW 256 ° 0 min 0,000 mm 0,0 UV-I 0 W/m² 12,1 °C 13,7 °C 1,6 km/h (1 Bft)
24.08.2018 02:38 13,7 °C 90 % 1010,2 hPa 0,0 mm 0,1 km/h (0 Bft) W-SW 256 ° 0 min 0,000 mm 0,0 UV-I 0 W/m² 12,1 °C 13,7 °C 1,6 km/h (1 Bft)
24.08.2018 02:39 13,8 °C 90 % 1010,2 hPa 0,0 mm 1,1 km/h (1 Bft) W-SW 250 ° 0 min 0,000 mm 0,0 UV-I 0 W/m² 12,2 °C 13,8 °C 3,2 km/h (1 Bft)
24.08.2018 02:40 13,9 °C 90 % 1010,2 hPa 0,0 mm 3,6 km/h (1 Bft) S-SW 192 ° 0 min 0,000 mm 0,0 UV-I 0 W/m² 12,3 °C 13,9 °C 4,8 km/h (1 Bft)
24.08.2018 02:41 14,1 °C 90 % 1010,2 hPa 0,0 mm 2,1 km/h (1 Bft) S-SW 192 ° 0 min 0,000 mm 0,0 UV-I 0 W/m² 12,5 °C 14,1 °C 3,2 km/h (1 Bft)
24.08.2018 02:42 14,2 °C 89 % 1010,2 hPa 0,0 mm 0,8 km/h (0 Bft) S-SW 192 ° 0 min 0,000 mm 0,0 UV-I 0 W/m² 12,4 °C 14,2 °C 3,2 km/h (1 Bft)
24.08.2018 02:43 14,2 °C 89 % 1010,2 hPa 0,0 mm 0,0 km/h (0 Bft) S-SW 192 ° 0 min 0,000 mm 0,0 UV-I 0 W/m² 12,4 °C 14,2 °C 0,0 km/h (0 Bft)
24.08.2018 02:44 14,2 °C 89 % 1010,1 hPa 0,0 mm 0,5 km/h (0 Bft) S-SW 192 ° 0 min 0,000 mm 0,0 UV-I 0 W/m² 12,4 °C 14,2 °C 3,2 km/h (1 Bft)
24.08.2018 02:45 14,3 °C 89 % 1010,1 hPa 0,0 mm 0,0 km/h (0 Bft) S-SW 192 ° 0 min 0,000 mm 0,0 UV-I 0 W/m² 12,5 °C 14,3 °C 0,0 km/h (0 Bft)
24.08.2018 02:46 14,3 °C 89 % 1010,1 hPa 0,0 mm 0,0 km/h (0 Bft) S-SW 192 ° 0 min 0,000 mm 0,0 UV-I 0 W/m² 12,5 °C 14,3 °C 0,0 km/h (0 Bft)
24.08.2018 02:47 14,3 °C 89 % 1010,1 hPa 0,0 mm 0,0 km/h (0 Bft) S-SW 192 ° 0 min 0,000 mm 0,0 UV-I 0 W/m² 12,5 °C 14,3 °C 0,0 km/h (0 Bft)
24.08.2018 02:48 14,3 °C 89 % 1010,1 hPa 0,0 mm 0,6 km/h (0 Bft) S-SW 192 ° 0 min 0,000 mm 0,0 UV-I 0 W/m² 12,5 °C 14,3 °C 1,6 km/h (1 Bft)
24.08.2018 02:49 14,3 °C 89 % 1010,1 hPa 0,0 mm 0,4 km/h (0 Bft) S-SW 192 ° 0 min 0,000 mm 0,0 UV-I 0 W/m² 12,5 °C 14,3 °C 1,6 km/h (1 Bft)
24.08.2018 02:50 14,2 °C 89 % 1010,1 hPa 0,0 mm 0,0 km/h (0 Bft) S-SW 192 ° 0 min 0,000 mm 0,0 UV-I 0 W/m² 12,4 °C 14,2 °C 0,0 km/h (0 Bft)
24.08.2018 02:51 14,2 °C 89 % 1010,1 hPa 0,0 mm 0,0 km/h (0 Bft) S-SW 192 ° 0 min 0,000 mm 0,0 UV-I 0 W/m² 12,4 °C 14,2 °C 0,0 km/h (0 Bft)
24.08.2018 02:52 14,2 °C 89 % 1010,1 hPa 0,0 mm 1,6 km/h (1 Bft) S-SW 202 ° 0 min 0,000 mm 0,0 UV-I 0 W/m² 12,4 °C 14,2 °C 3,2 km/h (1 Bft)
24.08.2018 02:53 14,2 °C 89 % 1010,1 hPa 0,0 mm 0,0 km/h (0 Bft) S-SW 202 ° 0 min 0,000 mm 0,0 UV-I 0 W/m² 12,4 °C 14,2 °C 1,6 km/h (1 Bft)
24.08.2018 02:54 14,2 °C 89 % 1010,1 hPa 0,0 mm 0,0 km/h (0 Bft) N 0 ° 0 min 0,000 mm 0,0 UV-I 0 W/m² 12,4 °C 14,2 °C 0,0 km/h (0 Bft)
24.08.2018 02:55 14,3 °C 89 % 1010,0 hPa 0,0 mm 1,6 km/h (1 Bft) S-SW 202 ° 0 min 0,000 mm 0,0 UV-I 0 W/m² 12,5 °C 14,3 °C 3,2 km/h (1 Bft)
24.08.2018 02:56 14,3 °C 89 % 1010,0 hPa 0,0 mm 0,0 km/h (0 Bft) S-SW 202 ° 0 min 0,000 mm 0,0 UV-I 0 W/m² 12,5 °C 14,3 °C 3,2 km/h (1 Bft)
24.08.2018 02:57 14,4 °C 89 % 1010,0 hPa 0,0 mm 0,0 km/h (0 Bft) S-SW 202 ° 0 min 0,000 mm 0,0 UV-I 0 W/m² 12,6 °C 14,4 °C 3,2 km/h (1 Bft)
24.08.2018 02:58 14,4 °C 88 % 1010,0 hPa 0,0 mm 0,0 km/h (0 Bft) N 0 ° 0 min 0,000 mm 0,0 UV-I 0 W/m² 12,4 °C 14,4 °C 0,0 km/h (0 Bft)
24.08.2018 03:00 14,6 °C 88 % 1010,0 hPa 0,0 mm 0,0 km/h (0 Bft) S-SW 192 ° 0 min 0,000 mm 0,0 UV-I 0 W/m² 12,6 °C 14,6 °C 0,0 km/h (0 Bft)
24.08.2018 03:01 14,6 °C 88 % 1010,0 hPa 0,0 mm 0,0 km/h (0 Bft) S-SW 192 ° 0 min 0,000 mm 0,0 UV-I 0 W/m² 12,6 °C 14,6 °C 0,0 km/h (0 Bft)
24.08.2018 03:02 14,6 °C 87 % 1010,0 hPa 0,0 mm 0,0 km/h (0 Bft) N 0 ° 0 min 0,000 mm 0,0 UV-I 0 W/m² 12,5 °C 14,6 °C 0,0 km/h (0 Bft)
24.08.2018 03:03 14,6 °C 87 % 1010,0 hPa 0,0 mm 0,0 km/h (0 Bft) N 0 ° 0 min 0,000 mm 0,0 UV-I 0 W/m² 12,5 °C 14,6 °C 0,0 km/h (0 Bft)
24.08.2018 03:04 14,6 °C 87 % 1010,0 hPa 0,0 mm 0,0 km/h (0 Bft) S-SW 202 ° 0 min 0,000 mm 0,0 UV-I 0 W/m² 12,5 °C 14,6 °C 4,8 km/h (1 Bft)
24.08.2018 03:05 14,6 °C 87 % 1010,0 hPa 0,0 mm 3,2 km/h (1 Bft) S-SW 202 ° 0 min 0,000 mm 0,0 UV-I 0 W/m² 12,5 °C 14,6 °C 4,8 km/h (1 Bft)
24.08.2018 03:06 14,6 °C 87 % 1010,0 hPa 0,0 mm 3,2 km/h (1 Bft) S-SW 202 ° 0 min 0,000 mm 0,0 UV-I 0 W/m² 12,5 °C 14,6 °C 4,8 km/h (1 Bft)
24.08.2018 03:07 14,6 °C 87 % 1010,0 hPa 0,0 mm 1,6 km/h (1 Bft) S-SW 202 ° 0 min 0,000 mm 0,0 UV-I 0 W/m² 12,5 °C 14,6 °C 3,2 km/h (1 Bft)
24.08.2018 03:08 14,6 °C 87 % 1010,0 hPa 0,0 mm 0,0 km/h (0 Bft) S-SW 202 ° 0 min 0,000 mm 0,0 UV-I 0 W/m² 12,5 °C 14,6 °C 1,6 km/h (1 Bft)
24.08.2018 03:10 14,6 °C 87 % 1009,9 hPa 0,0 mm 3,1 km/h (1 Bft) S-SW 192 ° 0 min 0,000 mm 0,0 UV-I 0 W/m² 12,5 °C 14,6 °C 4,8 km/h (1 Bft)
24.08.2018 03:11 14,5 °C 87 % 1010,0 hPa 0,0 mm 2,0 km/h (1 Bft) S-SW 192 ° 0 min 0,000 mm 0,0 UV-I 0 W/m² 12,4 °C 14,5 °C 4,8 km/h (1 Bft)
24.08.2018 03:12 14,4 °C 87 % 1010,0 hPa 0,0 mm 0,0 km/h (0 Bft) S-SW 192 ° 0 min 0,000 mm 0,0 UV-I 0 W/m² 12,3 °C 14,4 °C 0,0 km/h (0 Bft)
24.08.2018 03:13 14,4 °C 87 % 1010,0 hPa 0,0 mm 0,0 km/h (0 Bft) S-SW 192 ° 0 min 0,000 mm 0,0 UV-I 0 W/m² 12,3 °C 14,4 °C 0,0 km/h (0 Bft)
24.08.2018 03:14 14,4 °C 88 % 1009,9 hPa 0,0 mm 0,5 km/h (0 Bft) S-SW 192 ° 0 min 0,000 mm 0,0 UV-I 0 W/m² 12,4 °C 14,4 °C 4,8 km/h (1 Bft)
24.08.2018 03:15 14,4 °C 88 % 1009,9 hPa 0,0 mm 2,4 km/h (1 Bft) S-SW 192 ° 0 min 0,000 mm 0,0 UV-I 0 W/m² 12,4 °C 14,4 °C 3,2 km/h (1 Bft)
24.08.2018 03:16 14,4 °C 88 % 1010,0 hPa 0,0 mm 0,1 km/h (0 Bft) S-SW 192 ° 0 min 0,000 mm 0,0 UV-I 0 W/m² 12,4 °C 14,4 °C 1,6 km/h (1 Bft)
24.08.2018 03:17 14,4 °C 88 % 1010,0 hPa 0,0 mm 0,3 km/h (0 Bft) S-SW 192 ° 0 min 0,000 mm 0,0 UV-I 0 W/m² 12,4 °C 14,4 °C 1,6 km/h (1 Bft)
24.08.2018 03:18 14,4 °C 88 % 1010,0 hPa 0,0 mm 1,1 km/h (1 Bft) S-SW 192 ° 0 min 0,000 mm 0,0 UV-I 0 W/m² 12,4 °C 14,4 °C 1,6 km/h (1 Bft)
24.08.2018 03:19 14,4 °C 88 % 1010,0 hPa 0,0 mm 1,9 km/h (1 Bft) S-SW 198 ° 0 min 0,000 mm 0,0 UV-I 0 W/m² 12,4 °C 14,4 °C 3,2 km/h (1 Bft)
24.08.2018 03:20 14,3 °C 88 % 1010,0 hPa 0,0 mm 0,0 km/h (0 Bft) S-SW 198 ° 0 min 0,000 mm 0,0 UV-I 0 W/m² 12,3 °C 14,3 °C 0,0 km/h (0 Bft)
24.08.2018 03:21 14,3 °C 88 % 1009,9 hPa 0,0 mm 0,5 km/h (0 Bft) S-SW 198 ° 0 min 0,000 mm 0,0 UV-I 0 W/m² 12,3 °C 14,3 °C 1,6 km/h (1 Bft)
24.08.2018 03:22 14,3 °C 88 % 1010,0 hPa 0,0 mm 3,3 km/h (1 Bft) SW 236 ° 0 min 0,000 mm 0,0 UV-I 0 W/m² 12,3 °C 14,3 °C 4,8 km/h (1 Bft)
24.08.2018 03:23 14,3 °C 88 % 1010,0 hPa 0,0 mm 2,7 km/h (1 Bft) W-SW 241 ° 0 min 0,000 mm 0,0 UV-I 0 W/m² 12,3 °C 14,3 °C 4,8 km/h (1 Bft)
24.08.2018 03:24 14,3 °C 88 % 1009,9 hPa 0,0 mm 1,7 km/h (1 Bft) SW 236 ° 0 min 0,000 mm 0,0 UV-I 0 W/m² 12,3 °C 14,3 °C 3,2 km/h (1 Bft)
24.08.2018 03:25 14,3 °C 88 % 1009,9 hPa 0,0 mm 0,0 km/h (0 Bft) SW 236 ° 0 min 0,000 mm 0,0 UV-I 0 W/m² 12,3 °C 14,3 °C 0,0 km/h (0 Bft)
24.08.2018 03:26 14,3 °C 88 % 1009,9 hPa 0,0 mm 0,0 km/h (0 Bft) SW 236 ° 0 min 0,000 mm 0,0 UV-I 0 W/m² 12,3 °C 14,3 °C 0,0 km/h (0 Bft)
24.08.2018 03:27 14,4 °C 88 % 1009,9 hPa 0,0 mm 1,6 km/h (1 Bft) SW 225 ° 0 min 0,000 mm 0,0 UV-I 0 W/m² 12,4 °C 14,4 °C 3,2 km/h (1 Bft)
24.08.2018 03:28 14,4 °C 88 % 1009,9 hPa 0,0 mm 3,2 km/h (1 Bft) SW 225 ° 0 min 0,000 mm 0,0 UV-I 0 W/m² 12,4 °C 14,4 °C 4,8 km/h (1 Bft)
24.08.2018 03:29 14,4 °C 88 % 1009,9 hPa 0,0 mm 1,6 km/h (1 Bft) W-SW 247 ° 0 min 0,000 mm 0,0 UV-I 0 W/m² 12,4 °C 14,4 °C 3,2 km/h (1 Bft)
24.08.2018 03:30 14,4 °C 88 % 1009,9 hPa 0,0 mm 0,0 km/h (0 Bft) N 0 ° 0 min 0,000 mm 0,0 UV-I 0 W/m² 12,4 °C 14,4 °C 0,0 km/h (0 Bft)
24.08.2018 03:31 14,4 °C 88 % 1009,8 hPa 0,0 mm 0,0 km/h (0 Bft) N 0 ° 0 min 0,000 mm 0,0 UV-I 0 W/m² 12,4 °C 14,4 °C 0,0 km/h (0 Bft)
24.08.2018 03:32 14,4 °C 88 % 1009,8 hPa 0,0 mm 0,0 km/h (0 Bft) N 0 ° 0 min 0,000 mm 0,0 UV-I 0 W/m² 12,4 °C 14,4 °C 0,0 km/h (0 Bft)
24.08.2018 03:33 14,4 °C 88 % 1009,9 hPa 0,0 mm 3,2 km/h (1 Bft) W 270 ° 0 min 0,000 mm 0,0 UV-I 0 W/m² 12,4 °C 14,4 °C 6,4 km/h (2 Bft)
24.08.2018 03:35 14,2 °C 88 % 1009,9 hPa 0,0 mm 0,0 km/h (0 Bft) W-SW 252 ° 0 min 0,000 mm 0,0 UV-I 0 W/m² 12,2 °C 14,2 °C 0,0 km/h (0 Bft)
24.08.2018 03:36 14,2 °C 89 % 1009,8 hPa 0,0 mm 0,7 km/h (0 Bft) W-SW 248 ° 0 min 0,000 mm 0,0 UV-I 0 W/m² 12,4 °C 14,2 °C 3,2 km/h (1 Bft)
24.08.2018 03:37 14,1 °C 89 % 1009,8 hPa 0,0 mm 4,2 km/h (1 Bft) S-SW 213 ° 0 min 0,000 mm 0,0 UV-I 0 W/m² 12,3 °C 14,1 °C 6,4 km/h (2 Bft)
24.08.2018 03:38 14,1 °C 89 % 1009,8 hPa 0,0 mm 3,6 km/h (1 Bft) S-SW 207 ° 0 min 0,000 mm 0,0 UV-I 0 W/m² 12,3 °C 14,1 °C 6,4 km/h (2 Bft)
24.08.2018 03:39 14,1 °C 89 % 1009,8 hPa 0,0 mm 0,6 km/h (0 Bft) S-SW 207 ° 0 min 0,000 mm 0,0 UV-I 0 W/m² 12,3 °C 14,1 °C 3,2 km/h (1 Bft)
24.08.2018 03:40 14,1 °C 89 % 1009,8 hPa 0,0 mm 0,9 km/h (0 Bft) S-SW 207 ° 0 min 0,000 mm 0,0 UV-I 0 W/m² 12,3 °C 14,1 °C 3,2 km/h (1 Bft)
24.08.2018 03:41 14,1 °C 89 % 1009,7 hPa 0,0 mm 0,0 km/h (0 Bft) S-SW 207 ° 0 min 0,000 mm 0,0 UV-I 0 W/m² 12,3 °C 14,1 °C 0,0 km/h (0 Bft)
24.08.2018 03:42 14,0 °C 89 % 1009,7 hPa 0,0 mm 0,0 km/h (0 Bft) N 0 ° 0 min 0,000 mm 0,0 UV-I 0 W/m² 12,2 °C 14,0 °C 0,0 km/h (0 Bft)
24.08.2018 03:43 13,9 °C 89 % 1009,6 hPa 0,0 mm 0,0 km/h (0 Bft) N 0 ° 0 min 0,000 mm 0,0 UV-I 0 W/m² 12,1 °C 13,9 °C 0,0 km/h (0 Bft)
24.08.2018 03:44 13,9 °C 89 % 1009,6 hPa 0,0 mm 1,6 km/h (1 Bft) S-SW 202 ° 0 min 0,000 mm 0,0 UV-I 0 W/m² 12,1 °C 13,9 °C 3,2 km/h (1 Bft)
24.08.2018 03:45 13,9 °C 89 % 1009,6 hPa 0,0 mm 0,0 km/h (0 Bft) S-SW 202 ° 0 min 0,000 mm 0,0 UV-I 0 W/m² 12,1 °C 13,9 °C 3,2 km/h (1 Bft)
24.08.2018 03:46 13,9 °C 89 % 1009,5 hPa 0,0 mm 0,0 km/h (0 Bft) N 0 ° 0 min 0,000 mm 0,0 UV-I 0 W/m² 12,1 °C 13,9 °C 0,0 km/h (0 Bft)
24.08.2018 03:47 13,8 °C 89 % 1009,5 hPa 0,0 mm 0,0 km/h (0 Bft) N 0 ° 0 min 0,000 mm 0,0 UV-I 0 W/m² 12,0 °C 13,8 °C 0,0 km/h (0 Bft)
24.08.2018 03:48 13,8 °C 89 % 1009,5 hPa 0,0 mm 0,0 km/h (0 Bft) N 0 ° 0 min 0,000 mm 0,0 UV-I 0 W/m² 12,0 °C 13,8 °C 0,0 km/h (0 Bft)
24.08.2018 03:50 13,8 °C 90 % 1009,5 hPa 0,0 mm 0,0 km/h (0 Bft) S-SW 207 ° 0 min 0,000 mm 0,0 UV-I 0 W/m² 12,2 °C 13,8 °C 0,0 km/h (0 Bft)
24.08.2018 03:51 13,8 °C 90 % 1009,5 hPa 0,0 mm 0,2 km/h (0 Bft) S-SW 207 ° 0 min 0,000 mm 0,0 UV-I 0 W/m² 12,2 °C 13,8 °C 1,6 km/h (1 Bft)
24.08.2018 03:52 13,8 °C 90 % 1009,5 hPa 0,0 mm 0,4 km/h (0 Bft) S-SW 207 ° 0 min 0,000 mm 0,0 UV-I 0 W/m² 12,2 °C 13,8 °C 1,6 km/h (1 Bft)
24.08.2018 03:53 13,8 °C 90 % 1009,5 hPa 0,0 mm 0,0 km/h (0 Bft) S-SW 207 ° 0 min 0,000 mm 0,0 UV-I 0 W/m² 12,2 °C 13,8 °C 0,0 km/h (0 Bft)
24.08.2018 03:54 13,8 °C 89 % 1009,5 hPa 0,0 mm 0,0 km/h (0 Bft) S-SW 207 ° 0 min 0,000 mm 0,0 UV-I 0 W/m² 12,0 °C 13,8 °C 0,0 km/h (0 Bft)
24.08.2018 03:55 13,8 °C 90 % 1009,5 hPa 0,0 mm 0,0 km/h (0 Bft) S-SW 207 ° 0 min 0,000 mm 0,0 UV-I 0 W/m² 12,2 °C 13,8 °C 0,0 km/h (0 Bft)
24.08.2018 03:56 13,8 °C 90 % 1009,4 hPa 0,0 mm 0,0 km/h (0 Bft) S-SW 207 ° 0 min 0,000 mm 0,0 UV-I 0 W/m² 12,2 °C 13,8 °C 0,0 km/h (0 Bft)
24.08.2018 03:57 13,9 °C 90 % 1009,4 hPa 0,0 mm 0,0 km/h (0 Bft) S-SW 207 ° 0 min 0,000 mm 0,0 UV-I 0 W/m² 12,3 °C 13,9 °C 0,0 km/h (0 Bft)
24.08.2018 03:58 13,9 °C 90 % 1009,4 hPa 0,0 mm 0,0 km/h (0 Bft) S-SW 207 ° 0 min 0,000 mm 0,0 UV-I 0 W/m² 12,3 °C 13,9 °C 0,0 km/h (0 Bft)
24.08.2018 03:59 14,0 °C 90 % 1009,5 hPa 0,0 mm 1,3 km/h (1 Bft) SW 236 ° 0 min 0,000 mm 0,0 UV-I 0 W/m² 12,4 °C 14,0 °C 4,8 km/h (1 Bft)
24.08.2018 04:00 14,0 °C 89 % 1009,5 hPa 0,0 mm 0,6 km/h (0 Bft) SW 236 ° 0 min 0,000 mm 0,0 UV-I 0 W/m² 12,2 °C 14,0 °C 1,6 km/h (1 Bft)
24.08.2018 04:01 14,1 °C 89 % 1009,5 hPa 0,0 mm 0,0 km/h (0 Bft) SW 236 ° 0 min 0,000 mm 0,0 UV-I 0 W/m² 12,3 °C 14,1 °C 0,0 km/h (0 Bft)
24.08.2018 04:02 14,0 °C 89 % 1009,4 hPa 0,0 mm 0,0 km/h (0 Bft) SW 236 ° 0 min 0,000 mm 0,0 UV-I 0 W/m² 12,2 °C 14,0 °C 0,0 km/h (0 Bft)
24.08.2018 04:03 14,0 °C 89 % 1009,4 hPa 0,0 mm 0,0 km/h (0 Bft) SW 236 ° 0 min 0,000 mm 0,0 UV-I 0 W/m² 12,2 °C 14,0 °C 0,0 km/h (0 Bft)
24.08.2018 04:04 13,9 °C 90 % 1009,4 hPa 0,0 mm 0,0 km/h (0 Bft) SW 236 ° 0 min 0,000 mm 0,0 UV-I 0 W/m² 12,3 °C 13,9 °C 0,0 km/h (0 Bft)
24.08.2018 04:05 13,9 °C 90 % 1009,4 hPa 0,0 mm 0,1 km/h (0 Bft) SW 236 ° 0 min 0,000 mm 0,0 UV-I 0 W/m² 12,3 °C 13,9 °C 1,6 km/h (1 Bft)
24.08.2018 04:06 14,0 °C 90 % 1009,4 hPa 0,0 mm 0,9 km/h (0 Bft) W 265 ° 0 min 0,000 mm 0,0 UV-I 0 W/m² 12,4 °C 14,0 °C 3,2 km/h (1 Bft)
24.08.2018 04:07 14,0 °C 90 % 1009,4 hPa 0,0 mm 0,7 km/h (0 Bft) W 269 ° 0 min 0,000 mm 0,0 UV-I 0 W/m² 12,4 °C 14,0 °C 3,2 km/h (1 Bft)
24.08.2018 04:08 14,0 °C 89 % 1009,4 hPa 0,0 mm 0,2 km/h (0 Bft) W 275 ° 0 min 0,000 mm 0,0 UV-I 0 W/m² 12,2 °C 14,0 °C 1,6 km/h (1 Bft)
24.08.2018 04:09 14,1 °C 89 % 1009,5 hPa 0,0 mm 0,0 km/h (0 Bft) W 275 ° 0 min 0,000 mm 0,0 UV-I 0 W/m² 12,3 °C 14,1 °C 0,0 km/h (0 Bft)
24.08.2018 04:10 14,1 °C 89 % 1009,4 hPa 0,0 mm 0,0 km/h (0 Bft) W 275 ° 0 min 0,000 mm 0,0 UV-I 0 W/m² 12,3 °C 14,1 °C 0,0 km/h (0 Bft)
24.08.2018 04:11 14,1 °C 89 % 1009,5 hPa 0,0 mm 0,1 km/h (0 Bft) W 275 ° 0 min 0,000 mm 0,0 UV-I 0 W/m² 12,3 °C 14,1 °C 1,6 km/h (1 Bft)
24.08.2018 04:12 14,1 °C 89 % 1009,5 hPa 0,0 mm 1,7 km/h (1 Bft) W-NW 290 ° 0 min 0,000 mm 0,0 UV-I 0 W/m² 12,3 °C 14,1 °C 3,2 km/h (1 Bft)
24.08.2018 04:13 14,1 °C 89 % 1009,5 hPa 0,0 mm 0,6 km/h (0 Bft) W-NW 290 ° 0 min 0,000 mm 0,0 UV-I 0 W/m² 12,3 °C 14,1 °C 1,6 km/h (1 Bft)
24.08.2018 04:14 14,1 °C 89 % 1009,4 hPa 0,0 mm 0,0 km/h (0 Bft) W-NW 290 ° 0 min 0,000 mm 0,0 UV-I 0 W/m² 12,3 °C 14,1 °C 0,0 km/h (0 Bft)
24.08.2018 04:15 14,2 °C 90 % 1009,5 hPa 0,0 mm 0,0 km/h (0 Bft) W-NW 290 ° 0 min 0,000 mm 0,0 UV-I 0 W/m² 12,6 °C 14,2 °C 0,0 km/h (0 Bft)
24.08.2018 04:16 14,2 °C 90 % 1009,5 hPa 0,0 mm 0,0 km/h (0 Bft) W-NW 290 ° 0 min 0,000 mm 0,0 UV-I 0 W/m² 12,6 °C 14,2 °C 0,0 km/h (0 Bft)
24.08.2018 04:17 14,2 °C 89 % 1009,5 hPa 0,0 mm 0,0 km/h (0 Bft) W-NW 292 ° 0 min 0,000 mm 0,0 UV-I 0 W/m² 12,4 °C 14,2 °C 4,8 km/h (1 Bft)
24.08.2018 04:18 14,3 °C 89 % 1009,6 hPa 0,0 mm 8,0 km/h (2 Bft) NW 315 ° 0 min 0,000 mm 0,0 UV-I 0 W/m² 12,5 °C 14,3 °C 12,9 km/h (3 Bft)
24.08.2018 04:19 14,3 °C 89 % 1009,7 hPa 0,0 mm 8,0 km/h (2 Bft) NW 315 ° 0 min 0,000 mm 0,0 UV-I 0 W/m² 12,5 °C 14,3 °C 12,9 km/h (3 Bft)
24.08.2018 04:20 14,4 °C 88 % 1009,8 hPa 0,0 mm 3,2 km/h (1 Bft) NW 315 ° 0 min 0,000 mm 0,0 UV-I 0 W/m² 12,4 °C 14,4 °C 6,4 km/h (2 Bft)
24.08.2018 04:21 14,4 °C 88 % 1009,8 hPa 0,0 mm 4,8 km/h (1 Bft) N-NW 337 ° 0 min 0,000 mm 0,0 UV-I 0 W/m² 12,4 °C 14,4 °C 6,4 km/h (2 Bft)
24.08.2018 04:22 14,4 °C 88 % 1010,0 hPa 0,0 mm 3,2 km/h (1 Bft) N-NW 337 ° 0 min 0,000 mm 0,0 UV-I 0 W/m² 12,4 °C 14,4 °C 6,4 km/h (2 Bft)
24.08.2018 04:23 14,3 °C 88 % 1010,0 hPa 0,0 mm 1,6 km/h (1 Bft) NW 315 ° 0 min 0,000 mm 0,0 UV-I 0 W/m² 12,3 °C 14,3 °C 4,8 km/h (1 Bft)
24.08.2018 04:25 14,2 °C 89 % 1009,9 hPa 0,0 mm 0,0 km/h (0 Bft) NW 324 ° 0 min 0,000 mm 0,0 UV-I 0 W/m² 12,4 °C 14,2 °C 0,0 km/h (0 Bft)
24.08.2018 04:26 14,2 °C 89 % 1009,9 hPa 0,0 mm 0,0 km/h (0 Bft) NW 324 ° 0 min 0,000 mm 0,0 UV-I 0 W/m² 12,4 °C 14,2 °C 0,0 km/h (0 Bft)
24.08.2018 04:27 14,2 °C 89 % 1009,9 hPa 0,0 mm 2,9 km/h (1 Bft) S 180 ° 0 min 0,000 mm 0,0 UV-I 0 W/m² 12,4 °C 14,2 °C 8,0 km/h (2 Bft)
24.08.2018 04:28 14,3 °C 89 % 1009,8 hPa 0,0 mm 1,9 km/h (1 Bft) S-SO 161 ° 0 min 0,000 mm 0,0 UV-I 0 W/m² 12,5 °C 14,3 °C 6,4 km/h (2 Bft)
24.08.2018 04:29 14,3 °C 89 % 1009,8 hPa 0,0 mm 2,6 km/h (1 Bft) S-SO 154 ° 0 min 0,000 mm 0,0 UV-I 0 W/m² 12,5 °C 14,3 °C 3,2 km/h (1 Bft)
24.08.2018 04:30 14,4 °C 89 % 1009,7 hPa 0,0 mm 2,6 km/h (1 Bft) S-SO 154 ° 0 min 0,000 mm 0,0 UV-I 0 W/m² 12,6 °C 14,4 °C 3,2 km/h (1 Bft)
24.08.2018 04:31 14,4 °C 89 % 1009,8 hPa 0,0 mm 0,1 km/h (0 Bft) S-SO 154 ° 0 min 0,000 mm 0,0 UV-I 0 W/m² 12,6 °C 14,4 °C 1,6 km/h (1 Bft)
24.08.2018 04:32 14,4 °C 89 % 1009,7 hPa 0,0 mm 0,0 km/h (0 Bft) S-SO 154 ° 0 min 0,000 mm 0,0 UV-I 0 W/m² 12,6 °C 14,4 °C 0,0 km/h (0 Bft)
24.08.2018 04:33 14,4 °C 89 % 1009,7 hPa 0,0 mm 0,0 km/h (0 Bft) S-SO 154 ° 0 min 0,000 mm 0,0 UV-I 0 W/m² 12,6 °C 14,4 °C 0,0 km/h (0 Bft)
24.08.2018 04:34 14,4 °C 89 % 1009,7 hPa 0,0 mm 0,0 km/h (0 Bft) S-SO 154 ° 0 min 0,000 mm 0,0 UV-I 0 W/m² 12,6 °C 14,4 °C 0,0 km/h (0 Bft)
24.08.2018 04:35 14,5 °C 89 % 1009,7 hPa 0,0 mm 0,5 km/h (0 Bft) S-SW 200 ° 0 min 0,000 mm 0,0 UV-I 0 W/m² 12,7 °C 14,5 °C 3,2 km/h (1 Bft)
24.08.2018 04:36 14,5 °C 89 % 1009,7 hPa 0,0 mm 0,0 km/h (0 Bft) S-SW 200 ° 0 min 0,000 mm 0,0 UV-I 0 W/m² 12,7 °C 14,5 °C 0,0 km/h (0 Bft)
24.08.2018 04:37 14,5 °C 89 % 1009,7 hPa 0,0 mm 0,1 km/h (0 Bft) S 188 ° 0 min 0,000 mm 0,0 UV-I 0 W/m² 12,7 °C 14,5 °C 1,6 km/h (1 Bft)
24.08.2018 04:38 14,6 °C 89 % 1009,7 hPa 0,0 mm 0,0 km/h (0 Bft) S 188 ° 0 min 0,000 mm 0,0 UV-I 0 W/m² 12,8 °C 14,6 °C 0,0 km/h (0 Bft)
24.08.2018 04:39 14,6 °C 89 % 1009,7 hPa 0,0 mm 0,0 km/h (0 Bft) S 188 ° 0 min 0,000 mm 0,0 UV-I 0 W/m² 12,8 °C 14,6 °C 0,0 km/h (0 Bft)
24.08.2018 04:40 14,6 °C 89 % 1009,8 hPa 0,0 mm 0,0 km/h (0 Bft) S 188 ° 0 min 0,000 mm 0,0 UV-I 0 W/m² 12,8 °C 14,6 °C 0,0 km/h (0 Bft)
24.08.2018 04:41 14,6 °C 88 % 1009,8 hPa 0,0 mm 0,0 km/h (0 Bft) S 188 ° 0 min 0,000 mm 0,0 UV-I 0 W/m² 12,6 °C 14,6 °C 0,0 km/h (0 Bft)
24.08.2018 04:42 14,6 °C 88 % 1009,8 hPa 0,0 mm 0,0 km/h (0 Bft) S 188 ° 0 min 0,000 mm 0,0 UV-I 0 W/m² 12,6 °C 14,6 °C 0,0 km/h (0 Bft)
24.08.2018 04:43 14,7 °C 88 % 1009,8 hPa 0,0 mm 0,0 km/h (0 Bft) S 188 ° 0 min 0,000 mm 0,0 UV-I 0 W/m² 12,7 °C 14,7 °C 0,0 km/h (0 Bft)
24.08.2018 04:44 14,7 °C 88 % 1009,8 hPa 0,0 mm 0,7 km/h (0 Bft) S-SW 208 ° 0 min 0,000 mm 0,0 UV-I 0 W/m² 12,7 °C 14,7 °C 1,6 km/h (1 Bft)
24.08.2018 04:45 14,7 °C 88 % 1009,8 hPa 0,0 mm 3,0 km/h (1 Bft) NW 326 ° 0 min 0,000 mm 0,0 UV-I 0 W/m² 12,7 °C 14,7 °C 4,8 km/h (1 Bft)
24.08.2018 04:46 14,7 °C 88 % 1009,8 hPa 0,0 mm 0,8 km/h (0 Bft) NW 326 ° 0 min 0,000 mm 0,0 UV-I 0 W/m² 12,7 °C 14,7 °C 1,6 km/h (1 Bft)
24.08.2018 04:47 14,7 °C 88 % 1009,8 hPa 0,0 mm 0,0 km/h (0 Bft) NW 326 ° 0 min 0,000 mm 0,0 UV-I 0 W/m² 12,7 °C 14,7 °C 0,0 km/h (0 Bft)
24.08.2018 04:48 14,6 °C 88 % 1009,9 hPa 0,0 mm 0,5 km/h (0 Bft) NW 326 ° 0 min 0,000 mm 0,0 UV-I 0 W/m² 12,6 °C 14,6 °C 1,6 km/h (1 Bft)
24.08.2018 04:49 14,6 °C 88 % 1009,9 hPa 0,0 mm 0,0 km/h (0 Bft) NW 326 ° 0 min 0,000 mm 0,0 UV-I 0 W/m² 12,6 °C 14,6 °C 0,0 km/h (0 Bft)
24.08.2018 04:50 14,7 °C 88 % 1009,8 hPa 0,0 mm 0,0 km/h (0 Bft) NW 326 ° 0 min 0,000 mm 0,0 UV-I 0 W/m² 12,7 °C 14,7 °C 0,0 km/h (0 Bft)
24.08.2018 04:51 14,7 °C 88 % 1009,8 hPa 0,0 mm 0,0 km/h (0 Bft) NW 326 ° 0 min 0,000 mm 0,0 UV-I 0 W/m² 12,7 °C 14,7 °C 0,0 km/h (0 Bft)
24.08.2018 04:52 14,7 °C 88 % 1009,8 hPa 0,0 mm 0,0 km/h (0 Bft) NW 326 ° 0 min 0,000 mm 0,0 UV-I 0 W/m² 12,7 °C 14,7 °C 0,0 km/h (0 Bft)
24.08.2018 04:53 14,7 °C 88 % 1009,8 hPa 0,0 mm 0,0 km/h (0 Bft) NW 326 ° 0 min 0,000 mm 0,0 UV-I 0 W/m² 12,7 °C 14,7 °C 0,0 km/h (0 Bft)
24.08.2018 04:54 14,8 °C 88 % 1009,8 hPa 0,0 mm 0,0 km/h (0 Bft) NW 326 ° 0 min 0,000 mm 0,0 UV-I 0 W/m² 12,8 °C 14,8 °C 0,0 km/h (0 Bft)
24.08.2018 04:55 14,8 °C 88 % 1009,8 hPa 0,0 mm 0,4 km/h (0 Bft) W 268 ° 0 min 0,000 mm 0,0 UV-I 0 W/m² 12,8 °C 14,8 °C 1,6 km/h (1 Bft)
24.08.2018 04:56 14,8 °C 88 % 1009,7 hPa 0,0 mm 1,7 km/h (1 Bft) W-SW 247 ° 0 min 0,000 mm 0,0 UV-I 0 W/m² 12,8 °C 14,8 °C 3,2 km/h (1 Bft)
24.08.2018 04:57 14,9 °C 88 % 1009,7 hPa 0,0 mm 1,1 km/h (1 Bft) W-SW 242 ° 0 min 0,000 mm 0,0 UV-I 0 W/m² 12,9 °C 14,9 °C 4,8 km/h (1 Bft)
24.08.2018 04:58 14,9 °C 88 % 1009,7 hPa 0,0 mm 0,7 km/h (0 Bft) SW 220 ° 0 min 0,000 mm 0,0 UV-I 0 W/m² 12,9 °C 14,9 °C 3,2 km/h (1 Bft)
24.08.2018 04:59 14,9 °C 88 % 1009,7 hPa 0,0 mm 0,6 km/h (0 Bft) SW 220 ° 0 min 0,000 mm 0,0 UV-I 0 W/m² 12,9 °C 14,9 °C 1,6 km/h (1 Bft)
24.08.2018 05:00 15,1 °C 87 % 1009,7 hPa 0,0 mm 3,9 km/h (1 Bft) S-SW 198 ° 0 min 0,000 mm 0,0 UV-I 0 W/m² 13,0 °C 15,1 °C 8,0 km/h (2 Bft)
24.08.2018 05:01 15,1 °C 87 % 1009,7 hPa 0,0 mm 4,6 km/h (1 Bft) S 182 ° 0 min 0,000 mm 0,0 UV-I 0 W/m² 13,0 °C 15,1 °C 8,0 km/h (2 Bft)
24.08.2018 05:02 15,2 °C 87 % 1009,7 hPa 0,0 mm 0,7 km/h (0 Bft) S 182 ° 0 min 0,000 mm 0,0 UV-I 0 W/m² 13,0 °C 15,2 °C 3,2 km/h (1 Bft)
24.08.2018 05:03 15,2 °C 87 % 1009,7 hPa 0,0 mm 1,2 km/h (1 Bft) S-SO 155 ° 0 min 0,000 mm 0,0 UV-I 0 W/m² 13,0 °C 15,2 °C 6,4 km/h (2 Bft)
24.08.2018 05:04 15,2 °C 87 % 1009,7 hPa 0,0 mm 2,2 km/h (1 Bft) SO 144 ° 0 min 0,000 mm 0,0 UV-I 0 W/m² 13,0 °C 15,2 °C 4,8 km/h (1 Bft)
24.08.2018 05:05 15,1 °C 88 % 1009,7 hPa 0,0 mm 1,5 km/h (1 Bft) SO 144 ° 0 min 0,000 mm 0,0 UV-I 0 W/m² 13,1 °C 15,1 °C 3,2 km/h (1 Bft)
24.08.2018 05:06 15,1 °C 87 % 1009,7 hPa 0,0 mm 0,2 km/h (0 Bft) S-SO 154 ° 0 min 0,000 mm 0,0 UV-I 0 W/m² 13,0 °C 15,1 °C 1,6 km/h (1 Bft)
24.08.2018 05:07 15,1 °C 87 % 1009,7 hPa 0,0 mm 0,0 km/h (0 Bft) S-SO 154 ° 0 min 0,000 mm 0,0 UV-I 0 W/m² 13,0 °C 15,1 °C 0,0 km/h (0 Bft)
24.08.2018 05:08 15,1 °C 87 % 1009,7 hPa 0,0 mm 0,0 km/h (0 Bft) S-SO 154 ° 0 min 0,000 mm 0,0 UV-I 0 W/m² 13,0 °C 15,1 °C 0,0 km/h (0 Bft)
24.08.2018 05:09 15,1 °C 87 % 1009,7 hPa 0,0 mm 0,0 km/h (0 Bft) S-SO 154 ° 0 min 0,000 mm 0,0 UV-I 0 W/m² 13,0 °C 15,1 °C 0,0 km/h (0 Bft)
24.08.2018 05:10 15,2 °C 87 % 1009,7 hPa 0,0 mm 0,0 km/h (0 Bft) S-SO 154 ° 0 min 0,000 mm 0,0 UV-I 0 W/m² 13,0 °C 15,2 °C 0,0 km/h (0 Bft)
24.08.2018 05:11 15,2 °C 87 % 1009,6 hPa 0,0 mm 0,8 km/h (0 Bft) S-SO 149 ° 0 min 0,000 mm 0,0 UV-I 0 W/m² 13,0 °C 15,2 °C 3,2 km/h (1 Bft)
24.08.2018 05:12 15,2 °C 87 % 1009,6 hPa 0,0 mm 0,0 km/h (0 Bft) S-SO 149 ° 0 min 0,000 mm 0,0 UV-I 0 W/m² 13,0 °C 15,2 °C 0,0 km/h (0 Bft)
24.08.2018 05:13 15,2 °C 87 % 1009,7 hPa 0,0 mm 0,0 km/h (0 Bft) S-SO 149 ° 0 min 0,000 mm 0,0 UV-I 0 W/m² 13,0 °C 15,2 °C 0,0 km/h (0 Bft)
24.08.2018 05:14 15,2 °C 87 % 1009,6 hPa 0,0 mm 0,0 km/h (0 Bft) S-SO 149 ° 0 min 0,000 mm 0,0 UV-I 0 W/m² 13,0 °C 15,2 °C 0,0 km/h (0 Bft)
24.08.2018 05:15 15,2 °C 87 % 1009,6 hPa 0,0 mm 0,0 km/h (0 Bft) S-SO 149 ° 0 min 0,000 mm 0,0 UV-I 0 W/m² 13,0 °C 15,2 °C 0,0 km/h (0 Bft)
24.08.2018 05:16 15,2 °C 87 % 1009,7 hPa 0,0 mm 0,0 km/h (0 Bft) S-SO 149 ° 0 min 0,000 mm 0,0 UV-I 0 W/m² 13,0 °C 15,2 °C 0,0 km/h (0 Bft)
24.08.2018 05:17 15,1 °C 87 % 1009,7 hPa 0,0 mm 0,0 km/h (0 Bft) N 0 ° 0 min 0,000 mm 0,0 UV-I 0 W/m² 13,0 °C 15,1 °C 0,0 km/h (0 Bft)
24.08.2018 05:18 15,2 °C 87 % 1009,7 hPa 0,0 mm 0,0 km/h (0 Bft) S-SO 157 ° 0 min 0,000 mm 0,0 UV-I 0 W/m² 13,0 °C 15,2 °C 3,2 km/h (1 Bft)
24.08.2018 05:19 15,2 °C 87 % 1009,7 hPa 0,0 mm 3,2 km/h (1 Bft) S-SW 202 ° 0 min 0,000 mm 0,0 UV-I 0 W/m² 13,0 °C 15,2 °C 6,4 km/h (2 Bft)
24.08.2018 05:20 15,3 °C 87 % 1009,7 hPa 0,0 mm 0,0 km/h (0 Bft) S-SW 202 ° 0 min 0,000 mm 0,0 UV-I 0 W/m² 13,1 °C 15,3 °C 1,6 km/h (1 Bft)
24.08.2018 05:21 15,3 °C 86 % 1009,7 hPa 0,0 mm 0,0 km/h (0 Bft) N 0 ° 0 min 0,000 mm 0,0 UV-I 0 W/m² 13,0 °C 15,3 °C 0,0 km/h (0 Bft)
24.08.2018 05:22 15,4 °C 86 % 1009,6 hPa 0,0 mm 0,0 km/h (0 Bft) S-SW 202 ° 0 min 0,000 mm 0,0 UV-I 0 W/m² 13,1 °C 15,4 °C 1,6 km/h (1 Bft)
24.08.2018 05:23 15,4 °C 87 % 1009,7 hPa 0,0 mm 0,0 km/h (0 Bft) N 0 ° 0 min 0,000 mm 0,0 UV-I 0 W/m² 13,2 °C 15,4 °C 0,0 km/h (0 Bft)
24.08.2018 05:25 15,4 °C 86 % 1009,6 hPa 0,0 mm 0,0 km/h (0 Bft) S-SW 194 ° 0 min 0,000 mm 0,0 UV-I 0 W/m² 13,1 °C 15,4 °C 0,0 km/h (0 Bft)
24.08.2018 05:26 15,4 °C 86 % 1009,7 hPa 0,0 mm 0,0 km/h (0 Bft) S-SW 194 ° 0 min 0,000 mm 0,0 UV-I 0 W/m² 13,1 °C 15,4 °C 0,0 km/h (0 Bft)
24.08.2018 05:27 15,4 °C 86 % 1009,6 hPa 0,0 mm 0,0 km/h (0 Bft) S-SW 194 ° 0 min 0,000 mm 0,0 UV-I 0 W/m² 13,1 °C 15,4 °C 0,0 km/h (0 Bft)
24.08.2018 05:28 15,4 °C 86 % 1009,6 hPa 0,0 mm 0,0 km/h (0 Bft) S-SW 194 ° 0 min 0,000 mm 0,0 UV-I 0 W/m² 13,1 °C 15,4 °C 0,0 km/h (0 Bft)
24.08.2018 05:29 15,4 °C 86 % 1009,7 hPa 0,0 mm 0,3 km/h (0 Bft) S-SW 194 ° 0 min 0,000 mm 0,0 UV-I 0 W/m² 13,1 °C 15,4 °C 1,6 km/h (1 Bft)
24.08.2018 05:30 15,4 °C 86 % 1009,7 hPa 0,0 mm 1,9 km/h (1 Bft) S-SW 197 ° 0 min 0,000 mm 0,0 UV-I 0 W/m² 13,1 °C 15,4 °C 4,8 km/h (1 Bft)
24.08.2018 05:31 15,4 °C 86 % 1009,7 hPa 0,0 mm 0,9 km/h (0 Bft) S-SW 197 ° 0 min 0,000 mm 0,0 UV-I 0 W/m² 13,1 °C 15,4 °C 3,2 km/h (1 Bft)
24.08.2018 05:32 15,5 °C 86 % 1009,7 hPa 0,0 mm 0,6 km/h (0 Bft) S 182 ° 0 min 0,000 mm 0,0 UV-I 0 W/m² 13,2 °C 15,5 °C 4,8 km/h (1 Bft)
24.08.2018 05:33 15,5 °C 86 % 1009,6 hPa 0,0 mm 2,5 km/h (1 Bft) SO 134 ° 0 min 0,000 mm 0,0 UV-I 0 W/m² 13,2 °C 15,5 °C 6,4 km/h (2 Bft)
24.08.2018 05:34 15,5 °C 86 % 1009,6 hPa 0,0 mm 0,0 km/h (0 Bft) SO 134 ° 0 min 0,000 mm 0,0 UV-I 0 W/m² 13,2 °C 15,5 °C 0,0 km/h (0 Bft)
24.08.2018 05:35 15,6 °C 86 % 1009,5 hPa 0,0 mm 0,0 km/h (0 Bft) SO 134 ° 0 min 0,000 mm 0,0 UV-I 0 W/m² 13,3 °C 15,6 °C 0,0 km/h (0 Bft)
24.08.2018 05:36 15,6 °C 86 % 1009,5 hPa 0,0 mm 0,0 km/h (0 Bft) SO 134 ° 0 min 0,000 mm 0,0 UV-I 0 W/m² 13,3 °C 15,6 °C 0,0 km/h (0 Bft)
24.08.2018 05:37 15,6 °C 86 % 1009,5 hPa 0,0 mm 0,0 km/h (0 Bft) SO 134 ° 0 min 0,000 mm 0,0 UV-I 0 W/m² 13,3 °C 15,6 °C 0,0 km/h (0 Bft)
24.08.2018 05:38 15,6 °C 86 % 1009,5 hPa 0,0 mm 0,0 km/h (0 Bft) SO 134 ° 0 min 0,000 mm 0,0 UV-I 0 W/m² 13,3 °C 15,6 °C 0,0 km/h (0 Bft)
24.08.2018 05:39 15,5 °C 86 % 1009,5 hPa 0,0 mm 0,1 km/h (0 Bft) SO 134 ° 0 min 0,000 mm 0,0 UV-I 0 W/m² 13,2 °C 15,5 °C 1,6 km/h (1 Bft)
24.08.2018 05:40 15,5 °C 87 % 1009,5 hPa 0,0 mm 0,0 km/h (0 Bft) SO 134 ° 0 min 0,000 mm 0,0 UV-I 0 W/m² 13,3 °C 15,5 °C 0,0 km/h (0 Bft)
24.08.2018 05:41 15,5 °C 87 % 1009,4 hPa 0,0 mm 0,0 km/h (0 Bft) SO 134 ° 0 min 0,000 mm 0,0 UV-I 0 W/m² 13,3 °C 15,5 °C 0,0 km/h (0 Bft)
24.08.2018 05:42 15,5 °C 86 % 1009,5 hPa 0,0 mm 0,0 km/h (0 Bft) N 0 ° 0 min 0,000 mm 0,0 UV-I 0 W/m² 13,2 °C 15,5 °C 0,0 km/h (0 Bft)
24.08.2018 05:43 15,5 °C 86 % 1009,5 hPa 0,0 mm 0,0 km/h (0 Bft) N 0 ° 0 min 0,000 mm 0,0 UV-I 0 W/m² 13,2 °C 15,5 °C 0,0 km/h (0 Bft)
24.08.2018 05:44 15,5 °C 86 % 1009,5 hPa 0,0 mm 0,0 km/h (0 Bft) N 0 ° 0 min 0,000 mm 0,0 UV-I 0 W/m² 13,2 °C 15,5 °C 0,0 km/h (0 Bft)
24.08.2018 05:45 15,6 °C 86 % 1009,5 hPa 0,0 mm 0,0 km/h (0 Bft) N 0 ° 0 min 0,000 mm 0,0 UV-I 0 W/m² 13,3 °C 15,6 °C 0,0 km/h (0 Bft)
24.08.2018 05:46 15,4 °C 86 % 1009,5 hPa 0,0 mm 0,0 km/h (0 Bft) N 0 ° 0 min 0,000 mm 0,0 UV-I 0 W/m² 13,1 °C 15,4 °C 0,0 km/h (0 Bft)
24.08.2018 05:47 15,4 °C 86 % 1009,5 hPa 0,0 mm 0,0 km/h (0 Bft) N 0 ° 0 min 0,000 mm 0,0 UV-I 0 W/m² 13,1 °C 15,4 °C 0,0 km/h (0 Bft)
24.08.2018 05:48 15,4 °C 86 % 1009,5 hPa 0,0 mm 0,0 km/h (0 Bft) N 0 ° 0 min 0,000 mm 0,0 UV-I 0 W/m² 13,1 °C 15,4 °C 0,0 km/h (0 Bft)
24.08.2018 05:50 15,4 °C 86 % 1009,5 hPa 0,0 mm 0,0 km/h (0 Bft) SO 135 ° 0 min 0,000 mm 0,0 UV-I 0 W/m² 13,1 °C 15,4 °C 0,0 km/h (0 Bft)
24.08.2018 05:51 15,4 °C 87 % 1009,5 hPa 0,0 mm 0,0 km/h (0 Bft) SO 135 ° 0 min 0,000 mm 0,0 UV-I 0 W/m² 13,2 °C 15,4 °C 0,0 km/h (0 Bft)
24.08.2018 05:52 15,4 °C 87 % 1009,5 hPa 0,0 mm 0,0 km/h (0 Bft) SO 135 ° 0 min 0,000 mm 0,0 UV-I 0 W/m² 13,2 °C 15,4 °C 0,0 km/h (0 Bft)
24.08.2018 05:53 15,3 °C 86 % 1009,5 hPa 0,0 mm 0,0 km/h (0 Bft) SO 135 ° 0 min 0,000 mm 0,0 UV-I 0 W/m² 13,0 °C 15,3 °C 0,0 km/h (0 Bft)
24.08.2018 05:54 15,3 °C 87 % 1009,5 hPa 0,0 mm 0,0 km/h (0 Bft) SO 135 ° 0 min 0,000 mm 0,0 UV-I 0 W/m² 13,1 °C 15,3 °C 0,0 km/h (0 Bft)
24.08.2018 05:55 15,3 °C 87 % 1009,4 hPa 0,0 mm 0,0 km/h (0 Bft) SO 135 ° 0 min 0,000 mm 0,0 UV-I 0 W/m² 13,1 °C 15,3 °C 0,0 km/h (0 Bft)
24.08.2018 05:56 15,3 °C 87 % 1009,4 hPa 0,0 mm 0,0 km/h (0 Bft) SO 135 ° 0 min 0,000 mm 0,0 UV-I 0 W/m² 13,1 °C 15,3 °C 0,0 km/h (0 Bft)
24.08.2018 05:57 15,2 °C 87 % 1009,4 hPa 0,0 mm 0,0 km/h (0 Bft) SO 135 ° 0 min 0,000 mm 0,0 UV-I 0 W/m² 13,0 °C 15,2 °C 0,0 km/h (0 Bft)
24.08.2018 05:58 15,2 °C 87 % 1009,4 hPa 0,0 mm 0,0 km/h (0 Bft) SO 135 ° 0 min 0,000 mm 0,0 UV-I 0 W/m² 13,0 °C 15,2 °C 0,0 km/h (0 Bft)
24.08.2018 05:59 15,2 °C 87 % 1009,4 hPa 0,0 mm 0,0 km/h (0 Bft) SO 135 ° 0 min 0,000 mm 0,0 UV-I 0 W/m² 13,0 °C 15,2 °C 0,0 km/h (0 Bft)
24.08.2018 06:00 15,2 °C 87 % 1009,4 hPa 0,0 mm 0,0 km/h (0 Bft) SO 135 ° 0 min 0,000 mm 0,0 UV-I 0 W/m² 13,0 °C 15,2 °C 0,0 km/h (0 Bft)
24.08.2018 06:01 15,1 °C 87 % 1009,5 hPa 0,0 mm 0,0 km/h (0 Bft) SO 135 ° 0 min 0,000 mm 0,0 UV-I 0 W/m² 13,0 °C 15,1 °C 0,0 km/h (0 Bft)
24.08.2018 06:02 15,1 °C 87 % 1009,4 hPa 0,0 mm 0,0 km/h (0 Bft) SO 135 ° 0 min 0,000 mm 0,0 UV-I 0 W/m² 13,0 °C 15,1 °C 0,0 km/h (0 Bft)
24.08.2018 06:03 15,1 °C 87 % 1009,4 hPa 0,0 mm 0,0 km/h (0 Bft) SO 135 ° 0 min 0,000 mm 0,0 UV-I 0 W/m² 13,0 °C 15,1 °C 0,0 km/h (0 Bft)
24.08.2018 06:04 15,1 °C 87 % 1009,4 hPa 0,0 mm 0,0 km/h (0 Bft) SO 135 ° 0 min 0,000 mm 0,0 UV-I 0 W/m² 13,0 °C 15,1 °C 0,0 km/h (0 Bft)
24.08.2018 06:05 15,0 °C 87 % 1009,4 hPa 0,0 mm 0,0 km/h (0 Bft) SO 135 ° 0 min 0,000 mm 0,0 UV-I 0 W/m² 12,9 °C 15,0 °C 0,0 km/h (0 Bft)
24.08.2018 06:06 14,9 °C 87 % 1009,5 hPa 0,0 mm 0,0 km/h (0 Bft) SO 135 ° 0 min 0,000 mm 0,0 UV-I 0 W/m² 12,8 °C 14,9 °C 0,0 km/h (0 Bft)
24.08.2018 06:07 14,9 °C 88 % 1009,5 hPa 0,0 mm 1,7 km/h (1 Bft) NW 317 ° 0 min 0,000 mm 0,0 UV-I 0 W/m² 12,9 °C 14,9 °C 6,4 km/h (2 Bft)
24.08.2018 06:08 14,9 °C 87 % 1009,5 hPa 0,0 mm 1,9 km/h (1 Bft) NW 317 ° 0 min 0,000 mm 0,0 UV-I 0 W/m² 12,8 °C 14,9 °C 4,8 km/h (1 Bft)
24.08.2018 06:09 14,9 °C 87 % 1009,5 hPa 0,0 mm 2,9 km/h (1 Bft) W-NW 291 ° 0 min 0,000 mm 0,0 UV-I 0 W/m² 12,8 °C 14,9 °C 6,4 km/h (2 Bft)
24.08.2018 06:10 14,9 °C 87 % 1009,5 hPa 0,0 mm 3,4 km/h (1 Bft) NW 315 ° 0 min 0,000 mm 0,0 UV-I 0 W/m² 12,8 °C 14,9 °C 6,4 km/h (2 Bft)
24.08.2018 06:11 14,8 °C 87 % 1009,5 hPa 0,0 mm 0,2 km/h (0 Bft) NW 315 ° 0 min 0,000 mm 0,0 UV-I 0 W/m² 12,7 °C 14,8 °C 1,6 km/h (1 Bft)
24.08.2018 06:12 14,8 °C 87 % 1009,6 hPa 0,0 mm 0,0 km/h (0 Bft) NW 315 ° 0 min 0,000 mm 0,0 UV-I 0 W/m² 12,7 °C 14,8 °C 0,0 km/h (0 Bft)
24.08.2018 06:13 14,7 °C 88 % 1009,7 hPa 0,0 mm 0,0 km/h (0 Bft) NW 315 ° 0 min 0,000 mm 0,0 UV-I 0 W/m² 12,7 °C 14,7 °C 0,0 km/h (0 Bft)
24.08.2018 06:14 14,7 °C 88 % 1009,7 hPa 0,0 mm 0,0 km/h (0 Bft) NW 315 ° 0 min 0,000 mm 0,0 UV-I 0 W/m² 12,7 °C 14,7 °C 0,0 km/h (0 Bft)
24.08.2018 06:15 14,6 °C 88 % 1009,7 hPa 0,0 mm 0,0 km/h (0 Bft) NW 315 ° 0 min 0,000 mm 0,0 UV-I 0 W/m² 12,6 °C 14,6 °C 0,0 km/h (0 Bft)
24.08.2018 06:16 14,6 °C 88 % 1009,7 hPa 0,0 mm 0,0 km/h (0 Bft) NW 315 ° 0 min 0,000 mm 0,0 UV-I 0 W/m² 12,6 °C 14,6 °C 0,0 km/h (0 Bft)
24.08.2018 06:17 14,6 °C 88 % 1009,8 hPa 0,0 mm 0,0 km/h (0 Bft) NW 315 ° 0 min 0,000 mm 0,0 UV-I 0 W/m² 12,6 °C 14,6 °C 0,0 km/h (0 Bft)
24.08.2018 06:18 14,4 °C 88 % 1009,7 hPa 0,0 mm 0,0 km/h (0 Bft) NW 315 ° 0 min 0,000 mm 0,0 UV-I 0 W/m² 12,4 °C 14,4 °C 0,0 km/h (0 Bft)
24.08.2018 06:19 14,4 °C 88 % 1009,7 hPa 0,0 mm 0,0 km/h (0 Bft) NW 315 ° 0 min 0,000 mm 0,0 UV-I 0 W/m² 12,4 °C 14,4 °C 0,0 km/h (0 Bft)
24.08.2018 06:20 14,4 °C 88 % 1009,7 hPa 0,0 mm 0,0 km/h (0 Bft) NW 315 ° 0 min 0,000 mm 0,0 UV-I 0 W/m² 12,4 °C 14,4 °C 0,0 km/h (0 Bft)
24.08.2018 06:21 14,3 °C 88 % 1009,7 hPa 0,0 mm 0,0 km/h (0 Bft) NW 315 ° 0 min 0,000 mm 0,0 UV-I 0 W/m² 12,3 °C 14,3 °C 0,0 km/h (0 Bft)
24.08.2018 06:22 14,3 °C 89 % 1009,7 hPa 0,0 mm 0,0 km/h (0 Bft) NW 315 ° 0 min 0,000 mm 0,0 UV-I 0 W/m² 12,5 °C 14,3 °C 0,0 km/h (0 Bft)
24.08.2018 06:23 14,3 °C 89 % 1009,8 hPa 0,0 mm 0,0 km/h (0 Bft) NW 315 ° 0 min 0,000 mm 0,0 UV-I 0 W/m² 12,5 °C 14,3 °C 0,0 km/h (0 Bft)
24.08.2018 06:24 14,3 °C 89 % 1009,8 hPa 0,0 mm 0,0 km/h (0 Bft) NW 315 ° 0 min 0,000 mm 0,0 UV-I 0 W/m² 12,5 °C 14,3 °C 0,0 km/h (0 Bft)
24.08.2018 06:25 14,3 °C 89 % 1009,8 hPa 0,0 mm 0,0 km/h (0 Bft) NW 315 ° 0 min 0,000 mm 0,0 UV-I 0 W/m² 12,5 °C 14,3 °C 0,0 km/h (0 Bft)
24.08.2018 06:26 14,3 °C 89 % 1009,8 hPa 0,0 mm 0,0 km/h (0 Bft) NW 315 ° 0 min 0,000 mm 0,0 UV-I 0 W/m² 12,5 °C 14,3 °C 0,0 km/h (0 Bft)
24.08.2018 06:27 14,3 °C 89 % 1009,8 hPa 0,0 mm 0,0 km/h (0 Bft) NW 315 ° 0 min 0,000 mm 0,0 UV-I 0 W/m² 12,5 °C 14,3 °C 0,0 km/h (0 Bft)
24.08.2018 06:28 14,3 °C 90 % 1009,8 hPa 0,0 mm 0,0 km/h (0 Bft) NW 315 ° 0 min 0,000 mm 0,0 UV-I 0 W/m² 12,7 °C 14,3 °C 0,0 km/h (0 Bft)
24.08.2018 06:29 14,2 °C 90 % 1009,8 hPa 0,0 mm 0,0 km/h (0 Bft) NW 315 ° 0 min 0,000 mm 0,0 UV-I 0 W/m² 12,6 °C 14,2 °C 0,0 km/h (0 Bft)
24.08.2018 06:30 14,2 °C 90 % 1009,8 hPa 0,0 mm 0,0 km/h (0 Bft) NW 315 ° 0 min 0,000 mm 0,0 UV-I 0 W/m² 12,6 °C 14,2 °C 0,0 km/h (0 Bft)
24.08.2018 06:31 14,3 °C 90 % 1009,8 hPa 0,0 mm 0,0 km/h (0 Bft) NW 315 ° 0 min 0,000 mm 0,0 UV-I 0 W/m² 12,7 °C 14,3 °C 0,0 km/h (0 Bft)
24.08.2018 06:32 14,2 °C 90 % 1009,9 hPa 0,0 mm 0,0 km/h (0 Bft) NW 315 ° 0 min 0,000 mm 0,0 UV-I 0 W/m² 12,6 °C 14,2 °C 0,0 km/h (0 Bft)
24.08.2018 06:33 14,2 °C 90 % 1009,9 hPa 0,0 mm 0,0 km/h (0 Bft) NW 315 ° 0 min 0,000 mm 0,0 UV-I 0 W/m² 12,6 °C 14,2 °C 0,0 km/h (0 Bft)
24.08.2018 06:34 14,3 °C 90 % 1009,9 hPa 0,0 mm 0,0 km/h (0 Bft) NW 315 ° 0 min 0,000 mm 0,0 UV-I 0 W/m² 12,7 °C 14,3 °C 0,0 km/h (0 Bft)
24.08.2018 06:35 14,2 °C 90 % 1009,9 hPa 0,0 mm 0,0 km/h (0 Bft) NW 315 ° 0 min 0,000 mm 0,0 UV-I 0 W/m² 12,6 °C 14,2 °C 0,0 km/h (0 Bft)
24.08.2018 06:36 14,2 °C 90 % 1010,0 hPa 0,0 mm 0,0 km/h (0 Bft) NW 315 ° 0 min 0,000 mm 0,0 UV-I 0 W/m² 12,6 °C 14,2 °C 0,0 km/h (0 Bft)
24.08.2018 06:37 14,2 °C 90 % 1010,0 hPa 0,0 mm 0,0 km/h (0 Bft) NW 315 ° 0 min 0,000 mm 0,0 UV-I 0 W/m² 12,6 °C 14,2 °C 0,0 km/h (0 Bft)
24.08.2018 06:38 14,2 °C 90 % 1010,0 hPa 0,0 mm 0,0 km/h (0 Bft) NW 315 ° 0 min 0,000 mm 0,0 UV-I 5 W/m² 12,6 °C 14,2 °C 0,0 km/h (0 Bft)
24.08.2018 06:39 14,2 °C 90 % 1010,0 hPa 0,0 mm 1,2 km/h (1 Bft) NW 315 ° 0 min 0,000 mm 0,0 UV-I 5 W/m² 12,6 °C 14,2 °C 3,2 km/h (1 Bft)
24.08.2018 06:40 14,2 °C 90 % 1009,9 hPa 0,0 mm 2,1 km/h (1 Bft) NW 315 ° 0 min 0,000 mm 0,0 UV-I 5 W/m² 12,6 °C 14,2 °C 3,2 km/h (1 Bft)
24.08.2018 06:41 14,2 °C 90 % 1009,9 hPa 0,0 mm 0,5 km/h (0 Bft) NW 315 ° 0 min 0,000 mm 0,0 UV-I 5 W/m² 12,6 °C 14,2 °C 1,6 km/h (1 Bft)
24.08.2018 06:42 14,2 °C 90 % 1010,0 hPa 0,0 mm 2,5 km/h (1 Bft) S 173 ° 0 min 0,000 mm 0,0 UV-I 5 W/m² 12,6 °C 14,2 °C 4,8 km/h (1 Bft)
24.08.2018 06:43 14,3 °C 90 % 1010,0 hPa 0,0 mm 5,6 km/h (1 Bft) S-SO 162 ° 0 min 0,000 mm 0,0 UV-I 5 W/m² 12,7 °C 14,3 °C 8,0 km/h (2 Bft)
24.08.2018 06:44 14,3 °C 90 % 1010,0 hPa 0,0 mm 0,4 km/h (0 Bft) S-SO 162 ° 0 min 0,000 mm 0,0 UV-I 5 W/m² 12,7 °C 14,3 °C 3,2 km/h (1 Bft)
24.08.2018 06:45 14,4 °C 90 % 1010,0 hPa 0,0 mm 1,4 km/h (1 Bft) S-SO 162 ° 0 min 0,000 mm 0,0 UV-I 5 W/m² 12,8 °C 14,4 °C 3,2 km/h (1 Bft)
24.08.2018 06:46 14,4 °C 90 % 1010,0 hPa 0,0 mm 1,8 km/h (1 Bft) S-SO 162 ° 0 min 0,000 mm 0,0 UV-I 5 W/m² 12,8 °C 14,4 °C 3,2 km/h (1 Bft)
24.08.2018 06:47 14,4 °C 90 % 1010,0 hPa 0,0 mm 3,1 km/h (1 Bft) S-SO 162 ° 0 min 0,000 mm 0,0 UV-I 5 W/m² 12,8 °C 14,4 °C 6,4 km/h (2 Bft)
24.08.2018 06:48 14,6 °C 89 % 1010,0 hPa 0,0 mm 2,1 km/h (1 Bft) S-SO 162 ° 0 min 0,000 mm 0,0 UV-I 7 W/m² 12,8 °C 14,6 °C 3,2 km/h (1 Bft)
24.08.2018 06:49 14,6 °C 89 % 1010,0 hPa 0,0 mm 2,6 km/h (1 Bft) S-SO 162 ° 0 min 0,000 mm 0,0 UV-I 7 W/m² 12,8 °C 14,6 °C 6,4 km/h (2 Bft)
24.08.2018 06:50 14,7 °C 89 % 1010,0 hPa 0,0 mm 0,6 km/h (0 Bft) S-SO 162 ° 0 min 0,000 mm 0,0 UV-I 7 W/m² 12,9 °C 14,7 °C 1,6 km/h (1 Bft)
24.08.2018 06:51 14,7 °C 89 % 1010,0 hPa 0,0 mm 0,3 km/h (0 Bft) S-SO 162 ° 0 min 0,000 mm 0,0 UV-I 7 W/m² 12,9 °C 14,7 °C 1,6 km/h (1 Bft)
24.08.2018 06:52 14,7 °C 89 % 1010,0 hPa 0,0 mm 0,0 km/h (0 Bft) S-SO 162 ° 0 min 0,000 mm 0,0 UV-I 7 W/m² 12,9 °C 14,7 °C 0,0 km/h (0 Bft)
24.08.2018 06:53 14,8 °C 88 % 1010,0 hPa 0,0 mm 0,7 km/h (0 Bft) S-SO 162 ° 0 min 0,000 mm 0,0 UV-I 7 W/m² 12,8 °C 14,8 °C 1,6 km/h (1 Bft)
24.08.2018 06:54 14,8 °C 88 % 1010,1 hPa 0,0 mm 0,3 km/h (0 Bft) S-SO 162 ° 0 min 0,000 mm 0,0 UV-I 7 W/m² 12,8 °C 14,8 °C 1,6 km/h (1 Bft)
24.08.2018 06:55 14,8 °C 88 % 1010,1 hPa 0,0 mm 0,0 km/h (0 Bft) S-SO 162 ° 0 min 0,000 mm 0,0 UV-I 7 W/m² 12,8 °C 14,8 °C 0,0 km/h (0 Bft)
24.08.2018 06:56 14,8 °C 88 % 1010,1 hPa 0,0 mm 0,0 km/h (0 Bft) S-SO 162 ° 0 min 0,000 mm 0,0 UV-I 7 W/m² 12,8 °C 14,8 °C 0,0 km/h (0 Bft)
24.08.2018 06:57 14,8 °C 89 % 1010,2 hPa 0,0 mm 0,0 km/h (0 Bft) S-SO 162 ° 0 min 0,000 mm 0,0 UV-I 7 W/m² 13,0 °C 14,8 °C 0,0 km/h (0 Bft)
24.08.2018 06:58 14,7 °C 89 % 1010,1 hPa 0,0 mm 0,0 km/h (0 Bft) S-SO 162 ° 0 min 0,000 mm 0,0 UV-I 9 W/m² 12,9 °C 14,7 °C 0,0 km/h (0 Bft)
24.08.2018 06:59 14,7 °C 89 % 1010,3 hPa 0,0 mm 0,0 km/h (0 Bft) S-SO 162 ° 0 min 0,000 mm 0,0 UV-I 9 W/m² 12,9 °C 14,7 °C 0,0 km/h (0 Bft)
24.08.2018 07:00 14,7 °C 89 % 1010,3 hPa 0,0 mm 0,0 km/h (0 Bft) S-SO 162 ° 0 min 0,000 mm 0,0 UV-I 9 W/m² 12,9 °C 14,7 °C 0,0 km/h (0 Bft)
24.08.2018 07:01 14,7 °C 89 % 1010,3 hPa 0,0 mm 0,6 km/h (0 Bft) S-SO 162 ° 0 min 0,000 mm 0,0 UV-I 11 W/m² 12,9 °C 14,7 °C 1,6 km/h (1 Bft)
24.08.2018 07:02 14,7 °C 89 % 1010,3 hPa 0,0 mm 0,1 km/h (0 Bft) S-SO 162 ° 0 min 0,000 mm 0,0 UV-I 11 W/m² 12,9 °C 14,7 °C 1,6 km/h (1 Bft)
24.08.2018 07:03 14,7 °C 89 % 1010,3 hPa 0,0 mm 0,0 km/h (0 Bft) S-SO 162 ° 0 min 0,000 mm 0,0 UV-I 11 W/m² 12,9 °C 14,7 °C 0,0 km/h (0 Bft)
24.08.2018 07:04 14,6 °C 89 % 1010,4 hPa 0,0 mm 0,0 km/h (0 Bft) S-SO 162 ° 0 min 0,000 mm 0,0 UV-I 12 W/m² 12,8 °C 14,6 °C 0,0 km/h (0 Bft)
24.08.2018 07:05 14,6 °C 89 % 1010,4 hPa 0,0 mm 0,0 km/h (0 Bft) S-SO 162 ° 0 min 0,000 mm 0,0 UV-I 12 W/m² 12,8 °C 14,6 °C 0,0 km/h (0 Bft)
24.08.2018 07:06 14,6 °C 90 % 1010,5 hPa 0,0 mm 0,0 km/h (0 Bft) S-SO 162 ° 0 min 0,000 mm 0,0 UV-I 14 W/m² 13,0 °C 14,6 °C 0,0 km/h (0 Bft)
24.08.2018 07:07 14,5 °C 89 % 1010,5 hPa 0,0 mm 0,0 km/h (0 Bft) S-SO 162 ° 0 min 0,000 mm 0,0 UV-I 16 W/m² 12,7 °C 14,5 °C 0,0 km/h (0 Bft)
24.08.2018 07:08 14,4 °C 89 % 1010,4 hPa 0,0 mm 0,0 km/h (0 Bft) S-SO 162 ° 0 min 0,000 mm 0,0 UV-I 18 W/m² 12,6 °C 14,4 °C 0,0 km/h (0 Bft)
24.08.2018 07:09 14,4 °C 89 % 1010,4 hPa 0,0 mm 0,0 km/h (0 Bft) S-SO 162 ° 0 min 0,000 mm 0,0 UV-I 18 W/m² 12,6 °C 14,4 °C 0,0 km/h (0 Bft)
24.08.2018 07:10 14,5 °C 89 % 1010,4 hPa 0,0 mm 0,0 km/h (0 Bft) S-SO 162 ° 0 min 0,000 mm 0,0 UV-I 19 W/m² 12,7 °C 14,5 °C 0,0 km/h (0 Bft)
24.08.2018 07:11 14,5 °C 90 % 1010,4 hPa 0,0 mm 0,0 km/h (0 Bft) S-SO 162 ° 0 min 0,000 mm 0,0 UV-I 21 W/m² 12,9 °C 14,5 °C 0,0 km/h (0 Bft)
24.08.2018 07:12 14,6 °C 89 % 1010,4 hPa 0,0 mm 0,0 km/h (0 Bft) S-SO 162 ° 0 min 0,000 mm 0,0 UV-I 23 W/m² 12,8 °C 14,6 °C 0,0 km/h (0 Bft)
24.08.2018 07:13 14,6 °C 89 % 1010,4 hPa 0,0 mm 0,0 km/h (0 Bft) S-SO 162 ° 0 min 0,000 mm 0,0 UV-I 25 W/m² 12,8 °C 14,6 °C 0,0 km/h (0 Bft)
24.08.2018 07:14 14,6 °C 89 % 1010,5 hPa 0,0 mm 0,0 km/h (0 Bft) S-SO 162 ° 0 min 0,000 mm 0,0 UV-I 26 W/m² 12,8 °C 14,6 °C 0,0 km/h (0 Bft)
24.08.2018 07:15 14,7 °C 90 % 1010,5 hPa 0,0 mm 0,0 km/h (0 Bft) S-SO 162 ° 0 min 0,000 mm 0,0 UV-I 28 W/m² 13,1 °C 14,7 °C 0,0 km/h (0 Bft)
24.08.2018 07:16 14,7 °C 89 % 1010,4 hPa 0,0 mm 0,0 km/h (0 Bft) S-SO 162 ° 0 min 0,000 mm 0,0 UV-I 30 W/m² 12,9 °C 14,7 °C 0,0 km/h (0 Bft)
24.08.2018 07:17 14,7 °C 89 % 1010,4 hPa 0,0 mm 0,0 km/h (0 Bft) S-SO 162 ° 0 min 0,000 mm 0,0 UV-I 33 W/m² 12,9 °C 14,7 °C 0,0 km/h (0 Bft)
24.08.2018 07:18 14,8 °C 89 % 1010,5 hPa 0,0 mm 0,0 km/h (0 Bft) SW 225 ° 0 min 0,000 mm 0,0 UV-I 35 W/m² 13,0 °C 14,8 °C 0,0 km/h (0 Bft)
24.08.2018 07:19 14,8 °C 89 % 1010,5 hPa 0,0 mm 1,4 km/h (1 Bft) SW 215 ° 0 min 0,000 mm 0,0 UV-I 37 W/m² 13,0 °C 14,8 °C 4,8 km/h (1 Bft)
24.08.2018 07:20 14,9 °C 89 % 1010,5 hPa 0,0 mm 1,7 km/h (1 Bft) SW 215 ° 0 min 0,000 mm 0,0 UV-I 39 W/m² 13,1 °C 14,9 °C 3,2 km/h (1 Bft)
24.08.2018 07:21 14,9 °C 89 % 1010,5 hPa 0,0 mm 0,2 km/h (0 Bft) SW 215 ° 0 min 0,000 mm 0,0 UV-I 40 W/m² 13,1 °C 14,9 °C 1,6 km/h (1 Bft)
24.08.2018 07:22 14,9 °C 89 % 1010,6 hPa 0,0 mm 0,6 km/h (0 Bft) SW 215 ° 0 min 0,000 mm 0,0 UV-I 40 W/m² 13,1 °C 14,9 °C 3,2 km/h (1 Bft)
24.08.2018 07:23 15,0 °C 88 % 1010,5 hPa 0,0 mm 2,5 km/h (1 Bft) SW 215 ° 0 min 0,000 mm 0,0 UV-I 42 W/m² 13,0 °C 15,0 °C 3,2 km/h (1 Bft)
24.08.2018 07:24 15,1 °C 88 % 1010,5 hPa 0,0 mm 2,7 km/h (1 Bft) SW 215 ° 0 min 0,000 mm 0,0 UV-I 42 W/m² 13,1 °C 15,1 °C 4,8 km/h (1 Bft)
24.08.2018 07:25 15,1 °C 89 % 1010,5 hPa 0,0 mm 0,4 km/h (0 Bft) SW 215 ° 0 min 0,000 mm 0,0 UV-I 40 W/m² 13,3 °C 15,1 °C 1,6 km/h (1 Bft)
24.08.2018 07:26 15,1 °C 88 % 1010,5 hPa 0,0 mm 0,1 km/h (0 Bft) SW 215 ° 0 min 0,000 mm 0,0 UV-I 40 W/m² 13,1 °C 15,1 °C 1,6 km/h (1 Bft)
24.08.2018 07:27 15,1 °C 89 % 1010,6 hPa 0,0 mm 0,4 km/h (0 Bft) SW 215 ° 0 min 0,000 mm 0,0 UV-I 39 W/m² 13,3 °C 15,1 °C 1,6 km/h (1 Bft)
24.08.2018 07:28 15,2 °C 88 % 1010,6 hPa 0,0 mm 0,7 km/h (0 Bft) SW 215 ° 0 min 0,000 mm 0,0 UV-I 39 W/m² 13,2 °C 15,2 °C 1,6 km/h (1 Bft)
24.08.2018 07:29 15,2 °C 88 % 1010,6 hPa 0,0 mm 0,6 km/h (0 Bft) S-SW 211 ° 0 min 0,000 mm 0,0 UV-I 39 W/m² 13,2 °C 15,2 °C 3,2 km/h (1 Bft)
24.08.2018 07:30 15,2 °C 88 % 1010,6 hPa 0,0 mm 2,1 km/h (1 Bft) S-SW 192 ° 0 min 0,000 mm 0,0 UV-I 39 W/m² 13,2 °C 15,2 °C 4,8 km/h (1 Bft)
24.08.2018 07:31 15,3 °C 88 % 1010,7 hPa 0,0 mm 3,4 km/h (1 Bft) S-SW 200 ° 0 min 0,000 mm 0,0 UV-I 39 W/m² 13,3 °C 15,3 °C 4,8 km/h (1 Bft)
24.08.2018 07:32 15,3 °C 88 % 1010,6 hPa 0,0 mm 1,5 km/h (1 Bft) S-SW 200 ° 0 min 0,000 mm 0,0 UV-I 40 W/m² 13,3 °C 15,3 °C 1,6 km/h (1 Bft)
24.08.2018 07:33 15,3 °C 89 % 1010,7 hPa 0,0 mm 0,6 km/h (0 Bft) S-SW 200 ° 0 min 0,000 mm 0,0 UV-I 40 W/m² 13,5 °C 15,3 °C 1,6 km/h (1 Bft)
24.08.2018 07:34 15,3 °C 89 % 1010,6 hPa 0,0 mm 1,0 km/h (0 Bft) S-SW 200 ° 0 min 0,000 mm 0,0 UV-I 39 W/m² 13,5 °C 15,3 °C 3,2 km/h (1 Bft)
24.08.2018 07:35 15,3 °C 88 % 1010,6 hPa 0,0 mm 3,0 km/h (1 Bft) S 187 ° 0 min 0,000 mm 0,0 UV-I 39 W/m² 13,3 °C 15,3 °C 4,8 km/h (1 Bft)
24.08.2018 07:36 15,3 °C 89 % 1010,7 hPa 0,0 mm 4,2 km/h (1 Bft) S 182 ° 0 min 0,000 mm 0,0 UV-I 39 W/m² 13,5 °C 15,3 °C 6,4 km/h (2 Bft)
24.08.2018 07:37 15,3 °C 88 % 1010,7 hPa 0,0 mm 3,2 km/h (1 Bft) S-SW 198 ° 0 min 0,000 mm 0,0 UV-I 39 W/m² 13,3 °C 15,3 °C 4,8 km/h (1 Bft)
24.08.2018 07:38 15,4 °C 88 % 1010,7 hPa 0,0 mm 3,8 km/h (1 Bft) S 181 ° 0 min 0,000 mm 0,0 UV-I 39 W/m² 13,4 °C 15,4 °C 6,4 km/h (2 Bft)
24.08.2018 07:39 15,4 °C 88 % 1010,7 hPa 0,0 mm 1,5 km/h (1 Bft) S 181 ° 0 min 0,000 mm 0,0 UV-I 40 W/m² 13,4 °C 15,4 °C 3,2 km/h (1 Bft)
24.08.2018 07:40 15,4 °C 87 % 1010,7 hPa 0,0 mm 0,6 km/h (0 Bft) S 180 ° 0 min 0,000 mm 0,0 UV-I 40 W/m² 13,2 °C 15,4 °C 1,6 km/h (1 Bft)
24.08.2018 07:41 15,4 °C 87 % 1010,7 hPa 0,0 mm 0,1 km/h (0 Bft) S 180 ° 0 min 0,000 mm 0,0 UV-I 40 W/m² 13,2 °C 15,4 °C 1,6 km/h (1 Bft)
24.08.2018 07:42 15,5 °C 87 % 1010,7 hPa 0,0 mm 0,0 km/h (0 Bft) S 180 ° 0 min 0,000 mm 0,0 UV-I 40 W/m² 13,3 °C 15,5 °C 0,0 km/h (0 Bft)
24.08.2018 07:43 15,6 °C 88 % 1010,7 hPa 0,0 mm 0,1 km/h (0 Bft) S 180 ° 0 min 0,000 mm 0,0 UV-I 39 W/m² 13,6 °C 15,6 °C 1,6 km/h (1 Bft)
24.08.2018 07:44 15,6 °C 87 % 1010,7 hPa 0,0 mm 3,1 km/h (1 Bft) S 180 ° 0 min 0,000 mm 0,0 UV-I 39 W/m² 13,4 °C 15,6 °C 4,8 km/h (1 Bft)
24.08.2018 07:45 15,6 °C 88 % 1010,7 hPa 0,0 mm 4,0 km/h (1 Bft) S 171 ° 0 min 0,000 mm 0,0 UV-I 37 W/m² 13,6 °C 15,6 °C 6,4 km/h (2 Bft)
24.08.2018 07:46 15,6 °C 88 % 1010,6 hPa 0,0 mm 2,7 km/h (1 Bft) S 171 ° 0 min 0,000 mm 0,0 UV-I 37 W/m² 13,6 °C 15,6 °C 3,2 km/h (1 Bft)
24.08.2018 07:47 15,6 °C 88 % 1010,7 hPa 0,0 mm 1,6 km/h (1 Bft) S 180 ° 0 min 0,000 mm 0,0 UV-I 33 W/m² 13,6 °C 15,6 °C 3,2 km/h (1 Bft)
24.08.2018 07:48 15,7 °C 87 % 1010,6 hPa 0,0 mm 0,0 km/h (0 Bft) S 180 ° 0 min 0,000 mm 0,0 UV-I 33 W/m² 13,5 °C 15,7 °C 1,6 km/h (1 Bft)
24.08.2018 07:49 15,7 °C 88 % 1010,6 hPa 0,0 mm 0,0 km/h (0 Bft) N 0 ° 0 min 0,000 mm 0,0 UV-I 32 W/m² 13,7 °C 15,7 °C 0,0 km/h (0 Bft)
24.08.2018 07:50 15,7 °C 88 % 1010,6 hPa 0,0 mm 0,0 km/h (0 Bft) N 0 ° 0 min 0,000 mm 0,0 UV-I 32 W/m² 13,7 °C 15,7 °C 0,0 km/h (0 Bft)
24.08.2018 07:51 15,7 °C 88 % 1010,7 hPa 0,0 mm 0,0 km/h (0 Bft) N 0 ° 0 min 0,000 mm 0,0 UV-I 32 W/m² 13,7 °C 15,7 °C 0,0 km/h (0 Bft)
24.08.2018 07:52 15,7 °C 87 % 1010,7 hPa 0,0 mm 0,0 km/h (0 Bft) S 180 ° 0 min 0,000 mm 0,0 UV-I 32 W/m² 13,5 °C 15,7 °C 1,6 km/h (1 Bft)
24.08.2018 07:53 15,7 °C 86 % 1010,6 hPa 0,0 mm 3,2 km/h (1 Bft) S 180 ° 0 min 0,000 mm 0,0 UV-I 33 W/m² 13,4 °C 15,7 °C 4,8 km/h (1 Bft)
24.08.2018 07:55 15,8 °C 86 % 1010,7 hPa 0,0 mm 5,4 km/h (1 Bft) S 182 ° 0 min 0,000 mm 0,0 UV-I 37 W/m² 13,5 °C 15,8 °C 8,0 km/h (2 Bft)
24.08.2018 07:57 15,9 °C 84 % 1010,6 hPa 0,0 mm 4,7 km/h (1 Bft) S-SW 196 ° 0 min 0,000 mm 0,0 UV-I 46 W/m² 13,2 °C 15,9 °C 9,7 km/h (2 Bft)
24.08.2018 07:58 16,1 °C 85 % 1010,6 hPa 0,0 mm 1,4 km/h (1 Bft) S-SW 196 ° 0 min 0,000 mm 0,0 UV-I 51 W/m² 13,6 °C 16,1 °C 3,2 km/h (1 Bft)
24.08.2018 07:59 16,0 °C 86 % 1010,7 hPa 0,0 mm 0,1 km/h (0 Bft) S-SW 196 ° 0 min 0,000 mm 0,0 UV-I 54 W/m² 13,7 °C 16,0 °C 1,6 km/h (1 Bft)
24.08.2018 08:00 16,0 °C 86 % 1010,7 hPa 0,0 mm 0,8 km/h (0 Bft) S-SW 196 ° 0 min 0,000 mm 0,0 UV-I 58 W/m² 13,7 °C 16,0 °C 3,2 km/h (1 Bft)
24.08.2018 08:01 16,0 °C 85 % 1010,7 hPa 0,0 mm 0,6 km/h (0 Bft) S-SW 196 ° 0 min 0,026 mm 0,0 UV-I 60 W/m² 13,5 °C 16,0 °C 3,2 km/h (1 Bft)
24.08.2018 08:02 16,1 °C 85 % 1010,7 hPa 0,0 mm 0,4 km/h (0 Bft) S-SW 196 ° 0 min 0,000 mm 0,0 UV-I 62 W/m² 13,6 °C 16,1 °C 1,6 km/h (1 Bft)
24.08.2018 08:03 16,2 °C 84 % 1010,7 hPa 0,0 mm 0,0 km/h (0 Bft) S-SW 196 ° 0 min 0,000 mm 0,0 UV-I 62 W/m² 13,5 °C 16,2 °C 0,0 km/h (0 Bft)
24.08.2018 08:04 16,2 °C 84 % 1010,7 hPa 0,0 mm 0,7 km/h (0 Bft) S-SW 196 ° 0 min 0,000 mm 0,0 UV-I 60 W/m² 13,5 °C 16,2 °C 1,6 km/h (1 Bft)
24.08.2018 08:05 16,3 °C 84 % 1010,6 hPa 0,0 mm 0,6 km/h (0 Bft) S-SW 196 ° 0 min 0,000 mm 0,5 UV-I 58 W/m² 13,6 °C 16,3 °C 3,2 km/h (1 Bft)
24.08.2018 08:06 16,3 °C 84 % 1010,6 hPa 0,0 mm 0,0 km/h (0 Bft) S-SW 196 ° 0 min 0,000 mm 0,5 UV-I 58 W/m² 13,6 °C 16,3 °C 0,0 km/h (0 Bft)
24.08.2018 08:07 16,2 °C 85 % 1010,6 hPa 0,0 mm 0,0 km/h (0 Bft) S-SW 196 ° 0 min 0,000 mm 0,5 UV-I 58 W/m² 13,7 °C 16,2 °C 0,0 km/h (0 Bft)
24.08.2018 08:08 16,2 °C 86 % 1010,6 hPa 0,0 mm 0,0 km/h (0 Bft) S-SW 196 ° 0 min 0,000 mm 0,5 UV-I 60 W/m² 13,9 °C 16,2 °C 0,0 km/h (0 Bft)
24.08.2018 08:09 16,1 °C 86 % 1010,6 hPa 0,0 mm 0,0 km/h (0 Bft) S-SW 196 ° 0 min 0,000 mm 0,5 UV-I 60 W/m² 13,8 °C 16,1 °C 0,0 km/h (0 Bft)
24.08.2018 08:10 16,1 °C 85 % 1010,6 hPa 0,0 mm 0,0 km/h (0 Bft) S-SW 196 ° 0 min 0,000 mm 0,5 UV-I 62 W/m² 13,6 °C 16,1 °C 0,0 km/h (0 Bft)
24.08.2018 08:11 16,1 °C 85 % 1010,6 hPa 0,0 mm 0,0 km/h (0 Bft) S-SW 196 ° 0 min 0,000 mm 0,5 UV-I 62 W/m² 13,6 °C 16,1 °C 0,0 km/h (0 Bft)
24.08.2018 08:12 16,2 °C 86 % 1010,6 hPa 0,0 mm 1,6 km/h (1 Bft) S-SW 202 ° 0 min 0,000 mm 0,5 UV-I 60 W/m² 13,9 °C 16,2 °C 3,2 km/h (1 Bft)
24.08.2018 08:13 16,2 °C 87 % 1010,6 hPa 0,0 mm 0,0 km/h (0 Bft) S-SW 202 ° 0 min 0,000 mm 0,6 UV-I 60 W/m² 14,0 °C 16,2 °C 1,6 km/h (1 Bft)
24.08.2018 08:14 16,2 °C 87 % 1010,6 hPa 0,0 mm 0,0 km/h (0 Bft) N 0 ° 0 min 0,000 mm 0,6 UV-I 60 W/m² 14,0 °C 16,2 °C 0,0 km/h (0 Bft)
24.08.2018 08:15 16,3 °C 87 % 1010,7 hPa 0,0 mm 0,0 km/h (0 Bft) N 0 ° 0 min 0,000 mm 0,6 UV-I 60 W/m² 14,1 °C 16,3 °C 0,0 km/h (0 Bft)
24.08.2018 08:16 16,2 °C 87 % 1010,6 hPa 0,0 mm 0,0 km/h (0 Bft) N 0 ° 0 min 0,000 mm 0,6 UV-I 63 W/m² 14,0 °C 16,2 °C 0,0 km/h (0 Bft)
24.08.2018 08:17 16,2 °C 86 % 1010,6 hPa 0,0 mm 0,0 km/h (0 Bft) N 0 ° 0 min 0,000 mm 0,6 UV-I 63 W/m² 13,9 °C 16,2 °C 0,0 km/h (0 Bft)
24.08.2018 08:18 16,2 °C 86 % 1010,6 hPa 0,0 mm 0,0 km/h (0 Bft) N 0 ° 0 min 0,000 mm 0,6 UV-I 65 W/m² 13,9 °C 16,2 °C 0,0 km/h (0 Bft)
24.08.2018 08:20 16,2 °C 87 % 1010,6 hPa 0,0 mm 0,0 km/h (0 Bft) S-SW 202 ° 0 min 0,000 mm 0,6 UV-I 63 W/m² 14,0 °C 16,2 °C 0,0 km/h (0 Bft)
24.08.2018 08:21 16,1 °C 87 % 1010,6 hPa 0,0 mm 0,0 km/h (0 Bft) S-SW 202 ° 0 min 0,000 mm 0,6 UV-I 63 W/m² 13,9 °C 16,1 °C 0,0 km/h (0 Bft)
24.08.2018 08:22 16,1 °C 86 % 1010,6 hPa 0,0 mm 0,0 km/h (0 Bft) S-SW 202 ° 0 min 0,000 mm 0,7 UV-I 67 W/m² 13,8 °C 16,1 °C 0,0 km/h (0 Bft)
24.08.2018 08:23 16,1 °C 86 % 1010,6 hPa 0,0 mm 0,1 km/h (0 Bft) S-SW 202 ° 0 min 0,000 mm 0,7 UV-I 69 W/m² 13,8 °C 16,1 °C 1,6 km/h (1 Bft)
24.08.2018 08:24 16,1 °C 86 % 1010,6 hPa 0,0 mm 0,1 km/h (0 Bft) S-SW 202 ° 0 min 0,000 mm 0,7 UV-I 72 W/m² 13,8 °C 16,1 °C 1,6 km/h (1 Bft)
24.08.2018 08:25 16,2 °C 85 % 1010,7 hPa 0,0 mm 2,7 km/h (1 Bft) S-SW 194 ° 0 min 0,000 mm 0,7 UV-I 74 W/m² 13,7 °C 16,2 °C 8,0 km/h (2 Bft)
24.08.2018 08:26 16,2 °C 84 % 1010,7 hPa 0,0 mm 3,5 km/h (1 Bft) S-SW 194 ° 0 min 0,000 mm 0,7 UV-I 77 W/m² 13,5 °C 16,2 °C 8,0 km/h (2 Bft)
24.08.2018 08:27 16,3 °C 84 % 1010,7 hPa 0,0 mm 1,2 km/h (1 Bft) S-SW 195 ° 0 min 0,000 mm 0,7 UV-I 83 W/m² 13,6 °C 16,3 °C 3,2 km/h (1 Bft)
24.08.2018 08:28 16,3 °C 85 % 1010,6 hPa 0,0 mm 0,1 km/h (0 Bft) S-SW 195 ° 0 min 0,000 mm 0,8 UV-I 100 W/m² 13,8 °C 16,3 °C 1,6 km/h (1 Bft)
24.08.2018 08:29 16,3 °C 84 % 1010,7 hPa 0,0 mm 0,0 km/h (0 Bft) S-SW 195 ° 0 min 0,000 mm 0,8 UV-I 109 W/m² 13,6 °C 16,3 °C 0,0 km/h (0 Bft)
24.08.2018 08:30 16,4 °C 84 % 1010,7 hPa 0,0 mm 0,0 km/h (0 Bft) S-SW 195 ° 0 min 0,000 mm 0,8 UV-I 116 W/m² 13,7 °C 16,4 °C 0,0 km/h (0 Bft)
24.08.2018 08:31 16,5 °C 85 % 1010,7 hPa 0,0 mm 0,0 km/h (0 Bft) S-SW 195 ° 0 min 0,000 mm 0,8 UV-I 123 W/m² 14,0 °C 16,5 °C 0,0 km/h (0 Bft)
24.08.2018 08:32 16,6 °C 86 % 1010,7 hPa 0,0 mm 0,0 km/h (0 Bft) S-SW 195 ° 0 min 0,000 mm 0,9 UV-I 132 W/m² 14,2 °C 16,6 °C 0,0 km/h (0 Bft)
24.08.2018 08:33 16,6 °C 86 % 1010,7 hPa 0,0 mm 0,0 km/h (0 Bft) S-SW 195 ° 0 min 0,000 mm 0,9 UV-I 148 W/m² 14,2 °C 16,6 °C 0,0 km/h (0 Bft)
24.08.2018 08:34 16,6 °C 85 % 1010,7 hPa 0,0 mm 0,0 km/h (0 Bft) S-SW 195 ° 0 min 0,000 mm 0,9 UV-I 155 W/m² 14,1 °C 16,6 °C 0,0 km/h (0 Bft)
24.08.2018 08:35 16,6 °C 86 % 1010,7 hPa 0,0 mm 0,0 km/h (0 Bft) S-SW 195 ° 0 min 0,000 mm 0,9 UV-I 156 W/m² 14,2 °C 16,6 °C 0,0 km/h (0 Bft)
24.08.2018 08:36 16,6 °C 86 % 1010,7 hPa 0,0 mm 0,0 km/h (0 Bft) S-SW 195 ° 0 min 0,000 mm 0,9 UV-I 155 W/m² 14,2 °C 16,6 °C 0,0 km/h (0 Bft)
24.08.2018 08:37 16,6 °C 86 % 1010,7 hPa 0,0 mm 0,0 km/h (0 Bft) S-SW 195 ° 0 min 0,000 mm 0,8 UV-I 151 W/m² 14,2 °C 16,6 °C 0,0 km/h (0 Bft)
24.08.2018 08:38 16,6 °C 84 % 1010,7 hPa 0,0 mm 0,0 km/h (0 Bft) S-SW 195 ° 0 min 0,000 mm 0,8 UV-I 144 W/m² 13,9 °C 16,6 °C 0,0 km/h (0 Bft)
24.08.2018 08:39 16,6 °C 83 % 1010,7 hPa 0,0 mm 0,0 km/h (0 Bft) S-SW 195 ° 0 min 0,000 mm 0,8 UV-I 128 W/m² 13,7 °C 16,6 °C 0,0 km/h (0 Bft)
24.08.2018 08:40 16,7 °C 84 % 1010,7 hPa 0,0 mm 0,0 km/h (0 Bft) S-SW 195 ° 0 min 0,000 mm 0,7 UV-I 125 W/m² 14,0 °C 16,7 °C 0,0 km/h (0 Bft)
24.08.2018 08:41 16,8 °C 84 % 1010,7 hPa 0,0 mm 0,0 km/h (0 Bft) S-SW 195 ° 0 min 0,000 mm 0,7 UV-I 116 W/m² 14,1 °C 16,8 °C 0,0 km/h (0 Bft)
24.08.2018 08:42 16,8 °C 86 % 1010,6 hPa 0,0 mm 0,0 km/h (0 Bft) S-SW 195 ° 0 min 0,000 mm 0,7 UV-I 113 W/m² 14,4 °C 16,8 °C 0,0 km/h (0 Bft)
24.08.2018 08:43 16,9 °C 85 % 1010,6 hPa 0,0 mm 0,0 km/h (0 Bft) S-SW 195 ° 0 min 0,000 mm 0,7 UV-I 109 W/m² 14,4 °C 16,9 °C 0,0 km/h (0 Bft)
24.08.2018 08:44 16,9 °C 85 % 1010,6 hPa 0,0 mm 0,0 km/h (0 Bft) S-SW 195 ° 0 min 0,000 mm 0,7 UV-I 109 W/m² 14,4 °C 16,9 °C 0,0 km/h (0 Bft)
24.08.2018 08:45 17,1 °C 85 % 1010,7 hPa 0,0 mm 0,4 km/h (0 Bft) S-SW 195 ° 0 min 0,000 mm 0,7 UV-I 114 W/m² 14,6 °C 17,1 °C 1,6 km/h (1 Bft)
24.08.2018 08:46 17,1 °C 85 % 1010,6 hPa 0,0 mm 0,0 km/h (0 Bft) S-SW 195 ° 0 min 0,000 mm 0,8 UV-I 118 W/m² 14,6 °C 17,1 °C 0,0 km/h (0 Bft)
24.08.2018 08:47 17,1 °C 84 % 1010,6 hPa 0,0 mm 0,0 km/h (0 Bft) S-SW 195 ° 0 min 0,000 mm 0,8 UV-I 121 W/m² 14,4 °C 17,1 °C 0,0 km/h (0 Bft)
24.08.2018 08:48 17,2 °C 85 % 1010,6 hPa 0,0 mm 0,6 km/h (0 Bft) W 269 ° 0 min 0,000 mm 0,8 UV-I 125 W/m² 14,7 °C 17,2 °C 3,2 km/h (1 Bft)
24.08.2018 08:49 17,2 °C 85 % 1010,7 hPa 0,0 mm 0,1 km/h (0 Bft) W 269 ° 0 min 0,000 mm 0,8 UV-I 127 W/m² 14,7 °C 17,2 °C 1,6 km/h (1 Bft)
24.08.2018 08:50 17,2 °C 84 % 1010,6 hPa 0,0 mm 0,0 km/h (0 Bft) W 269 ° 0 min 0,000 mm 0,8 UV-I 132 W/m² 14,5 °C 17,2 °C 0,0 km/h (0 Bft)
24.08.2018 08:51 17,3 °C 83 % 1010,7 hPa 0,0 mm 0,7 km/h (0 Bft) W 269 ° 0 min 0,000 mm 0,9 UV-I 137 W/m² 14,4 °C 17,3 °C 3,2 km/h (1 Bft)
24.08.2018 08:52 17,4 °C 84 % 1010,7 hPa 0,0 mm 1,6 km/h (1 Bft) W 269 ° 0 min 0,000 mm 0,9 UV-I 142 W/m² 14,7 °C 17,4 °C 3,2 km/h (1 Bft)
24.08.2018 08:53 17,4 °C 83 % 1010,7 hPa 0,0 mm 0,0 km/h (0 Bft) W 269 ° 0 min 0,000 mm 0,9 UV-I 148 W/m² 14,5 °C 17,4 °C 0,0 km/h (0 Bft)
24.08.2018 08:54 17,5 °C 82 % 1010,7 hPa 0,0 mm 0,0 km/h (0 Bft) W 269 ° 0 min 0,000 mm 0,9 UV-I 153 W/m² 14,4 °C 17,5 °C 0,0 km/h (0 Bft)
24.08.2018 08:55 17,6 °C 82 % 1010,7 hPa 0,0 mm 0,0 km/h (0 Bft) W 269 ° 0 min 0,000 mm 0,9 UV-I 144 W/m² 14,5 °C 17,6 °C 0,0 km/h (0 Bft)
24.08.2018 08:56 17,6 °C 83 % 1010,7 hPa 0,0 mm 0,0 km/h (0 Bft) W 269 ° 0 min 0,000 mm 0,9 UV-I 139 W/m² 14,7 °C 17,6 °C 0,0 km/h (0 Bft)
24.08.2018 08:57 17,6 °C 83 % 1010,7 hPa 0,0 mm 0,0 km/h (0 Bft) W 269 ° 0 min 0,000 mm 0,9 UV-I 137 W/m² 14,7 °C 17,6 °C 0,0 km/h (0 Bft)
24.08.2018 08:58 17,6 °C 83 % 1010,7 hPa 0,0 mm 0,0 km/h (0 Bft) W 269 ° 0 min 0,000 mm 0,9 UV-I 137 W/m² 14,7 °C 17,6 °C 0,0 km/h (0 Bft)
24.08.2018 08:59 17,7 °C 83 % 1010,8 hPa 0,0 mm 0,0 km/h (0 Bft) W 269 ° 0 min 0,000 mm 0,8 UV-I 135 W/m² 14,8 °C 17,7 °C 0,0 km/h (0 Bft)
24.08.2018 09:00 17,7 °C 85 % 1010,8 hPa 0,0 mm 0,0 km/h (0 Bft) W 269 ° 0 min 0,000 mm 0,8 UV-I 132 W/m² 15,1 °C 17,7 °C 0,0 km/h (0 Bft)
24.08.2018 09:01 17,7 °C 84 % 1010,8 hPa 0,0 mm 0,0 km/h (0 Bft) W 269 ° 0 min 0,051 mm 0,8 UV-I 127 W/m² 15,0 °C 17,7 °C 0,0 km/h (0 Bft)
24.08.2018 09:02 17,7 °C 84 % 1010,8 hPa 0,0 mm 0,0 km/h (0 Bft) W 269 ° 0 min 0,000 mm 0,8 UV-I 125 W/m² 15,0 °C 17,7 °C 0,0 km/h (0 Bft)
24.08.2018 09:03 17,7 °C 82 % 1010,8 hPa 0,0 mm 1,0 km/h (0 Bft) W 269 ° 0 min 0,000 mm 0,8 UV-I 118 W/m² 14,6 °C 17,7 °C 1,6 km/h (1 Bft)
24.08.2018 09:04 17,7 °C 81 % 1010,9 hPa 0,0 mm 0,3 km/h (0 Bft) W 269 ° 0 min 0,000 mm 0,8 UV-I 116 W/m² 14,4 °C 17,7 °C 1,6 km/h (1 Bft)
24.08.2018 09:05 17,7 °C 81 % 1010,9 hPa 0,0 mm 0,8 km/h (0 Bft) W 269 ° 0 min 0,000 mm 0,8 UV-I 118 W/m² 14,4 °C 17,7 °C 3,2 km/h (1 Bft)
24.08.2018 09:06 17,7 °C 81 % 1010,9 hPa 0,0 mm 0,0 km/h (0 Bft) W 269 ° 0 min 0,000 mm 0,8 UV-I 118 W/m² 14,4 °C 17,7 °C 0,0 km/h (0 Bft)
24.08.2018 09:07 17,8 °C 81 % 1010,9 hPa 0,0 mm 1,6 km/h (1 Bft) W 270 ° 0 min 0,000 mm 0,8 UV-I 121 W/m² 14,5 °C 17,8 °C 1,6 km/h (1 Bft)
24.08.2018 09:08 17,8 °C 80 % 1010,9 hPa 0,0 mm 1,6 km/h (1 Bft) W 270 ° 0 min 0,000 mm 0,9 UV-I 127 W/m² 14,3 °C 17,8 °C 4,8 km/h (1 Bft)
24.08.2018 09:09 17,8 °C 80 % 1010,9 hPa 0,0 mm 1,6 km/h (1 Bft) W 270 ° 0 min 0,000 mm 0,9 UV-I 130 W/m² 14,3 °C 17,8 °C 3,2 km/h (1 Bft)
24.08.2018 09:10 17,8 °C 80 % 1010,9 hPa 0,0 mm 1,6 km/h (1 Bft) W 270 ° 0 min 0,000 mm 0,9 UV-I 135 W/m² 14,3 °C 17,8 °C 1,6 km/h (1 Bft)
24.08.2018 09:11 17,9 °C 80 % 1010,9 hPa 0,0 mm 1,6 km/h (1 Bft) W 270 ° 0 min 0,000 mm 1,0 UV-I 139 W/m² 14,4 °C 17,9 °C 3,2 km/h (1 Bft)
24.08.2018 09:12 17,9 °C 81 % 1010,9 hPa 0,0 mm 1,6 km/h (1 Bft) W 270 ° 0 min 0,000 mm 1,0 UV-I 142 W/m² 14,6 °C 17,9 °C 3,2 km/h (1 Bft)
24.08.2018 09:13 17,8 °C 81 % 1010,9 hPa 0,0 mm 3,2 km/h (1 Bft) W 270 ° 0 min 0,000 mm 1,0 UV-I 146 W/m² 14,5 °C 17,8 °C 4,8 km/h (1 Bft)
24.08.2018 09:15 17,8 °C 79 % 1010,9 hPa 0,0 mm 4,2 km/h (1 Bft) N-NW 336 ° 0 min 0,000 mm 1,1 UV-I 156 W/m² 14,1 °C 17,8 °C 8,0 km/h (2 Bft)
24.08.2018 09:16 17,8 °C 80 % 1011,0 hPa 0,0 mm 4,4 km/h (1 Bft) W 277 ° 0 min 0,000 mm 1,1 UV-I 162 W/m² 14,3 °C 17,8 °C 8,0 km/h (2 Bft)
24.08.2018 09:17 17,8 °C 80 % 1011,0 hPa 0,0 mm 2,9 km/h (1 Bft) W-NW 296 ° 0 min 0,000 mm 1,2 UV-I 165 W/m² 14,3 °C 17,8 °C 4,8 km/h (1 Bft)
24.08.2018 09:18 17,8 °C 79 % 1011,0 hPa 0,0 mm 3,8 km/h (1 Bft) W-NW 298 ° 0 min 0,000 mm 1,2 UV-I 167 W/m² 14,1 °C 17,8 °C 6,4 km/h (2 Bft)
24.08.2018 09:19 17,8 °C 79 % 1011,0 hPa 0,0 mm 3,4 km/h (1 Bft) NW 317 ° 0 min 0,000 mm 1,2 UV-I 167 W/m² 14,1 °C 17,8 °C 6,4 km/h (2 Bft)
24.08.2018 09:20 17,8 °C 80 % 1011,0 hPa 0,0 mm 5,9 km/h (2 Bft) W-NW 284 ° 0 min 0,000 mm 1,2 UV-I 169 W/m² 14,3 °C 17,8 °C 11,3 km/h (2 Bft)
24.08.2018 09:21 17,9 °C 79 % 1011,0 hPa 0,0 mm 3,5 km/h (1 Bft) W-NW 294 ° 0 min 0,000 mm 1,3 UV-I 171 W/m² 14,2 °C 17,9 °C 6,4 km/h (2 Bft)
24.08.2018 09:22 17,9 °C 79 % 1011,0 hPa 0,0 mm 4,8 km/h (1 Bft) W-NW 288 ° 0 min 0,000 mm 1,3 UV-I 174 W/m² 14,2 °C 17,9 °C 8,0 km/h (2 Bft)
24.08.2018 09:23 17,9 °C 79 % 1010,9 hPa 0,0 mm 8,4 km/h (2 Bft) W-NW 293 ° 0 min 0,000 mm 1,3 UV-I 176 W/m² 14,2 °C 17,9 °C 12,9 km/h (3 Bft)
24.08.2018 09:24 17,9 °C 78 % 1010,9 hPa 0,0 mm 6,5 km/h (2 Bft) W-SW 253 ° 0 min 0,000 mm 1,3 UV-I 178 W/m² 14,0 °C 17,9 °C 9,7 km/h (2 Bft)
24.08.2018 09:25 17,9 °C 79 % 1011,0 hPa 0,0 mm 9,4 km/h (2 Bft) W 277 ° 0 min 0,000 mm 1,4 UV-I 178 W/m² 14,2 °C 17,9 °C 12,9 km/h (3 Bft)
24.08.2018 09:26 17,9 °C 79 % 1010,9 hPa 0,0 mm 6,1 km/h (2 Bft) W 265 ° 0 min 0,000 mm 1,4 UV-I 178 W/m² 14,2 °C 17,9 °C 11,3 km/h (2 Bft)
24.08.2018 09:27 17,9 °C 79 % 1011,0 hPa 0,0 mm 9,9 km/h (2 Bft) W-NW 302 ° 0 min 0,000 mm 1,4 UV-I 178 W/m² 14,2 °C 17,9 °C 12,9 km/h (3 Bft)
24.08.2018 09:28 17,9 °C 79 % 1011,0 hPa 0,0 mm 10,9 km/h (2 Bft) W-NW 298 ° 0 min 0,000 mm 1,5 UV-I 179 W/m² 14,2 °C 17,9 °C 14,5 km/h (3 Bft)
24.08.2018 09:29 17,8 °C 78 % 1010,9 hPa 0,0 mm 12,7 km/h (3 Bft) W-NW 296 ° 0 min 0,000 mm 1,5 UV-I 181 W/m² 13,9 °C 17,8 °C 17,7 km/h (3 Bft)
24.08.2018 09:30 17,8 °C 78 % 1010,9 hPa 0,0 mm 4,6 km/h (1 Bft) W 279 ° 0 min 0,000 mm 1,5 UV-I 181 W/m² 13,9 °C 17,8 °C 8,0 km/h (2 Bft)
24.08.2018 09:31 17,8 °C 78 % 1010,9 hPa 0,0 mm 4,0 km/h (1 Bft) W 279 ° 0 min 0,000 mm 1,5 UV-I 181 W/m² 13,9 °C 17,8 °C 4,8 km/h (1 Bft)
24.08.2018 09:32 17,8 °C 79 % 1010,9 hPa 0,0 mm 9,7 km/h (2 Bft) W 270 ° 0 min 0,000 mm 1,6 UV-I 213 W/m² 14,1 °C 17,8 °C 12,9 km/h (3 Bft)
24.08.2018 09:33 17,8 °C 79 % 1010,9 hPa 0,0 mm 6,4 km/h (2 Bft) W-NW 292 ° 0 min 0,000 mm 1,7 UV-I 227 W/m² 14,1 °C 17,8 °C 11,3 km/h (2 Bft)
24.08.2018 09:34 17,8 °C 79 % 1010,9 hPa 0,0 mm 4,8 km/h (1 Bft) W-NW 292 ° 0 min 0,000 mm 1,7 UV-I 236 W/m² 14,1 °C 17,8 °C 6,4 km/h (2 Bft)
24.08.2018 09:35 17,9 °C 80 % 1010,9 hPa 0,0 mm 4,8 km/h (1 Bft) W-NW 292 ° 0 min 0,000 mm 1,7 UV-I 241 W/m² 14,4 °C 17,9 °C 6,4 km/h (2 Bft)
24.08.2018 09:36 17,9 °C 79 % 1010,9 hPa 0,0 mm 4,8 km/h (1 Bft) W-NW 292 ° 0 min 0,000 mm 1,7 UV-I 244 W/m² 14,2 °C 17,9 °C 8,0 km/h (2 Bft)
24.08.2018 09:37 18,0 °C 80 % 1010,9 hPa 0,0 mm 1,6 km/h (1 Bft) W 270 ° 0 min 0,000 mm 1,8 UV-I 246 W/m² 14,5 °C 18,0 °C 4,8 km/h (1 Bft)
24.08.2018 09:38 18,1 °C 79 % 1010,8 hPa 0,0 mm 0,0 km/h (0 Bft) SW 225 ° 0 min 0,000 mm 1,8 UV-I 255 W/m² 14,4 °C 18,1 °C 1,6 km/h (1 Bft)
24.08.2018 09:40 18,2 °C 81 % 1010,9 hPa 0,0 mm 5,0 km/h (1 Bft) NW 320 ° 0 min 0,000 mm 1,9 UV-I 279 W/m² 14,9 °C 18,2 °C 6,4 km/h (2 Bft)
24.08.2018 09:42 18,3 °C 79 % 1010,8 hPa 0,0 mm 6,1 km/h (2 Bft) W-NW 290 ° 0 min 0,000 mm 1,7 UV-I 250 W/m² 14,6 °C 18,3 °C 14,5 km/h (3 Bft)
24.08.2018 09:43 18,3 °C 79 % 1010,8 hPa 0,0 mm 2,6 km/h (1 Bft) NW 311 ° 0 min 0,000 mm 1,7 UV-I 243 W/m² 14,6 °C 18,3 °C 6,4 km/h (2 Bft)
24.08.2018 09:44 18,3 °C 79 % 1010,9 hPa 0,0 mm 7,6 km/h (2 Bft) W-NW 296 ° 0 min 0,000 mm 1,7 UV-I 236 W/m² 14,6 °C 18,3 °C 12,9 km/h (3 Bft)
24.08.2018 09:45 18,3 °C 79 % 1010,9 hPa 0,0 mm 3,4 km/h (1 Bft) W-NW 282 ° 0 min 0,000 mm 1,6 UV-I 230 W/m² 14,6 °C 18,3 °C 8,0 km/h (2 Bft)
24.08.2018 09:46 18,3 °C 78 % 1010,9 hPa 0,0 mm 4,6 km/h (1 Bft) W-SW 255 ° 0 min 0,000 mm 1,6 UV-I 227 W/m² 14,4 °C 18,3 °C 8,0 km/h (2 Bft)
24.08.2018 09:47 18,3 °C 79 % 1010,9 hPa 0,0 mm 6,3 km/h (2 Bft) W 265 ° 0 min 0,000 mm 1,6 UV-I 223 W/m² 14,6 °C 18,3 °C 11,3 km/h (2 Bft)
24.08.2018 09:48 18,3 °C 80 % 1010,9 hPa 0,0 mm 4,8 km/h (1 Bft) W-NW 285 ° 0 min 0,000 mm 1,6 UV-I 223 W/m² 14,8 °C 18,3 °C 6,4 km/h (2 Bft)
24.08.2018 09:49 18,3 °C 79 % 1010,9 hPa 0,0 mm 3,6 km/h (1 Bft) W-NW 299 ° 0 min 0,000 mm 1,6 UV-I 221 W/m² 14,6 °C 18,3 °C 4,8 km/h (1 Bft)
24.08.2018 09:50 18,4 °C 80 % 1010,9 hPa 0,0 mm 1,9 km/h (1 Bft) W 267 ° 0 min 0,000 mm 1,6 UV-I 220 W/m² 14,9 °C 18,4 °C 9,7 km/h (2 Bft)
24.08.2018 09:51 18,4 °C 79 % 1010,9 hPa 0,0 mm 6,8 km/h (2 Bft) W-NW 287 ° 0 min 0,000 mm 1,6 UV-I 221 W/m² 14,7 °C 18,4 °C 11,3 km/h (2 Bft)
24.08.2018 09:52 18,4 °C 79 % 1010,8 hPa 0,0 mm 3,4 km/h (1 Bft) W 279 ° 0 min 0,000 mm 1,6 UV-I 221 W/m² 14,7 °C 18,4 °C 6,4 km/h (2 Bft)
24.08.2018 09:53 18,5 °C 80 % 1010,9 hPa 0,0 mm 6,8 km/h (2 Bft) W 262 ° 0 min 0,000 mm 1,6 UV-I 218 W/m² 15,0 °C 18,5 °C 11,3 km/h (2 Bft)
24.08.2018 09:54 18,5 °C 79 % 1010,9 hPa 0,0 mm 8,7 km/h (2 Bft) N-NW 331 ° 0 min 0,000 mm 1,6 UV-I 213 W/m² 14,8 °C 18,5 °C 12,9 km/h (3 Bft)
24.08.2018 09:55 18,5 °C 79 % 1010,9 hPa 0,0 mm 5,8 km/h (2 Bft) W-NW 301 ° 0 min 0,000 mm 1,5 UV-I 195 W/m² 14,8 °C 18,5 °C 12,9 km/h (3 Bft)
24.08.2018 09:56 18,5 °C 78 % 1010,9 hPa 0,0 mm 5,3 km/h (1 Bft) N-NW 339 ° 0 min 0,000 mm 1,5 UV-I 185 W/m² 14,6 °C 18,5 °C 11,3 km/h (2 Bft)
24.08.2018 09:57 18,4 °C 79 % 1010,9 hPa 0,0 mm 4,0 km/h (1 Bft) W-NW 296 ° 0 min 0,000 mm 1,3 UV-I 174 W/m² 14,7 °C 18,4 °C 8,0 km/h (2 Bft)
24.08.2018 09:58 18,4 °C 78 % 1010,9 hPa 0,0 mm 4,9 km/h (1 Bft) W-NW 286 ° 0 min 0,000 mm 1,3 UV-I 165 W/m² 14,5 °C 18,4 °C 9,7 km/h (2 Bft)
24.08.2018 09:59 18,4 °C 79 % 1010,9 hPa 0,0 mm 5,7 km/h (1 Bft) NW 307 ° 0 min 0,000 mm 1,3 UV-I 156 W/m² 14,7 °C 18,4 °C 8,0 km/h (2 Bft)
24.08.2018 10:00 18,3 °C 79 % 1010,9 hPa 0,0 mm 5,3 km/h (1 Bft) NW 306 ° 0 min 0,127 mm 1,2 UV-I 151 W/m² 14,6 °C 18,3 °C 11,3 km/h (2 Bft)
24.08.2018 10:01 18,3 °C 79 % 1010,9 hPa 0,0 mm 8,6 km/h (2 Bft) W 267 ° 0 min 0,000 mm 1,2 UV-I 149 W/m² 14,6 °C 18,3 °C 17,7 km/h (3 Bft)
24.08.2018 10:02 18,3 °C 78 % 1010,9 hPa 0,0 mm 10,9 km/h (2 Bft) W-NW 287 ° 0 min 0,000 mm 1,3 UV-I 155 W/m² 14,4 °C 18,3 °C 16,1 km/h (3 Bft)
24.08.2018 10:03 18,3 °C 78 % 1010,9 hPa 0,0 mm 9,1 km/h (2 Bft) N-NW 346 ° 0 min 0,000 mm 1,3 UV-I 162 W/m² 14,4 °C 18,3 °C 14,5 km/h (3 Bft)
24.08.2018 10:04 18,2 °C 78 % 1010,9 hPa 0,0 mm 5,5 km/h (1 Bft) W-NW 300 ° 0 min 0,000 mm 1,4 UV-I 169 W/m² 14,3 °C 18,2 °C 14,5 km/h (3 Bft)
24.08.2018 10:05 18,2 °C 79 % 1010,9 hPa 0,0 mm 6,6 km/h (2 Bft) W 260 ° 0 min 0,000 mm 1,4 UV-I 176 W/m² 14,5 °C 18,2 °C 12,9 km/h (3 Bft)
24.08.2018 10:06 18,2 °C 79 % 1010,9 hPa 0,0 mm 7,0 km/h (2 Bft) W 277 ° 0 min 0,000 mm 1,5 UV-I 183 W/m² 14,5 °C 18,2 °C 12,9 km/h (3 Bft)
24.08.2018 10:07 18,2 °C 79 % 1011,0 hPa 0,0 mm 10,3 km/h (2 Bft) W-NW 284 ° 0 min 0,000 mm 1,5 UV-I 195 W/m² 14,5 °C 18,2 °C 14,5 km/h (3 Bft)
24.08.2018 10:08 18,2 °C 79 % 1010,9 hPa 0,0 mm 5,8 km/h (2 Bft) W 277 ° 0 min 0,000 mm 1,6 UV-I 199 W/m² 14,5 °C 18,2 °C 9,7 km/h (2 Bft)
24.08.2018 10:09 18,1 °C 79 % 1011,0 hPa 0,0 mm 4,5 km/h (1 Bft) W-NW 288 ° 0 min 0,000 mm 1,6 UV-I 202 W/m² 14,4 °C 18,1 °C 6,4 km/h (2 Bft)
24.08.2018 10:10 18,2 °C 80 % 1011,0 hPa 0,0 mm 6,8 km/h (2 Bft) W 259 ° 0 min 0,000 mm 1,6 UV-I 202 W/m² 14,7 °C 18,2 °C 16,1 km/h (3 Bft)
24.08.2018 10:11 18,2 °C 80 % 1010,9 hPa 0,0 mm 4,6 km/h (1 Bft) W 278 ° 0 min 0,000 mm 1,6 UV-I 202 W/m² 14,7 °C 18,2 °C 14,5 km/h (3 Bft)
24.08.2018 10:12 18,2 °C 80 % 1010,9 hPa 0,0 mm 7,9 km/h (2 Bft) W 274 ° 0 min 0,000 mm 1,6 UV-I 202 W/m² 14,7 °C 18,2 °C 16,1 km/h (3 Bft)
24.08.2018 10:13 18,2 °C 80 % 1011,0 hPa 0,0 mm 8,0 km/h (2 Bft) W-SW 237 ° 0 min 0,000 mm 1,6 UV-I 211 W/m² 14,7 °C 18,2 °C 11,3 km/h (2 Bft)
24.08.2018 10:14 18,2 °C 79 % 1010,9 hPa 0,0 mm 9,8 km/h (2 Bft) W-NW 293 ° 0 min 0,000 mm 1,6 UV-I 213 W/m² 14,5 °C 18,2 °C 16,1 km/h (3 Bft)
24.08.2018 10:15 18,2 °C 79 % 1011,0 hPa 0,0 mm 4,2 km/h (1 Bft) W-NW 291 ° 0 min 0,000 mm 1,6 UV-I 213 W/m² 14,5 °C 18,2 °C 6,4 km/h (2 Bft)
24.08.2018 10:16 18,3 °C 80 % 1011,0 hPa 0,0 mm 9,3 km/h (2 Bft) NW 315 ° 0 min 0,000 mm 1,6 UV-I 213 W/m² 14,8 °C 18,3 °C 14,5 km/h (3 Bft)
24.08.2018 10:17 18,3 °C 79 % 1011,0 hPa 0,0 mm 9,1 km/h (2 Bft) N-NW 330 ° 0 min 0,000 mm 1,6 UV-I 214 W/m² 14,6 °C 18,3 °C 12,9 km/h (3 Bft)
24.08.2018 10:18 18,3 °C 79 % 1011,0 hPa 0,0 mm 6,2 km/h (2 Bft) W-NW 290 ° 0 min 0,000 mm 1,7 UV-I 218 W/m² 14,6 °C 18,3 °C 11,3 km/h (2 Bft)
24.08.2018 10:19 18,3 °C 79 % 1011,0 hPa 0,0 mm 5,4 km/h (1 Bft) W 281 ° 0 min 0,000 mm 1,7 UV-I 229 W/m² 14,6 °C 18,3 °C 9,7 km/h (2 Bft)
24.08.2018 10:20 18,3 °C 80 % 1011,0 hPa 0,0 mm 3,8 km/h (1 Bft) W-NW 286 ° 0 min 0,000 mm 1,8 UV-I 232 W/m² 14,8 °C 18,3 °C 6,4 km/h (2 Bft)
24.08.2018 10:21 18,4 °C 80 % 1011,1 hPa 0,0 mm 2,3 km/h (1 Bft) NW 307 ° 0 min 0,000 mm 1,8 UV-I 239 W/m² 14,9 °C 18,4 °C 4,8 km/h (1 Bft)
24.08.2018 10:22 18,4 °C 80 % 1011,0 hPa 0,0 mm 7,0 km/h (2 Bft) NW 304 ° 0 min 0,000 mm 1,9 UV-I 248 W/m² 14,9 °C 18,4 °C 11,3 km/h (2 Bft)
24.08.2018 10:23 18,4 °C 79 % 1011,0 hPa 0,0 mm 4,5 km/h (1 Bft) W 264 ° 0 min 0,000 mm 1,9 UV-I 257 W/m² 14,7 °C 18,4 °C 4,8 km/h (1 Bft)
24.08.2018 10:24 18,5 °C 80 % 1011,1 hPa 0,0 mm 11,7 km/h (2 Bft) W 275 ° 0 min 0,000 mm 2,0 UV-I 276 W/m² 15,0 °C 18,5 °C 16,1 km/h (3 Bft)
24.08.2018 10:25 18,5 °C 79 % 1011,1 hPa 0,0 mm 8,8 km/h (2 Bft) W-NW 282 ° 0 min 0,000 mm 2,1 UV-I 285 W/m² 14,8 °C 18,5 °C 14,5 km/h (3 Bft)
24.08.2018 10:26 18,6 °C 79 % 1011,1 hPa 0,0 mm 10,0 km/h (2 Bft) W 265 ° 0 min 0,000 mm 2,2 UV-I 294 W/m² 14,9 °C 18,6 °C 16,1 km/h (3 Bft)
24.08.2018 10:27 18,6 °C 80 % 1011,1 hPa 0,0 mm 2,5 km/h (1 Bft) W-SW 250 ° 0 min 0,000 mm 2,2 UV-I 297 W/m² 15,1 °C 18,6 °C 11,3 km/h (2 Bft)
24.08.2018 10:28 18,7 °C 78 % 1011,1 hPa 0,0 mm 7,6 km/h (2 Bft) W-SW 254 ° 0 min 0,000 mm 2,2 UV-I 302 W/m² 14,8 °C 18,7 °C 12,9 km/h (3 Bft)
24.08.2018 10:29 18,7 °C 78 % 1011,2 hPa 0,0 mm 4,0 km/h (1 Bft) W-NW 294 ° 0 min 0,000 mm 2,2 UV-I 311 W/m² 14,8 °C 18,7 °C 11,3 km/h (2 Bft)
24.08.2018 10:30 18,7 °C 79 % 1011,2 hPa 0,0 mm 9,9 km/h (2 Bft) W-NW 295 ° 0 min 0,000 mm 2,2 UV-I 292 W/m² 15,0 °C 18,7 °C 12,9 km/h (3 Bft)
24.08.2018 10:31 18,8 °C 78 % 1011,1 hPa 0,0 mm 8,8 km/h (2 Bft) W-NW 290 ° 0 min 0,000 mm 2,2 UV-I 294 W/m² 14,9 °C 18,8 °C 12,9 km/h (3 Bft)
24.08.2018 10:32 18,8 °C 79 % 1011,1 hPa 0,0 mm 5,3 km/h (1 Bft) W-NW 292 ° 0 min 0,000 mm 2,3 UV-I 302 W/m² 15,1 °C 18,8 °C 6,4 km/h (2 Bft)
24.08.2018 10:33 18,8 °C 80 % 1011,1 hPa 0,0 mm 3,4 km/h (1 Bft) W-SW 252 ° 0 min 0,000 mm 2,4 UV-I 316 W/m² 15,3 °C 18,8 °C 6,4 km/h (2 Bft)
24.08.2018 10:34 18,9 °C 79 % 1011,0 hPa 0,0 mm 7,4 km/h (2 Bft) W 275 ° 0 min 0,000 mm 2,5 UV-I 316 W/m² 15,2 °C 18,9 °C 12,9 km/h (3 Bft)
24.08.2018 10:35 19,0 °C 79 % 1011,0 hPa 0,0 mm 6,0 km/h (2 Bft) NW 319 ° 0 min 0,000 mm 2,6 UV-I 360 W/m² 15,3 °C 19,0 °C 11,3 km/h (2 Bft)
24.08.2018 10:36 19,1 °C 79 % 1011,0 hPa 0,0 mm 5,5 km/h (1 Bft) W 260 ° 0 min 0,000 mm 2,7 UV-I 373 W/m² 15,4 °C 19,1 °C 9,7 km/h (2 Bft)
24.08.2018 10:37 19,1 °C 78 % 1011,0 hPa 0,0 mm 11,6 km/h (2 Bft) W 275 ° 0 min 0,000 mm 2,8 UV-I 380 W/m² 15,2 °C 19,1 °C 14,5 km/h (3 Bft)
24.08.2018 10:38 19,1 °C 78 % 1011,0 hPa 0,0 mm 9,3 km/h (2 Bft) W-NW 288 ° 0 min 0,000 mm 2,6 UV-I 346 W/m² 15,2 °C 19,1 °C 16,1 km/h (3 Bft)
24.08.2018 10:39 19,1 °C 78 % 1011,0 hPa 0,0 mm 7,7 km/h (2 Bft) W-NW 283 ° 0 min 0,000 mm 2,5 UV-I 320 W/m² 15,2 °C 19,1 °C 14,5 km/h (3 Bft)
24.08.2018 10:40 19,1 °C 78 % 1011,0 hPa 0,0 mm 11,8 km/h (2 Bft) W 268 ° 0 min 0,000 mm 2,5 UV-I 322 W/m² 15,2 °C 19,1 °C 16,1 km/h (3 Bft)
24.08.2018 10:41 19,1 °C 78 % 1011,0 hPa 0,0 mm 11,5 km/h (2 Bft) W-NW 292 ° 0 min 0,000 mm 2,5 UV-I 302 W/m² 15,2 °C 19,1 °C 14,5 km/h (3 Bft)
24.08.2018 10:42 19,1 °C 77 % 1011,0 hPa 0,0 mm 4,0 km/h (1 Bft) W-NW 295 ° 0 min 0,000 mm 2,4 UV-I 272 W/m² 15,0 °C 19,1 °C 6,4 km/h (2 Bft)
24.08.2018 10:43 19,1 °C 77 % 1011,0 hPa 0,0 mm 4,6 km/h (1 Bft) NW 304 ° 0 min 0,000 mm 2,3 UV-I 264 W/m² 15,0 °C 19,1 °C 8,0 km/h (2 Bft)
24.08.2018 10:44 19,1 °C 78 % 1011,0 hPa 0,0 mm 2,7 km/h (1 Bft) NW 325 ° 0 min 0,000 mm 2,4 UV-I 257 W/m² 15,2 °C 19,1 °C 6,4 km/h (2 Bft)
24.08.2018 10:45 19,1 °C 78 % 1011,0 hPa 0,0 mm 3,8 km/h (1 Bft) W-NW 292 ° 0 min 0,000 mm 2,4 UV-I 257 W/m² 15,2 °C 19,1 °C 4,8 km/h (1 Bft)
24.08.2018 10:46 19,1 °C 79 % 1011,0 hPa 0,0 mm 5,8 km/h (2 Bft) NW 305 ° 0 min 0,000 mm 2,5 UV-I 274 W/m² 15,4 °C 19,1 °C 11,3 km/h (2 Bft)
24.08.2018 10:47 19,2 °C 79 % 1011,1 hPa 0,0 mm 4,9 km/h (1 Bft) W 269 ° 0 min 0,000 mm 2,6 UV-I 285 W/m² 15,5 °C 19,2 °C 6,4 km/h (2 Bft)
24.08.2018 10:48 19,2 °C 78 % 1011,1 hPa 0,0 mm 5,9 km/h (2 Bft) NW 322 ° 0 min 0,000 mm 3,9 UV-I 285 W/m² 15,3 °C 19,2 °C 8,0 km/h (2 Bft)
24.08.2018 10:49 19,3 °C 79 % 1011,1 hPa 0,0 mm 4,6 km/h (1 Bft) W-NW 290 ° 0 min 0,000 mm 2,9 UV-I 357 W/m² 15,6 °C 19,3 °C 6,4 km/h (2 Bft)
24.08.2018 10:50 19,4 °C 79 % 1011,1 hPa 0,0 mm 3,5 km/h (1 Bft) NW 320 ° 0 min 0,000 mm 4,5 UV-I 357 W/m² 15,7 °C 19,4 °C 6,4 km/h (2 Bft)
24.08.2018 10:51 19,4 °C 78 % 1011,0 hPa 0,0 mm 6,5 km/h (2 Bft) NW 324 ° 0 min 0,000 mm 2,8 UV-I 357 W/m² 15,5 °C 19,4 °C 12,9 km/h (3 Bft)
24.08.2018 10:52 19,5 °C 77 % 1011,0 hPa 0,0 mm 5,7 km/h (1 Bft) NW 314 ° 0 min 0,000 mm 2,7 UV-I 327 W/m² 15,4 °C 19,5 °C 12,9 km/h (3 Bft)
24.08.2018 10:53 19,6 °C 79 % 1011,1 hPa 0,0 mm 8,0 km/h (2 Bft) W 263 ° 0 min 0,000 mm 2,7 UV-I 327 W/m² 15,9 °C 19,6 °C 12,9 km/h (3 Bft)
24.08.2018 10:54 19,6 °C 77 % 1011,1 hPa 0,0 mm 5,3 km/h (1 Bft) W-NW 286 ° 0 min 0,000 mm 2,5 UV-I 295 W/m² 15,5 °C 19,6 °C 9,7 km/h (2 Bft)
24.08.2018 10:55 19,7 °C 77 % 1011,1 hPa 0,0 mm 6,0 km/h (2 Bft) W-SW 254 ° 0 min 0,000 mm 2,5 UV-I 302 W/m² 15,5 °C 19,7 °C 9,7 km/h (2 Bft)
24.08.2018 10:56 19,7 °C 77 % 1011,1 hPa 0,0 mm 7,4 km/h (2 Bft) W 265 ° 0 min 0,000 mm 3,3 UV-I 394 W/m² 15,5 °C 19,7 °C 16,1 km/h (3 Bft)
24.08.2018 10:57 19,7 °C 77 % 1011,1 hPa 0,0 mm 12,5 km/h (3 Bft) W 267 ° 0 min 0,000 mm 2,7 UV-I 322 W/m² 15,5 °C 19,7 °C 16,1 km/h (3 Bft)
24.08.2018 10:58 19,6 °C 75 % 1011,1 hPa 0,0 mm 14,2 km/h (3 Bft) W-NW 288 ° 0 min 0,000 mm 2,7 UV-I 313 W/m² 15,0 °C 19,6 °C 25,7 km/h (4 Bft)
24.08.2018 10:59 19,6 °C 75 % 1011,1 hPa 0,0 mm 11,9 km/h (2 Bft) W-NW 302 ° 0 min 0,000 mm 2,8 UV-I 364 W/m² 15,0 °C 19,6 °C 20,9 km/h (4 Bft)
24.08.2018 11:00 19,4 °C 74 % 1011,3 hPa 0,0 mm 13,1 km/h (3 Bft) W 275 ° 0 min 0,000 mm 3,0 UV-I 283 W/m² 14,6 °C 19,4 °C 24,1 km/h (4 Bft)
24.08.2018 11:01 19,3 °C 74 % 1011,3 hPa 0,0 mm 11,8 km/h (2 Bft) NW 317 ° 0 min 0,177 mm 2,5 UV-I 288 W/m² 14,5 °C 19,3 °C 17,7 km/h (3 Bft)
24.08.2018 11:02 19,3 °C 74 % 1011,3 hPa 0,0 mm 15,2 km/h (3 Bft) NW 310 ° 0 min 0,000 mm 2,5 UV-I 288 W/m² 14,5 °C 19,3 °C 20,9 km/h (4 Bft)
24.08.2018 11:03 19,2 °C 74 % 1011,2 hPa 0,0 mm 11,1 km/h (2 Bft) W 271 ° 0 min 0,000 mm 2,6 UV-I 292 W/m² 14,4 °C 19,2 °C 19,3 km/h (3 Bft)
24.08.2018 11:04 19,2 °C 74 % 1011,3 hPa 0,0 mm 17,5 km/h (3 Bft) W 276 ° 0 min 0,000 mm 2,6 UV-I 301 W/m² 14,4 °C 19,2 °C 25,7 km/h (4 Bft)
24.08.2018 11:05 19,1 °C 75 % 1011,3 hPa 0,0 mm 10,2 km/h (2 Bft) W-NW 292 ° 0 min 0,000 mm 2,8 UV-I 350 W/m² 14,6 °C 19,1 °C 16,1 km/h (3 Bft)
24.08.2018 11:06 19,1 °C 75 % 1011,3 hPa 0,0 mm 15,0 km/h (3 Bft) W-NW 299 ° 0 min 0,000 mm 2,8 UV-I 315 W/m² 14,6 °C 19,1 °C 16,1 km/h (3 Bft)
24.08.2018 11:07 19,1 °C 75 % 1011,3 hPa 0,0 mm 9,7 km/h (2 Bft) W-NW 292 ° 0 min 0,000 mm 2,7 UV-I 327 W/m² 14,6 °C 19,1 °C 16,1 km/h (3 Bft)
24.08.2018 11:08 19,1 °C 76 % 1011,3 hPa 0,0 mm 11,3 km/h (2 Bft) W-NW 292 ° 0 min 0,000 mm 2,7 UV-I 334 W/m² 14,8 °C 19,1 °C 17,7 km/h (3 Bft)
24.08.2018 11:09 19,1 °C 76 % 1011,3 hPa 0,0 mm 11,3 km/h (2 Bft) W-NW 292 ° 0 min 0,000 mm 2,8 UV-I 343 W/m² 14,8 °C 19,1 °C 17,7 km/h (3 Bft)
24.08.2018 11:10 19,2 °C 76 % 1011,3 hPa 0,0 mm 12,9 km/h (3 Bft) W-NW 292 ° 0 min 0,000 mm 2,9 UV-I 353 W/m² 14,9 °C 19,2 °C 16,1 km/h (3 Bft)
24.08.2018 11:11 19,2 °C 77 % 1011,3 hPa 0,0 mm 16,1 km/h (3 Bft) W 270 ° 0 min 0,000 mm 3,1 UV-I 388 W/m² 15,1 °C 19,2 °C 22,5 km/h (4 Bft)
24.08.2018 11:12 19,2 °C 75 % 1011,4 hPa 0,0 mm 16,1 km/h (3 Bft) W 270 ° 0 min 0,000 mm 3,0 UV-I 399 W/m² 14,7 °C 19,2 °C 24,1 km/h (4 Bft)
24.08.2018 11:13 19,2 °C 76 % 1011,4 hPa 0,0 mm 14,5 km/h (3 Bft) W 270 ° 0 min 0,000 mm 3,2 UV-I 406 W/m² 14,9 °C 19,2 °C 22,5 km/h (4 Bft)
24.08.2018 11:15 19,3 °C 77 % 1011,4 hPa 0,0 mm 9,7 km/h (2 Bft) W 260 ° 0 min 0,000 mm 3,6 UV-I 478 W/m² 15,2 °C 19,3 °C 17,7 km/h (3 Bft)
24.08.2018 11:17 19,3 °C 76 % 1011,4 hPa 0,0 mm 11,8 km/h (2 Bft) W-SW 248 ° 0 min 0,000 mm 3,0 UV-I 343 W/m² 15,0 °C 19,3 °C 17,7 km/h (3 Bft)
24.08.2018 11:18 19,3 °C 76 % 1011,4 hPa 0,0 mm 15,8 km/h (3 Bft) W-NW 290 ° 0 min 0,000 mm 2,9 UV-I 329 W/m² 15,0 °C 19,3 °C 19,3 km/h (3 Bft)
24.08.2018 11:19 19,2 °C 75 % 1011,5 hPa 0,0 mm 15,4 km/h (3 Bft) W 277 ° 0 min 0,000 mm 2,8 UV-I 318 W/m² 14,7 °C 19,2 °C 20,9 km/h (4 Bft)
24.08.2018 11:20 19,1 °C 75 % 1011,4 hPa 0,0 mm 12,5 km/h (3 Bft) W-SW 251 ° 0 min 0,000 mm 2,8 UV-I 316 W/m² 14,6 °C 19,1 °C 27,4 km/h (4 Bft)
24.08.2018 11:21 19,1 °C 76 % 1011,5 hPa 0,0 mm 13,1 km/h (3 Bft) W 274 ° 0 min 0,000 mm 3,3 UV-I 334 W/m² 14,8 °C 19,1 °C 19,3 km/h (3 Bft)
24.08.2018 11:22 19,0 °C 76 % 1011,5 hPa 0,0 mm 9,0 km/h (2 Bft) W-SW 250 ° 0 min 0,000 mm 2,9 UV-I 336 W/m² 14,7 °C 19,0 °C 12,9 km/h (3 Bft)
24.08.2018 11:23 18,9 °C 76 % 1011,5 hPa 0,0 mm 8,9 km/h (2 Bft) W-NW 286 ° 0 min 0,000 mm 2,9 UV-I 360 W/m² 14,6 °C 18,9 °C 16,1 km/h (3 Bft)
24.08.2018 11:24 18,9 °C 76 % 1011,5 hPa 0,0 mm 13,5 km/h (3 Bft) W-NW 297 ° 0 min 0,000 mm 4,3 UV-I 397 W/m² 14,6 °C 18,9 °C 22,5 km/h (4 Bft)
24.08.2018 11:25 18,9 °C 76 % 1011,5 hPa 0,0 mm 13,2 km/h (3 Bft) W-NW 285 ° 0 min 0,000 mm 3,0 UV-I 385 W/m² 14,6 °C 18,9 °C 16,1 km/h (3 Bft)
24.08.2018 11:26 19,1 °C 77 % 1011,5 hPa 0,0 mm 6,8 km/h (2 Bft) N-NW 344 ° 0 min 0,000 mm 4,8 UV-I 452 W/m² 15,0 °C 19,1 °C 14,5 km/h (3 Bft)
24.08.2018 11:27 19,2 °C 77 % 1011,5 hPa 0,0 mm 11,3 km/h (2 Bft) W 260 ° 0 min 0,000 mm 3,5 UV-I 515 W/m² 15,1 °C 19,2 °C 14,5 km/h (3 Bft)
24.08.2018 11:28 19,3 °C 76 % 1011,5 hPa 0,0 mm 13,8 km/h (3 Bft) W-NW 294 ° 0 min 0,000 mm 2,9 UV-I 515 W/m² 15,0 °C 19,3 °C 17,7 km/h (3 Bft)
24.08.2018 11:29 19,3 °C 77 % 1011,5 hPa 0,0 mm 13,8 km/h (3 Bft) W-SW 254 ° 0 min 0,000 mm 2,9 UV-I 359 W/m² 15,2 °C 19,3 °C 22,5 km/h (4 Bft)
24.08.2018 11:30 19,3 °C 76 % 1011,5 hPa 0,0 mm 13,8 km/h (3 Bft) W-NW 283 ° 0 min 0,000 mm 3,1 UV-I 373 W/m² 15,0 °C 19,3 °C 17,7 km/h (3 Bft)
24.08.2018 11:31 19,3 °C 75 % 1011,5 hPa 0,0 mm 11,4 km/h (2 Bft) W-SW 252 ° 0 min 0,000 mm 3,3 UV-I 388 W/m² 14,8 °C 19,3 °C 16,1 km/h (3 Bft)
24.08.2018 11:32 19,3 °C 76 % 1011,5 hPa 0,0 mm 12,3 km/h (3 Bft) W-SW 238 ° 0 min 0,000 mm 3,5 UV-I 446 W/m² 15,0 °C 19,3 °C 19,3 km/h (3 Bft)
24.08.2018 11:33 19,3 °C 76 % 1011,4 hPa 0,0 mm 11,1 km/h (2 Bft) W-NW 288 ° 0 min 0,000 mm 3,7 UV-I 471 W/m² 15,0 °C 19,3 °C 22,5 km/h (4 Bft)
24.08.2018 11:34 19,3 °C 75 % 1011,4 hPa 0,0 mm 15,2 km/h (3 Bft) W-NW 290 ° 0 min 0,000 mm 4,0 UV-I 471 W/m² 14,8 °C 19,3 °C 20,9 km/h (4 Bft)
24.08.2018 11:35 19,3 °C 76 % 1011,4 hPa 0,0 mm 14,7 km/h (3 Bft) NW 305 ° 1 min 0,000 mm 4,0 UV-I 679 W/m² 15,0 °C 19,3 °C 20,9 km/h (4 Bft)
24.08.2018 11:36 19,3 °C 76 % 1011,4 hPa 0,0 mm 16,1 km/h (3 Bft) W-NW 300 ° 1 min 0,000 mm 4,5 UV-I 679 W/m² 15,0 °C 19,3 °C 16,1 km/h (3 Bft)
24.08.2018 11:37 19,5 °C 76 % 1011,4 hPa 0,0 mm 12,9 km/h (3 Bft) W-NW 292 ° 1 min 0,000 mm 3,4 UV-I 679 W/m² 15,2 °C 19,5 °C 19,3 km/h (3 Bft)
24.08.2018 11:38 19,5 °C 75 % 1011,4 hPa 0,0 mm 11,3 km/h (2 Bft) W-NW 292 ° 0 min 0,000 mm 3,3 UV-I 410 W/m² 14,9 °C 19,5 °C 16,1 km/h (3 Bft)
24.08.2018 11:39 19,5 °C 75 % 1011,4 hPa 0,0 mm 6,4 km/h (2 Bft) W-NW 292 ° 0 min 0,000 mm 3,0 UV-I 385 W/m² 14,9 °C 19,5 °C 12,9 km/h (3 Bft)
24.08.2018 11:40 19,5 °C 76 % 1011,4 hPa 0,0 mm 6,4 km/h (2 Bft) W-NW 292 ° 0 min 0,000 mm 2,8 UV-I 332 W/m² 15,2 °C 19,5 °C 12,9 km/h (3 Bft)
24.08.2018 11:41 19,5 °C 77 % 1011,4 hPa 0,0 mm 11,3 km/h (2 Bft) W-NW 292 ° 0 min 0,000 mm 2,7 UV-I 318 W/m² 15,4 °C 19,5 °C 19,3 km/h (3 Bft)
24.08.2018 11:42 19,5 °C 77 % 1011,4 hPa 0,0 mm 14,5 km/h (3 Bft) W-NW 292 ° 0 min 0,000 mm 2,6 UV-I 290 W/m² 15,4 °C 19,5 °C 24,1 km/h (4 Bft)
24.08.2018 11:43 19,4 °C 75 % 1011,4 hPa 0,0 mm 12,9 km/h (3 Bft) W-NW 292 ° 0 min 0,000 mm 2,3 UV-I 272 W/m² 14,8 °C 19,4 °C 17,7 km/h (3 Bft)
24.08.2018 11:45 19,3 °C 75 % 1011,4 hPa 0,0 mm 13,2 km/h (3 Bft) NW 322 ° 0 min 0,000 mm 2,1 UV-I 246 W/m² 14,8 °C 19,3 °C 19,3 km/h (3 Bft)
24.08.2018 11:47 19,2 °C 74 % 1011,4 hPa 0,0 mm 13,6 km/h (3 Bft) W-SW 257 ° 0 min 0,000 mm 1,9 UV-I 211 W/m² 14,4 °C 19,2 °C 22,5 km/h (4 Bft)
24.08.2018 11:48 19,2 °C 75 % 1011,4 hPa 0,0 mm 16,9 km/h (3 Bft) W 265 ° 0 min 0,000 mm 1,9 UV-I 207 W/m² 14,7 °C 19,2 °C 24,1 km/h (4 Bft)
24.08.2018 11:49 19,1 °C 74 % 1011,4 hPa 0,0 mm 7,3 km/h (2 Bft) W-SW 253 ° 0 min 0,000 mm 1,9 UV-I 202 W/m² 14,4 °C 19,1 °C 12,9 km/h (3 Bft)
24.08.2018 11:50 19,1 °C 75 % 1011,4 hPa 0,0 mm 12,0 km/h (2 Bft) W-NW 298 ° 0 min 0,000 mm 1,8 UV-I 193 W/m² 14,6 °C 19,1 °C 17,7 km/h (3 Bft)
24.08.2018 11:51 19,0 °C 75 % 1011,4 hPa 0,0 mm 11,7 km/h (2 Bft) W-NW 286 ° 0 min 0,000 mm 1,7 UV-I 186 W/m² 14,5 °C 19,0 °C 17,7 km/h (3 Bft)
24.08.2018 11:52 18,9 °C 75 % 1011,4 hPa 0,0 mm 9,9 km/h (2 Bft) NW 306 ° 0 min 0,000 mm 1,7 UV-I 183 W/m² 14,4 °C 18,9 °C 14,5 km/h (3 Bft)
24.08.2018 11:53 18,9 °C 76 % 1011,4 hPa 0,0 mm 5,7 km/h (1 Bft) W 281 ° 0 min 0,000 mm 1,7 UV-I 185 W/m² 14,6 °C 18,9 °C 8,0 km/h (2 Bft)
24.08.2018 11:54 18,9 °C 74 % 1011,4 hPa 0,0 mm 5,2 km/h (1 Bft) W-NW 290 ° 0 min 0,000 mm 1,7 UV-I 185 W/m² 14,2 °C 18,9 °C 9,7 km/h (2 Bft)
24.08.2018 11:55 18,9 °C 75 % 1011,3 hPa 0,0 mm 9,4 km/h (2 Bft) W-NW 295 ° 0 min 0,000 mm 1,7 UV-I 186 W/m² 14,4 °C 18,9 °C 19,3 km/h (3 Bft)
24.08.2018 11:56 18,9 °C 74 % 1011,4 hPa 0,0 mm 10,6 km/h (2 Bft) W-NW 282 ° 0 min 0,000 mm 1,7 UV-I 188 W/m² 14,2 °C 18,9 °C 16,1 km/h (3 Bft)
24.08.2018 11:57 18,9 °C 74 % 1011,4 hPa 0,0 mm 9,7 km/h (2 Bft) W 275 ° 0 min 0,000 mm 1,8 UV-I 192 W/m² 14,2 °C 18,9 °C 14,5 km/h (3 Bft)
24.08.2018 11:58 18,8 °C 74 % 1011,3 hPa 0,0 mm 7,5 km/h (2 Bft) W-NW 303 ° 0 min 0,000 mm 1,8 UV-I 204 W/m² 14,1 °C 18,8 °C 12,9 km/h (3 Bft)
24.08.2018 11:59 18,8 °C 75 % 1011,3 hPa 0,0 mm 11,7 km/h (2 Bft) W-SW 257 ° 0 min 0,000 mm 1,9 UV-I 207 W/m² 14,3 °C 18,8 °C 17,7 km/h (3 Bft)
24.08.2018 12:00 18,8 °C 73 % 1011,3 hPa 0,0 mm 9,9 km/h (2 Bft) W 275 ° 0 min 0,000 mm 1,9 UV-I 204 W/m² 13,9 °C 18,8 °C 12,9 km/h (3 Bft)
24.08.2018 12:01 18,7 °C 73 % 1011,4 hPa 0,0 mm 6,4 km/h (2 Bft) W-NW 296 ° 0 min 0,229 mm 1,9 UV-I 202 W/m² 13,8 °C 18,7 °C 9,7 km/h (2 Bft)
24.08.2018 12:02 18,7 °C 74 % 1011,3 hPa 0,0 mm 9,7 km/h (2 Bft) W-SW 250 ° 0 min 0,000 mm 1,9 UV-I 199 W/m² 14,0 °C 18,7 °C 12,9 km/h (3 Bft)
24.08.2018 12:03 18,7 °C 74 % 1011,3 hPa 0,0 mm 8,2 km/h (2 Bft) W-SW 250 ° 0 min 0,000 mm 1,8 UV-I 197 W/m² 14,0 °C 18,7 °C 11,3 km/h (2 Bft)
24.08.2018 12:04 18,7 °C 74 % 1011,3 hPa 0,0 mm 8,5 km/h (2 Bft) W-NW 294 ° 0 min 0,000 mm 1,9 UV-I 199 W/m² 14,0 °C 18,7 °C 16,1 km/h (3 Bft)
24.08.2018 12:05 18,7 °C 74 % 1011,3 hPa 0,0 mm 8,7 km/h (2 Bft) NW 315 ° 0 min 0,000 mm 2,0 UV-I 206 W/m² 14,0 °C 18,7 °C 12,9 km/h (3 Bft)
24.08.2018 12:06 18,7 °C 75 % 1011,3 hPa 0,0 mm 4,6 km/h (1 Bft) NW 309 ° 0 min 0,000 mm 2,1 UV-I 216 W/m² 14,2 °C 18,7 °C 6,4 km/h (2 Bft)
24.08.2018 12:07 18,7 °C 75 % 1011,3 hPa 0,0 mm 6,8 km/h (2 Bft) NW 317 ° 0 min 0,000 mm 2,3 UV-I 229 W/m² 14,2 °C 18,7 °C 11,3 km/h (2 Bft)
24.08.2018 12:08 18,8 °C 75 % 1011,3 hPa 0,0 mm 6,9 km/h (2 Bft) W-NW 288 ° 0 min 0,000 mm 2,4 UV-I 243 W/m² 14,3 °C 18,8 °C 12,9 km/h (3 Bft)
24.08.2018 12:09 18,8 °C 75 % 1011,4 hPa 0,0 mm 7,4 km/h (2 Bft) W 275 ° 0 min 0,000 mm 2,5 UV-I 251 W/m² 14,3 °C 18,8 °C 17,7 km/h (3 Bft)
24.08.2018 12:10 18,8 °C 75 % 1011,4 hPa 0,0 mm 11,1 km/h (2 Bft) W 279 ° 0 min 0,000 mm 2,6 UV-I 264 W/m² 14,3 °C 18,8 °C 16,1 km/h (3 Bft)
24.08.2018 12:11 18,8 °C 74 % 1011,4 hPa 0,0 mm 11,5 km/h (2 Bft) W-NW 294 ° 0 min 0,000 mm 2,9 UV-I 278 W/m² 14,1 °C 18,8 °C 17,7 km/h (3 Bft)
24.08.2018 12:12 18,8 °C 74 % 1011,4 hPa 0,0 mm 9,7 km/h (2 Bft) W 273 ° 0 min 0,000 mm 3,1 UV-I 302 W/m² 14,1 °C 18,8 °C 17,7 km/h (3 Bft)
24.08.2018 12:13 18,8 °C 73 % 1011,4 hPa 0,0 mm 12,0 km/h (2 Bft) W-NW 287 ° 0 min 0,000 mm 3,2 UV-I 320 W/m² 13,9 °C 18,8 °C 17,7 km/h (3 Bft)
24.08.2018 12:14 18,8 °C 74 % 1011,3 hPa 0,0 mm 6,6 km/h (2 Bft) W-NW 296 ° 0 min 0,000 mm 3,4 UV-I 320 W/m² 14,1 °C 18,8 °C 12,9 km/h (3 Bft)
24.08.2018 12:15 18,8 °C 74 % 1011,3 hPa 0,0 mm 6,2 km/h (2 Bft) NW 314 ° 0 min 0,000 mm 3,5 UV-I 364 W/m² 14,1 °C 18,8 °C 9,7 km/h (2 Bft)
24.08.2018 12:16 18,8 °C 75 % 1011,3 hPa 0,0 mm 5,7 km/h (1 Bft) W-NW 292 ° 0 min 0,000 mm 3,4 UV-I 367 W/m² 14,3 °C 18,8 °C 9,7 km/h (2 Bft)
24.08.2018 12:17 18,9 °C 74 % 1011,3 hPa 0,0 mm 2,6 km/h (1 Bft) W 270 ° 0 min 0,000 mm 3,5 UV-I 352 W/m² 14,2 °C 18,9 °C 6,4 km/h (2 Bft)
24.08.2018 12:18 18,9 °C 74 % 1011,3 hPa 0,0 mm 8,7 km/h (2 Bft) W-NW 298 ° 0 min 0,000 mm 3,6 UV-I 369 W/m² 14,2 °C 18,9 °C 14,5 km/h (3 Bft)
24.08.2018 12:19 19,1 °C 76 % 1011,3 hPa 0,0 mm 4,1 km/h (1 Bft) W 263 ° 0 min 0,000 mm 3,7 UV-I 413 W/m² 14,8 °C 19,1 °C 4,8 km/h (1 Bft)
24.08.2018 12:20 19,2 °C 75 % 1011,2 hPa 0,0 mm 3,2 km/h (1 Bft) W-NW 282 ° 0 min 0,000 mm 3,5 UV-I 359 W/m² 14,7 °C 19,2 °C 4,8 km/h (1 Bft)
24.08.2018 12:21 19,2 °C 75 % 1011,2 hPa 0,0 mm 4,8 km/h (1 Bft) W 265 ° 0 min 0,000 mm 3,5 UV-I 359 W/m² 14,7 °C 19,2 °C 6,4 km/h (2 Bft)
24.08.2018 12:22 19,4 °C 74 % 1011,2 hPa 0,0 mm 9,7 km/h (2 Bft) W 270 ° 0 min 0,000 mm 3,2 UV-I 325 W/m² 14,6 °C 19,4 °C 16,1 km/h (3 Bft)
24.08.2018 12:23 19,4 °C 74 % 1011,2 hPa 0,0 mm 4,8 km/h (1 Bft) W-SW 247 ° 0 min 0,000 mm 3,1 UV-I 290 W/m² 14,6 °C 19,4 °C 12,9 km/h (3 Bft)
24.08.2018 12:24 19,4 °C 75 % 1011,3 hPa 0,0 mm 8,0 km/h (2 Bft) W-SW 247 ° 0 min 0,000 mm 2,9 UV-I 274 W/m² 14,8 °C 19,4 °C 14,5 km/h (3 Bft)
24.08.2018 12:25 19,4 °C 74 % 1011,2 hPa 0,0 mm 12,9 km/h (3 Bft) W 270 ° 0 min 0,000 mm 2,6 UV-I 258 W/m² 14,6 °C 19,4 °C 19,3 km/h (3 Bft)
24.08.2018 12:26 19,4 °C 74 % 1011,2 hPa 0,0 mm 8,0 km/h (2 Bft) NW 315 ° 0 min 0,000 mm 2,5 UV-I 243 W/m² 14,6 °C 19,4 °C 12,9 km/h (3 Bft)
24.08.2018 12:27 19,3 °C 73 % 1011,3 hPa 0,0 mm 4,8 km/h (1 Bft) W 270 ° 0 min 0,000 mm 2,3 UV-I 227 W/m² 14,3 °C 19,3 °C 6,4 km/h (2 Bft)
24.08.2018 12:28 19,4 °C 74 % 1011,3 hPa 0,0 mm 3,2 km/h (1 Bft) W 270 ° 0 min 0,000 mm 2,2 UV-I 213 W/m² 14,6 °C 19,4 °C 4,8 km/h (1 Bft)
24.08.2018 12:30 19,3 °C 73 % 1011,3 hPa 0,0 mm 9,8 km/h (2 Bft) W-NW 300 ° 0 min 0,000 mm 2,1 UV-I 204 W/m² 14,3 °C 19,3 °C 17,7 km/h (3 Bft)
24.08.2018 12:31 19,4 °C 74 % 1011,3 hPa 0,0 mm 10,3 km/h (2 Bft) NW 305 ° 0 min 0,000 mm 2,1 UV-I 209 W/m² 14,6 °C 19,4 °C 16,1 km/h (3 Bft)
24.08.2018 12:32 19,3 °C 73 % 1011,3 hPa 0,0 mm 8,0 km/h (2 Bft) W 277 ° 0 min 0,000 mm 2,2 UV-I 214 W/m² 14,3 °C 19,3 °C 14,5 km/h (3 Bft)
24.08.2018 12:33 19,3 °C 73 % 1011,2 hPa 0,0 mm 9,4 km/h (2 Bft) W-NW 282 ° 0 min 0,000 mm 2,2 UV-I 220 W/m² 14,3 °C 19,3 °C 16,1 km/h (3 Bft)
24.08.2018 12:34 19,3 °C 73 % 1011,2 hPa 0,0 mm 8,8 km/h (2 Bft) W 277 ° 0 min 0,000 mm 2,2 UV-I 220 W/m² 14,3 °C 19,3 °C 16,1 km/h (3 Bft)
24.08.2018 12:35 19,3 °C 74 % 1011,2 hPa 0,0 mm 7,4 km/h (2 Bft) NW 316 ° 0 min 0,000 mm 2,1 UV-I 218 W/m² 14,5 °C 19,3 °C 12,9 km/h (3 Bft)
24.08.2018 12:36 19,3 °C 73 % 1011,2 hPa 0,0 mm 8,2 km/h (2 Bft) NW 308 ° 0 min 0,000 mm 2,1 UV-I 214 W/m² 14,3 °C 19,3 °C 12,9 km/h (3 Bft)
24.08.2018 12:37 19,2 °C 72 % 1011,2 hPa 0,0 mm 7,7 km/h (2 Bft) W 280 ° 0 min 0,000 mm 2,0 UV-I 211 W/m² 14,0 °C 19,2 °C 12,9 km/h (3 Bft)
24.08.2018 12:38 19,2 °C 73 % 1011,2 hPa 0,0 mm 10,4 km/h (2 Bft) W-NW 302 ° 0 min 0,000 mm 2,0 UV-I 209 W/m² 14,2 °C 19,2 °C 17,7 km/h (3 Bft)
24.08.2018 12:39 19,2 °C 73 % 1011,2 hPa 0,0 mm 10,8 km/h (2 Bft) W-NW 296 ° 0 min 0,000 mm 2,0 UV-I 207 W/m² 14,2 °C 19,2 °C 17,7 km/h (3 Bft)
24.08.2018 12:40 19,2 °C 73 % 1011,2 hPa 0,0 mm 13,9 km/h (3 Bft) W-SW 251 ° 0 min 0,000 mm 2,0 UV-I 209 W/m² 14,2 °C 19,2 °C 19,3 km/h (3 Bft)
24.08.2018 12:41 19,1 °C 72 % 1011,2 hPa 0,0 mm 8,0 km/h (2 Bft) W-NW 286 ° 0 min 0,000 mm 2,1 UV-I 214 W/m² 13,9 °C 19,1 °C 11,3 km/h (2 Bft)
24.08.2018 12:42 19,1 °C 73 % 1011,2 hPa 0,0 mm 11,4 km/h (2 Bft) W 275 ° 0 min 0,000 mm 2,2 UV-I 223 W/m² 14,1 °C 19,1 °C 17,7 km/h (3 Bft)
24.08.2018 12:43 19,1 °C 73 % 1011,2 hPa 0,0 mm 6,0 km/h (2 Bft) W-SW 251 ° 0 min 0,000 mm 2,3 UV-I 234 W/m² 14,1 °C 19,1 °C 12,9 km/h (3 Bft)
24.08.2018 12:44 19,1 °C 73 % 1011,2 hPa 0,0 mm 12,2 km/h (2 Bft) W 270 ° 0 min 0,000 mm 2,4 UV-I 246 W/m² 14,1 °C 19,1 °C 17,7 km/h (3 Bft)
24.08.2018 12:45 19,1 °C 74 % 1011,2 hPa 0,0 mm 6,1 km/h (2 Bft) N-NW 338 ° 0 min 0,000 mm 2,5 UV-I 279 W/m² 14,4 °C 19,1 °C 11,3 km/h (2 Bft)
24.08.2018 12:46 19,1 °C 74 % 1011,1 hPa 0,0 mm 4,8 km/h (1 Bft) N-NW 338 ° 0 min 0,000 mm 2,5 UV-I 279 W/m² 14,4 °C 19,1 °C 6,4 km/h (2 Bft)
24.08.2018 12:47 19,1 °C 74 % 1011,2 hPa 0,0 mm 3,2 km/h (1 Bft) W-SW 247 ° 0 min 0,000 mm 2,9 UV-I 311 W/m² 14,4 °C 19,1 °C 6,4 km/h (2 Bft)
24.08.2018 12:48 19,2 °C 73 % 1011,2 hPa 0,0 mm 6,4 km/h (2 Bft) W-SW 247 ° 0 min 0,000 mm 3,0 UV-I 334 W/m² 14,2 °C 19,2 °C 11,3 km/h (2 Bft)
24.08.2018 12:49 19,3 °C 74 % 1011,2 hPa 0,0 mm 9,7 km/h (2 Bft) W-SW 247 ° 0 min 0,000 mm 3,0 UV-I 322 W/m² 14,5 °C 19,3 °C 12,9 km/h (3 Bft)
24.08.2018 12:50 19,3 °C 75 % 1011,1 hPa 0,0 mm 9,7 km/h (2 Bft) NW 315 ° 0 min 0,000 mm 3,1 UV-I 325 W/m² 14,8 °C 19,3 °C 14,5 km/h (3 Bft)
24.08.2018 12:51 19,4 °C 73 % 1011,1 hPa 0,0 mm 6,4 km/h (2 Bft) W 270 ° 0 min 0,000 mm 3,1 UV-I 334 W/m² 14,4 °C 19,4 °C 12,9 km/h (3 Bft)
24.08.2018 12:52 19,4 °C 73 % 1011,1 hPa 0,0 mm 8,0 km/h (2 Bft) NW 315 ° 0 min 0,000 mm 3,2 UV-I 346 W/m² 14,4 °C 19,4 °C 11,3 km/h (2 Bft)
24.08.2018 12:53 19,4 °C 73 % 1011,0 hPa 0,0 mm 11,3 km/h (2 Bft) W-NW 292 ° 0 min 0,000 mm 3,3 UV-I 359 W/m² 14,4 °C 19,4 °C 17,7 km/h (3 Bft)
24.08.2018 12:55 19,5 °C 73 % 1011,0 hPa 0,0 mm 13,8 km/h (3 Bft) W-SW 241 ° 0 min 0,000 mm 5,6 UV-I 359 W/m² 14,5 °C 19,5 °C 16,1 km/h (3 Bft)
24.08.2018 12:57 19,6 °C 73 % 1011,0 hPa 0,0 mm 14,5 km/h (3 Bft) W-SW 255 ° 0 min 0,000 mm 5,6 UV-I 359 W/m² 14,6 °C 19,6 °C 14,5 km/h (3 Bft)
24.08.2018 12:58 20,0 °C 73 % 1011,0 hPa 0,0 mm 4,8 km/h (1 Bft) W-NW 292 ° 0 min 0,000 mm 6,9 UV-I 359 W/m² 15,0 °C 20,0 °C 11,3 km/h (2 Bft)
24.08.2018 12:59 20,2 °C 73 % 1010,9 hPa 0,0 mm 4,8 km/h (1 Bft) W 270 ° 0 min 0,000 mm 4,8 UV-I 538 W/m² 15,2 °C 20,2 °C 9,7 km/h (2 Bft)
24.08.2018 13:00 20,3 °C 73 % 1010,9 hPa 0,0 mm 4,8 km/h (1 Bft) W-NW 292 ° 0 min 0,203 mm 4,5 UV-I 578 W/m² 15,3 °C 20,3 °C 11,3 km/h (2 Bft)
24.08.2018 13:01 20,3 °C 72 % 1010,9 hPa 0,0 mm 8,0 km/h (2 Bft) W 270 ° 0 min 0,000 mm 4,8 UV-I 520 W/m² 15,1 °C 20,3 °C 12,9 km/h (3 Bft)
24.08.2018 13:02 20,4 °C 71 % 1010,9 hPa 0,0 mm 12,9 km/h (3 Bft) W 270 ° 0 min 0,000 mm 4,8 UV-I 536 W/m² 15,0 °C 20,4 °C 16,1 km/h (3 Bft)
24.08.2018 13:03 20,4 °C 71 % 1010,9 hPa 0,0 mm 11,3 km/h (2 Bft) W-NW 292 ° 0 min 0,000 mm 4,0 UV-I 406 W/m² 15,0 °C 20,4 °C 17,7 km/h (3 Bft)
24.08.2018 13:04 20,4 °C 71 % 1010,9 hPa 0,0 mm 4,8 km/h (1 Bft) W 270 ° 0 min 0,000 mm 4,2 UV-I 439 W/m² 15,0 °C 20,4 °C 11,3 km/h (2 Bft)
24.08.2018 13:06 20,5 °C 72 % 1010,9 hPa 0,0 mm 6,9 km/h (2 Bft) N-NW 331 ° 0 min 0,000 mm 5,0 UV-I 439 W/m² 15,3 °C 20,5 °C 8,0 km/h (2 Bft)
24.08.2018 13:07 20,5 °C 71 % 1010,9 hPa 0,0 mm 3,6 km/h (1 Bft) NW 308 ° 0 min 0,000 mm 5,5 UV-I 439 W/m² 15,1 °C 20,5 °C 6,4 km/h (2 Bft)
24.08.2018 13:08 20,7 °C 74 % 1010,8 hPa 0,0 mm 10,8 km/h (2 Bft) N-NW 338 ° 0 min 0,000 mm 5,9 UV-I 439 W/m² 15,9 °C 20,7 °C 17,7 km/h (3 Bft)
24.08.2018 13:09 20,7 °C 71 % 1010,8 hPa 0,0 mm 6,5 km/h (2 Bft) W 280 ° 0 min 0,000 mm 4,5 UV-I 455 W/m² 15,2 °C 20,7 °C 9,7 km/h (2 Bft)
24.08.2018 13:10 20,7 °C 71 % 1010,8 hPa 0,0 mm 5,2 km/h (1 Bft) W-NW 288 ° 0 min 0,000 mm 4,7 UV-I 439 W/m² 15,2 °C 20,7 °C 11,3 km/h (2 Bft)
24.08.2018 13:11 20,7 °C 71 % 1010,8 hPa 0,0 mm 7,5 km/h (2 Bft) NW 309 ° 0 min 0,000 mm 4,6 UV-I 471 W/m² 15,2 °C 20,7 °C 14,5 km/h (3 Bft)
24.08.2018 13:12 20,7 °C 70 % 1010,7 hPa 0,0 mm 9,3 km/h (2 Bft) W 274 ° 0 min 0,000 mm 3,8 UV-I 387 W/m² 15,0 °C 20,7 °C 14,5 km/h (3 Bft)
24.08.2018 13:13 20,7 °C 69 % 1010,8 hPa 0,0 mm 9,9 km/h (2 Bft) W 265 ° 0 min 0,000 mm 3,6 UV-I 352 W/m² 14,8 °C 20,7 °C 17,7 km/h (3 Bft)
24.08.2018 13:14 20,6 °C 69 % 1010,8 hPa 0,0 mm 11,3 km/h (2 Bft) NW 304 ° 0 min 0,000 mm 3,6 UV-I 350 W/m² 14,7 °C 20,6 °C 17,7 km/h (3 Bft)
24.08.2018 13:15 20,4 °C 69 % 1010,8 hPa 0,0 mm 11,1 km/h (2 Bft) W 272 ° 0 min 0,000 mm 3,5 UV-I 348 W/m² 14,5 °C 20,4 °C 16,1 km/h (3 Bft)
24.08.2018 13:16 20,3 °C 69 % 1010,8 hPa 0,0 mm 11,8 km/h (2 Bft) W 263 ° 0 min 0,000 mm 3,5 UV-I 355 W/m² 14,4 °C 20,3 °C 19,3 km/h (3 Bft)
24.08.2018 13:17 20,2 °C 70 % 1010,8 hPa 0,0 mm 11,3 km/h (2 Bft) W 275 ° 0 min 0,000 mm 3,6 UV-I 374 W/m² 14,5 °C 20,2 °C 19,3 km/h (3 Bft)
24.08.2018 13:18 20,1 °C 69 % 1010,8 hPa 0,0 mm 13,5 km/h (3 Bft) W-SW 252 ° 0 min 0,000 mm 3,5 UV-I 374 W/m² 14,2 °C 20,1 °C 22,5 km/h (4 Bft)
24.08.2018 13:19 20,1 °C 70 % 1010,8 hPa 0,0 mm 8,5 km/h (2 Bft) W 271 ° 0 min 0,000 mm 3,6 UV-I 397 W/m² 14,5 °C 20,1 °C 12,9 km/h (3 Bft)
24.08.2018 13:20 20,0 °C 69 % 1010,8 hPa 0,0 mm 11,9 km/h (2 Bft) NW 314 ° 0 min 0,000 mm 3,5 UV-I 369 W/m² 14,1 °C 20,0 °C 17,7 km/h (3 Bft)
24.08.2018 13:21 19,9 °C 70 % 1010,8 hPa 0,0 mm 7,9 km/h (2 Bft) NW 313 ° 0 min 0,000 mm 3,4 UV-I 359 W/m² 14,3 °C 19,9 °C 14,5 km/h (3 Bft)
24.08.2018 13:22 19,8 °C 71 % 1010,8 hPa 0,0 mm 6,7 km/h (2 Bft) W-NW 292 ° 0 min 0,000 mm 3,3 UV-I 350 W/m² 14,4 °C 19,8 °C 8,0 km/h (2 Bft)
24.08.2018 13:23 19,8 °C 70 % 1010,8 hPa 0,0 mm 14,4 km/h (3 Bft) W 281 ° 0 min 0,000 mm 3,2 UV-I 339 W/m² 14,2 °C 19,8 °C 20,9 km/h (4 Bft)
24.08.2018 13:24 19,8 °C 70 % 1010,8 hPa 0,0 mm 14,7 km/h (3 Bft) W-NW 294 ° 0 min 0,000 mm 3,1 UV-I 329 W/m² 14,2 °C 19,8 °C 20,9 km/h (4 Bft)
24.08.2018 13:25 19,7 °C 71 % 1010,8 hPa 0,0 mm 12,7 km/h (3 Bft) W-NW 286 ° 0 min 0,000 mm 3,0 UV-I 318 W/m² 14,3 °C 19,7 °C 20,9 km/h (4 Bft)
24.08.2018 13:26 19,7 °C 71 % 1010,8 hPa 0,0 mm 8,9 km/h (2 Bft) N-NW 347 ° 0 min 0,000 mm 2,9 UV-I 294 W/m² 14,3 °C 19,7 °C 14,5 km/h (3 Bft)
24.08.2018 13:27 19,7 °C 71 % 1010,7 hPa 0,0 mm 12,7 km/h (3 Bft) N-NW 340 ° 0 min 0,000 mm 2,7 UV-I 279 W/m² 14,3 °C 19,7 °C 22,5 km/h (4 Bft)
24.08.2018 13:28 19,7 °C 71 % 1010,7 hPa 0,0 mm 10,8 km/h (2 Bft) W 261 ° 0 min 0,000 mm 2,5 UV-I 267 W/m² 14,3 °C 19,7 °C 16,1 km/h (3 Bft)
24.08.2018 13:29 19,6 °C 71 % 1010,8 hPa 0,0 mm 8,8 km/h (2 Bft) W-NW 302 ° 0 min 0,000 mm 2,4 UV-I 257 W/m² 14,2 °C 19,6 °C 12,9 km/h (3 Bft)
24.08.2018 13:30 19,6 °C 72 % 1010,8 hPa 0,0 mm 5,4 km/h (1 Bft) W-NW 300 ° 0 min 0,000 mm 2,4 UV-I 248 W/m² 14,4 °C 19,6 °C 9,7 km/h (2 Bft)
24.08.2018 13:31 19,7 °C 73 % 1010,8 hPa 0,0 mm 10,6 km/h (2 Bft) W-NW 297 ° 0 min 0,000 mm 2,3 UV-I 241 W/m² 14,7 °C 19,7 °C 16,1 km/h (3 Bft)
24.08.2018 13:32 19,7 °C 73 % 1010,8 hPa 0,0 mm 6,8 km/h (2 Bft) N-NW 333 ° 0 min 0,000 mm 2,2 UV-I 227 W/m² 14,7 °C 19,7 °C 11,3 km/h (2 Bft)
24.08.2018 13:33 19,7 °C 72 % 1010,8 hPa 0,0 mm 10,0 km/h (2 Bft) SW 222 ° 0 min 0,000 mm 2,1 UV-I 221 W/m² 14,5 °C 19,7 °C 16,1 km/h (3 Bft)
24.08.2018 13:34 19,7 °C 73 % 1010,8 hPa 0,0 mm 11,1 km/h (2 Bft) W-SW 245 ° 0 min 0,000 mm 2,0 UV-I 214 W/m² 14,7 °C 19,7 °C 16,1 km/h (3 Bft)
24.08.2018 13:35 19,6 °C 72 % 1010,8 hPa 0,0 mm 6,0 km/h (2 Bft) W-NW 292 ° 0 min 0,000 mm 2,0 UV-I 209 W/m² 14,4 °C 19,6 °C 9,7 km/h (2 Bft)
24.08.2018 13:36 19,6 °C 73 % 1010,8 hPa 0,0 mm 8,6 km/h (2 Bft) W-NW 290 ° 0 min 0,000 mm 2,0 UV-I 204 W/m² 14,6 °C 19,6 °C 12,9 km/h (3 Bft)
24.08.2018 13:37 19,6 °C 73 % 1010,8 hPa 0,0 mm 5,2 km/h (1 Bft) W 277 ° 0 min 0,000 mm 1,9 UV-I 202 W/m² 14,6 °C 19,6 °C 8,0 km/h (2 Bft)
24.08.2018 13:38 19,6 °C 75 % 1010,8 hPa 0,0 mm 7,2 km/h (2 Bft) W-NW 288 ° 0 min 0,000 mm 1,9 UV-I 197 W/m² 15,0 °C 19,6 °C 14,5 km/h (3 Bft)
24.08.2018 13:39 19,5 °C 74 % 1010,8 hPa 0,0 mm 10,3 km/h (2 Bft) W 276 ° 0 min 0,000 mm 1,8 UV-I 193 W/m² 14,7 °C 19,5 °C 16,1 km/h (3 Bft)
24.08.2018 13:40 19,4 °C 72 % 1010,8 hPa 0,0 mm 6,0 km/h (2 Bft) W 281 ° 0 min 0,000 mm 1,8 UV-I 192 W/m² 14,2 °C 19,4 °C 11,3 km/h (2 Bft)
24.08.2018 13:41 19,4 °C 73 % 1010,7 hPa 0,0 mm 13,9 km/h (3 Bft) W-SW 251 ° 0 min 0,000 mm 1,8 UV-I 190 W/m² 14,4 °C 19,4 °C 16,1 km/h (3 Bft)
24.08.2018 13:42 19,4 °C 72 % 1010,8 hPa 0,0 mm 10,5 km/h (2 Bft) W-SW 242 ° 0 min 0,000 mm 1,8 UV-I 193 W/m² 14,2 °C 19,4 °C 14,5 km/h (3 Bft)
24.08.2018 13:43 19,4 °C 73 % 1010,7 hPa 0,0 mm 6,6 km/h (2 Bft) NW 313 ° 0 min 0,000 mm 1,9 UV-I 199 W/m² 14,4 °C 19,4 °C 11,3 km/h (2 Bft)
24.08.2018 13:44 19,3 °C 72 % 1010,7 hPa 0,0 mm 7,7 km/h (2 Bft) W 264 ° 0 min 0,000 mm 2,0 UV-I 209 W/m² 14,1 °C 19,3 °C 14,5 km/h (3 Bft)
24.08.2018 13:45 19,3 °C 72 % 1010,7 hPa 0,0 mm 7,8 km/h (2 Bft) W-NW 296 ° 0 min 0,000 mm 2,0 UV-I 207 W/m² 14,1 °C 19,3 °C 12,9 km/h (3 Bft)
24.08.2018 13:46 19,3 °C 73 % 1010,7 hPa 0,0 mm 11,5 km/h (2 Bft) W 275 ° 0 min 0,000 mm 2,0 UV-I 204 W/m² 14,3 °C 19,3 °C 17,7 km/h (3 Bft)
24.08.2018 13:47 19,3 °C 73 % 1010,7 hPa 0,0 mm 9,7 km/h (2 Bft) W-NW 287 ° 0 min 0,000 mm 2,0 UV-I 200 W/m² 14,3 °C 19,3 °C 14,5 km/h (3 Bft)
24.08.2018 13:48 19,2 °C 73 % 1010,7 hPa 0,0 mm 14,6 km/h (3 Bft) W-NW 299 ° 0 min 0,000 mm 2,0 UV-I 199 W/m² 14,2 °C 19,2 °C 22,5 km/h (4 Bft)
24.08.2018 13:49 19,2 °C 73 % 1010,7 hPa 0,0 mm 13,1 km/h (3 Bft) W 267 ° 0 min 0,000 mm 1,9 UV-I 193 W/m² 14,2 °C 19,2 °C 17,7 km/h (3 Bft)
24.08.2018 13:50 19,2 °C 73 % 1010,7 hPa 0,0 mm 7,6 km/h (2 Bft) W-SW 257 ° 0 min 0,000 mm 1,8 UV-I 181 W/m² 14,2 °C 19,2 °C 12,9 km/h (3 Bft)
24.08.2018 13:51 19,2 °C 73 % 1010,6 hPa 0,0 mm 11,1 km/h (2 Bft) N-NW 330 ° 0 min 0,000 mm 1,7 UV-I 176 W/m² 14,2 °C 19,2 °C 19,3 km/h (3 Bft)
24.08.2018 13:52 19,2 °C 73 % 1010,6 hPa 0,0 mm 6,7 km/h (2 Bft) N-NW 330 ° 0 min 0,000 mm 1,6 UV-I 171 W/m² 14,2 °C 19,2 °C 12,9 km/h (3 Bft)
24.08.2018 13:53 19,2 °C 73 % 1010,6 hPa 0,0 mm 6,6 km/h (2 Bft) W-NW 295 ° 0 min 0,000 mm 1,5 UV-I 163 W/m² 14,2 °C 19,2 °C 12,9 km/h (3 Bft)
24.08.2018 13:54 19,2 °C 75 % 1010,6 hPa 0,0 mm 3,1 km/h (1 Bft) W-NW 288 ° 0 min 0,000 mm 1,4 UV-I 158 W/m² 14,7 °C 19,2 °C 6,4 km/h (2 Bft)
24.08.2018 13:55 19,2 °C 75 % 1010,6 hPa 0,0 mm 1,8 km/h (1 Bft) W-NW 288 ° 0 min 0,000 mm 1,4 UV-I 149 W/m² 14,7 °C 19,2 °C 3,2 km/h (1 Bft)
24.08.2018 13:56 19,2 °C 74 % 1010,6 hPa 0,0 mm 2,4 km/h (1 Bft) W-NW 288 ° 0 min 0,000 mm 1,4 UV-I 149 W/m² 14,4 °C 19,2 °C 4,8 km/h (1 Bft)
24.08.2018 13:57 19,2 °C 74 % 1010,6 hPa 0,0 mm 3,7 km/h (1 Bft) N-NW 342 ° 0 min 0,000 mm 1,4 UV-I 151 W/m² 14,4 °C 19,2 °C 8,0 km/h (2 Bft)
24.08.2018 13:58 19,2 °C 74 % 1010,7 hPa 0,0 mm 5,4 km/h (1 Bft) W 265 ° 0 min 0,000 mm 1,4 UV-I 155 W/m² 14,4 °C 19,2 °C 9,7 km/h (2 Bft)
24.08.2018 13:59 19,2 °C 74 % 1010,6 hPa 0,0 mm 4,2 km/h (1 Bft) NW 306 ° 0 min 0,000 mm 1,5 UV-I 160 W/m² 14,4 °C 19,2 °C 9,7 km/h (2 Bft)
24.08.2018 14:00 19,1 °C 73 % 1010,6 hPa 0,0 mm 2,1 km/h (1 Bft) NW 304 ° 0 min 0,203 mm 1,6 UV-I 167 W/m² 14,1 °C 19,1 °C 3,2 km/h (1 Bft)
24.08.2018 14:01 19,2 °C 74 % 1010,6 hPa 0,0 mm 4,5 km/h (1 Bft) W-NW 290 ° 0 min 0,000 mm 1,6 UV-I 181 W/m² 14,4 °C 19,2 °C 12,9 km/h (3 Bft)
24.08.2018 14:02 19,2 °C 75 % 1010,6 hPa 0,0 mm 6,9 km/h (2 Bft) W 271 ° 0 min 0,000 mm 1,8 UV-I 190 W/m² 14,7 °C 19,2 °C 9,7 km/h (2 Bft)
24.08.2018 14:03 19,2 °C 74 % 1010,6 hPa 0,0 mm 5,0 km/h (1 Bft) W-NW 296 ° 0 min 0,000 mm 1,9 UV-I 200 W/m² 14,4 °C 19,2 °C 9,7 km/h (2 Bft)
24.08.2018 14:04 19,2 °C 75 % 1010,6 hPa 0,0 mm 6,2 km/h (2 Bft) W 264 ° 0 min 0,000 mm 1,9 UV-I 200 W/m² 14,7 °C 19,2 °C 9,7 km/h (2 Bft)
24.08.2018 14:05 19,2 °C 74 % 1010,6 hPa 0,0 mm 3,4 km/h (1 Bft) W 281 ° 0 min 0,000 mm 2,0 UV-I 214 W/m² 14,4 °C 19,2 °C 6,4 km/h (2 Bft)
24.08.2018 14:06 19,2 °C 75 % 1010,6 hPa 0,0 mm 2,2 km/h (1 Bft) W 272 ° 0 min 0,000 mm 2,0 UV-I 218 W/m² 14,7 °C 19,2 °C 4,8 km/h (1 Bft)
24.08.2018 14:07 19,3 °C 74 % 1010,5 hPa 0,0 mm 5,2 km/h (1 Bft) NW 312 ° 0 min 0,000 mm 2,1 UV-I 221 W/m² 14,5 °C 19,3 °C 14,5 km/h (3 Bft)
24.08.2018 14:08 19,3 °C 74 % 1010,5 hPa 0,0 mm 11,2 km/h (2 Bft) W-SW 257 ° 0 min 0,000 mm 2,1 UV-I 223 W/m² 14,5 °C 19,3 °C 14,5 km/h (3 Bft)
24.08.2018 14:09 19,3 °C 73 % 1010,6 hPa 0,0 mm 5,7 km/h (1 Bft) W 268 ° 0 min 0,000 mm 2,1 UV-I 227 W/m² 14,3 °C 19,3 °C 9,7 km/h (2 Bft)
24.08.2018 14:10 19,4 °C 74 % 1010,6 hPa 0,0 mm 5,8 km/h (2 Bft) W 274 ° 0 min 0,000 mm 2,1 UV-I 229 W/m² 14,6 °C 19,4 °C 12,9 km/h (3 Bft)
24.08.2018 14:11 19,4 °C 73 % 1010,6 hPa 0,0 mm 3,1 km/h (1 Bft) W 281 ° 0 min 0,000 mm 2,1 UV-I 230 W/m² 14,4 °C 19,4 °C 9,7 km/h (2 Bft)
24.08.2018 14:12 19,4 °C 74 % 1010,5 hPa 0,0 mm 3,1 km/h (1 Bft) W 273 ° 0 min 0,000 mm 2,1 UV-I 230 W/m² 14,6 °C 19,4 °C 4,8 km/h (1 Bft)
24.08.2018 14:13 19,5 °C 76 % 1010,5 hPa 0,0 mm 2,3 km/h (1 Bft) W-NW 286 ° 0 min 0,000 mm 2,1 UV-I 225 W/m² 15,2 °C 19,5 °C 4,8 km/h (1 Bft)
24.08.2018 14:14 19,6 °C 75 % 1010,5 hPa 0,0 mm 4,4 km/h (1 Bft) W 275 ° 0 min 0,000 mm 2,1 UV-I 225 W/m² 15,0 °C 19,6 °C 9,7 km/h (2 Bft)
24.08.2018 14:15 19,6 °C 74 % 1010,5 hPa 0,0 mm 1,9 km/h (1 Bft) W 274 ° 0 min 0,000 mm 2,2 UV-I 227 W/m² 14,8 °C 19,6 °C 4,8 km/h (1 Bft)
24.08.2018 14:16 19,6 °C 73 % 1010,5 hPa 0,0 mm 3,6 km/h (1 Bft) W 271 ° 0 min 0,000 mm 2,2 UV-I 234 W/m² 14,6 °C 19,6 °C 6,4 km/h (2 Bft)
24.08.2018 14:17 19,6 °C 74 % 1010,4 hPa 0,0 mm 4,6 km/h (1 Bft) W-SW 238 ° 0 min 0,000 mm 2,2 UV-I 239 W/m² 14,8 °C 19,6 °C 11,3 km/h (2 Bft)
24.08.2018 14:18 19,6 °C 73 % 1010,4 hPa 0,0 mm 8,0 km/h (2 Bft) NW 311 ° 0 min 0,000 mm 2,3 UV-I 248 W/m² 14,6 °C 19,6 °C 11,3 km/h (2 Bft)
24.08.2018 14:19 19,6 °C 73 % 1010,4 hPa 0,0 mm 10,3 km/h (2 Bft) W-SW 248 ° 0 min 0,000 mm 2,3 UV-I 258 W/m² 14,6 °C 19,6 °C 12,9 km/h (3 Bft)
24.08.2018 14:20 19,6 °C 72 % 1010,5 hPa 0,0 mm 6,6 km/h (2 Bft) S 183 ° 0 min 0,000 mm 2,4 UV-I 264 W/m² 14,4 °C 19,6 °C 11,3 km/h (2 Bft)
24.08.2018 14:21 19,6 °C 72 % 1010,5 hPa 0,0 mm 5,7 km/h (1 Bft) SW 216 ° 0 min 0,000 mm 2,5 UV-I 272 W/m² 14,4 °C 19,6 °C 11,3 km/h (2 Bft)
24.08.2018 14:22 19,6 °C 73 % 1010,4 hPa 0,0 mm 3,0 km/h (1 Bft) W 261 ° 0 min 0,000 mm 2,5 UV-I 281 W/m² 14,6 °C 19,6 °C 4,8 km/h (1 Bft)
24.08.2018 14:23 19,7 °C 73 % 1010,4 hPa 0,0 mm 8,5 km/h (2 Bft) W-NW 301 ° 0 min 0,000 mm 2,6 UV-I 292 W/m² 14,7 °C 19,7 °C 12,9 km/h (3 Bft)
24.08.2018 14:24 19,7 °C 73 % 1010,4 hPa 0,0 mm 7,9 km/h (2 Bft) W-NW 303 ° 0 min 0,000 mm 2,7 UV-I 301 W/m² 14,7 °C 19,7 °C 12,9 km/h (3 Bft)
24.08.2018 14:25 19,8 °C 72 % 1010,4 hPa 0,0 mm 10,6 km/h (2 Bft) W 278 ° 0 min 0,000 mm 2,7 UV-I 316 W/m² 14,6 °C 19,8 °C 12,9 km/h (3 Bft)
24.08.2018 14:26 19,8 °C 71 % 1010,4 hPa 0,0 mm 7,8 km/h (2 Bft) W-NW 286 ° 0 min 0,000 mm 2,8 UV-I 323 W/m² 14,4 °C 19,8 °C 12,9 km/h (3 Bft)
24.08.2018 14:27 19,8 °C 72 % 1010,4 hPa 0,0 mm 8,0 km/h (2 Bft) W 267 ° 0 min 0,000 mm 2,9 UV-I 329 W/m² 14,6 °C 19,8 °C 11,3 km/h (2 Bft)
24.08.2018 14:28 19,9 °C 72 % 1010,4 hPa 0,0 mm 6,2 km/h (2 Bft) W 273 ° 0 min 0,000 mm 3,0 UV-I 336 W/m² 14,7 °C 19,9 °C 11,3 km/h (2 Bft)
24.08.2018 14:29 19,9 °C 73 % 1010,4 hPa 0,0 mm 9,5 km/h (2 Bft) W-SW 254 ° 0 min 0,000 mm 3,1 UV-I 345 W/m² 14,9 °C 19,9 °C 12,9 km/h (3 Bft)
24.08.2018 14:30 20,0 °C 72 % 1010,3 hPa 0,0 mm 9,3 km/h (2 Bft) W-NW 290 ° 0 min 0,000 mm 3,2 UV-I 359 W/m² 14,8 °C 20,0 °C 12,9 km/h (3 Bft)
24.08.2018 14:31 20,0 °C 72 % 1010,4 hPa 0,0 mm 6,5 km/h (2 Bft) W-NW 301 ° 0 min 0,000 mm 3,3 UV-I 397 W/m² 14,8 °C 20,0 °C 14,5 km/h (3 Bft)
24.08.2018 14:32 20,1 °C 73 % 1010,3 hPa 0,0 mm 7,8 km/h (2 Bft) W 259 ° 0 min 0,000 mm 3,4 UV-I 392 W/m² 15,1 °C 20,1 °C 11,3 km/h (2 Bft)
24.08.2018 14:33 20,2 °C 72 % 1010,3 hPa 0,0 mm 8,2 km/h (2 Bft) W-SW 258 ° 0 min 0,000 mm 3,4 UV-I 399 W/m² 15,0 °C 20,2 °C 14,5 km/h (3 Bft)
24.08.2018 14:34 20,2 °C 70 % 1010,3 hPa 0,0 mm 11,1 km/h (2 Bft) W-NW 293 ° 0 min 0,000 mm 3,2 UV-I 380 W/m² 14,5 °C 20,2 °C 12,9 km/h (3 Bft)
24.08.2018 14:35 20,2 °C 70 % 1010,2 hPa 0,0 mm 10,8 km/h (2 Bft) W 263 ° 0 min 0,000 mm 3,1 UV-I 359 W/m² 14,5 °C 20,2 °C 14,5 km/h (3 Bft)
24.08.2018 14:36 20,2 °C 71 % 1010,2 hPa 0,0 mm 9,9 km/h (2 Bft) NW 310 ° 0 min 0,000 mm 3,1 UV-I 353 W/m² 14,8 °C 20,2 °C 17,7 km/h (3 Bft)
24.08.2018 14:37 20,2 °C 70 % 1010,3 hPa 0,0 mm 10,0 km/h (2 Bft) W-SW 250 ° 0 min 0,000 mm 3,1 UV-I 359 W/m² 14,5 °C 20,2 °C 17,7 km/h (3 Bft)
24.08.2018 14:38 20,2 °C 70 % 1010,3 hPa 0,0 mm 2,5 km/h (1 Bft) W-SW 252 ° 0 min 0,000 mm 3,0 UV-I 346 W/m² 14,5 °C 20,2 °C 4,8 km/h (1 Bft)
24.08.2018 14:39 20,3 °C 70 % 1010,2 hPa 0,0 mm 13,2 km/h (3 Bft) NW 321 ° 0 min 0,000 mm 3,0 UV-I 336 W/m² 14,6 °C 20,3 °C 19,3 km/h (3 Bft)
24.08.2018 14:40 20,3 °C 72 % 1010,2 hPa 0,0 mm 6,2 km/h (2 Bft) W-NW 292 ° 0 min 0,000 mm 2,9 UV-I 327 W/m² 15,1 °C 20,3 °C 11,3 km/h (2 Bft)
24.08.2018 14:41 20,3 °C 72 % 1010,2 hPa 0,0 mm 7,6 km/h (2 Bft) W-SW 250 ° 0 min 0,000 mm 2,9 UV-I 323 W/m² 15,1 °C 20,3 °C 11,3 km/h (2 Bft)
24.08.2018 14:42 20,4 °C 71 % 1010,1 hPa 0,0 mm 9,7 km/h (2 Bft) W 273 ° 0 min 0,000 mm 2,9 UV-I 327 W/m² 15,0 °C 20,4 °C 14,5 km/h (3 Bft)
24.08.2018 14:43 20,4 °C 71 % 1010,1 hPa 0,0 mm 11,1 km/h (2 Bft) W 276 ° 0 min 0,000 mm 2,9 UV-I 329 W/m² 15,0 °C 20,4 °C 17,7 km/h (3 Bft)
24.08.2018 14:44 20,3 °C 71 % 1010,1 hPa 0,0 mm 12,6 km/h (3 Bft) NW 306 ° 0 min 0,000 mm 2,9 UV-I 332 W/m² 14,9 °C 20,3 °C 17,7 km/h (3 Bft)
24.08.2018 14:45 20,3 °C 69 % 1010,1 hPa 0,0 mm 10,3 km/h (2 Bft) NW 317 ° 0 min 0,000 mm 2,9 UV-I 330 W/m² 14,4 °C 20,3 °C 14,5 km/h (3 Bft)
24.08.2018 14:46 20,3 °C 70 % 1010,1 hPa 0,0 mm 9,7 km/h (2 Bft) W-NW 300 ° 0 min 0,000 mm 2,9 UV-I 325 W/m² 14,6 °C 20,3 °C 16,1 km/h (3 Bft)
24.08.2018 14:47 20,3 °C 70 % 1010,1 hPa 0,0 mm 6,3 km/h (2 Bft) W-NW 286 ° 0 min 0,000 mm 2,8 UV-I 315 W/m² 14,6 °C 20,3 °C 9,7 km/h (2 Bft)
24.08.2018 14:48 20,2 °C 70 % 1010,1 hPa 0,0 mm 4,4 km/h (1 Bft) W-NW 290 ° 0 min 0,000 mm 2,7 UV-I 292 W/m² 14,5 °C 20,2 °C 8,0 km/h (2 Bft)
24.08.2018 14:49 20,3 °C 71 % 1010,0 hPa 0,0 mm 5,3 km/h (1 Bft) W 267 ° 0 min 0,000 mm 2,6 UV-I 294 W/m² 14,9 °C 20,3 °C 11,3 km/h (2 Bft)
24.08.2018 14:50 20,3 °C 72 % 1010,0 hPa 0,0 mm 3,6 km/h (1 Bft) W 259 ° 0 min 0,000 mm 2,7 UV-I 309 W/m² 15,1 °C 20,3 °C 6,4 km/h (2 Bft)
24.08.2018 14:51 20,4 °C 72 % 1010,0 hPa 0,0 mm 3,1 km/h (1 Bft) W-NW 286 ° 0 min 0,000 mm 2,8 UV-I 322 W/m² 15,2 °C 20,4 °C 6,4 km/h (2 Bft)
24.08.2018 14:52 20,5 °C 70 % 1010,0 hPa 0,0 mm 3,1 km/h (1 Bft) SW 234 ° 0 min 0,000 mm 2,9 UV-I 329 W/m² 14,8 °C 20,5 °C 6,4 km/h (2 Bft)
24.08.2018 14:53 20,6 °C 70 % 1010,0 hPa 0,0 mm 11,2 km/h (2 Bft) W 267 ° 0 min 0,000 mm 2,9 UV-I 336 W/m² 14,9 °C 20,6 °C 16,1 km/h (3 Bft)
24.08.2018 14:54 20,6 °C 69 % 1010,0 hPa 0,0 mm 8,1 km/h (2 Bft) W 281 ° 0 min 0,000 mm 3,0 UV-I 350 W/m² 14,7 °C 20,6 °C 11,3 km/h (2 Bft)
24.08.2018 14:55 20,5 °C 69 % 1010,0 hPa 0,0 mm 5,5 km/h (1 Bft) W-NW 283 ° 0 min 0,000 mm 3,1 UV-I 355 W/m² 14,6 °C 20,5 °C 11,3 km/h (2 Bft)
24.08.2018 14:56 20,5 °C 68 % 1010,0 hPa 0,0 mm 5,2 km/h (1 Bft) W-SW 256 ° 0 min 0,000 mm 3,1 UV-I 355 W/m² 14,4 °C 20,5 °C 9,7 km/h (2 Bft)
24.08.2018 14:57 20,5 °C 69 % 1009,9 hPa 0,0 mm 5,8 km/h (2 Bft) N-NW 334 ° 0 min 0,000 mm 3,1 UV-I 350 W/m² 14,6 °C 20,5 °C 9,7 km/h (2 Bft)
24.08.2018 14:58 20,6 °C 69 % 1009,9 hPa 0,0 mm 10,9 km/h (2 Bft) W-NW 302 ° 0 min 0,000 mm 3,0 UV-I 346 W/m² 14,7 °C 20,6 °C 17,7 km/h (3 Bft)
24.08.2018 14:59 20,6 °C 69 % 1009,9 hPa 0,0 mm 7,5 km/h (2 Bft) NW 314 ° 0 min 0,000 mm 3,0 UV-I 346 W/m² 14,7 °C 20,6 °C 14,5 km/h (3 Bft)
24.08.2018 15:00 20,6 °C 69 % 1009,9 hPa 0,0 mm 7,6 km/h (2 Bft) W 267 ° 0 min 0,204 mm 3,0 UV-I 355 W/m² 14,7 °C 20,6 °C 14,5 km/h (3 Bft)
24.08.2018 15:01 20,6 °C 68 % 1009,9 hPa 0,0 mm 10,6 km/h (2 Bft) W 278 ° 0 min 0,000 mm 3,4 UV-I 397 W/m² 14,5 °C 20,6 °C 12,9 km/h (3 Bft)
24.08.2018 15:02 20,6 °C 70 % 1009,9 hPa 0,0 mm 8,9 km/h (2 Bft) W-NW 293 ° 0 min 0,000 mm 3,1 UV-I 376 W/m² 14,9 °C 20,6 °C 14,5 km/h (3 Bft)
24.08.2018 15:03 20,6 °C 69 % 1009,9 hPa 0,0 mm 11,5 km/h (2 Bft) W 261 ° 0 min 0,000 mm 3,1 UV-I 376 W/m² 14,7 °C 20,6 °C 16,1 km/h (3 Bft)
24.08.2018 15:04 20,6 °C 69 % 1009,9 hPa 0,0 mm 7,7 km/h (2 Bft) W-NW 301 ° 0 min 0,000 mm 3,1 UV-I 366 W/m² 14,7 °C 20,6 °C 11,3 km/h (2 Bft)
24.08.2018 15:05 20,7 °C 70 % 1009,9 hPa 0,0 mm 9,5 km/h (2 Bft) W 261 ° 0 min 0,000 mm 3,0 UV-I 352 W/m² 15,0 °C 20,7 °C 14,5 km/h (3 Bft)
24.08.2018 15:06 20,7 °C 68 % 1009,9 hPa 0,0 mm 13,1 km/h (3 Bft) W 265 ° 0 min 0,000 mm 2,9 UV-I 322 W/m² 14,6 °C 20,7 °C 17,7 km/h (3 Bft)
24.08.2018 15:07 20,6 °C 67 % 1009,9 hPa 0,0 mm 7,5 km/h (2 Bft) W-NW 300 ° 0 min 0,000 mm 2,8 UV-I 316 W/m² 14,3 °C 20,6 °C 11,3 km/h (2 Bft)
24.08.2018 15:08 20,6 °C 68 % 1009,9 hPa 0,0 mm 5,4 km/h (1 Bft) NW 306 ° 0 min 0,000 mm 2,8 UV-I 323 W/m² 14,5 °C 20,6 °C 8,0 km/h (2 Bft)
24.08.2018 15:09 20,7 °C 70 % 1009,8 hPa 0,0 mm 4,5 km/h (1 Bft) N-NW 334 ° 0 min 0,000 mm 2,9 UV-I 334 W/m² 15,0 °C 20,7 °C 6,4 km/h (2 Bft)
24.08.2018 15:10 20,8 °C 69 % 1009,8 hPa 0,0 mm 5,0 km/h (1 Bft) W 269 ° 0 min 0,000 mm 3,0 UV-I 355 W/m² 14,9 °C 20,8 °C 11,3 km/h (2 Bft)
24.08.2018 15:11 20,8 °C 69 % 1009,9 hPa 0,0 mm 6,9 km/h (2 Bft) W-NW 285 ° 0 min 0,000 mm 3,2 UV-I 385 W/m² 14,9 °C 20,8 °C 11,3 km/h (2 Bft)
24.08.2018 15:12 20,8 °C 68 % 1009,9 hPa 0,0 mm 13,3 km/h (3 Bft) W 265 ° 0 min 0,000 mm 3,3 UV-I 387 W/m² 14,7 °C 20,8 °C 16,1 km/h (3 Bft)
24.08.2018 15:13 20,8 °C 68 % 1009,9 hPa 0,0 mm 9,2 km/h (2 Bft) W-NW 298 ° 0 min 0,000 mm 3,3 UV-I 401 W/m² 14,7 °C 20,8 °C 14,5 km/h (3 Bft)
24.08.2018 15:14 20,8 °C 68 % 1009,9 hPa 0,0 mm 10,1 km/h (2 Bft) W-NW 301 ° 0 min 0,000 mm 3,4 UV-I 404 W/m² 14,7 °C 20,8 °C 16,1 km/h (3 Bft)
24.08.2018 15:15 20,8 °C 67 % 1009,9 hPa 0,0 mm 17,7 km/h (3 Bft) NW 308 ° 0 min 0,000 mm 4,0 UV-I 478 W/m² 14,4 °C 20,8 °C 25,7 km/h (4 Bft)
24.08.2018 15:16 20,8 °C 68 % 1009,9 hPa 0,0 mm 9,6 km/h (2 Bft) NW 314 ° 0 min 0,000 mm 3,6 UV-I 457 W/m² 14,7 °C 20,8 °C 16,1 km/h (3 Bft)
24.08.2018 15:17 20,8 °C 67 % 1009,9 hPa 0,0 mm 8,2 km/h (2 Bft) W-NW 298 ° 0 min 0,000 mm 3,8 UV-I 489 W/m² 14,4 °C 20,8 °C 11,3 km/h (2 Bft)
24.08.2018 15:18 20,9 °C 68 % 1009,9 hPa 0,0 mm 8,5 km/h (2 Bft) W 268 ° 0 min 0,000 mm 3,8 UV-I 489 W/m² 14,8 °C 20,9 °C 14,5 km/h (3 Bft)
24.08.2018 15:19 20,9 °C 67 % 1009,9 hPa 0,0 mm 10,3 km/h (2 Bft) W 265 ° 1 min 0,000 mm 5,4 UV-I 918 W/m² 14,5 °C 20,9 °C 17,7 km/h (3 Bft)
24.08.2018 15:20 21,0 °C 67 % 1009,8 hPa 0,0 mm 8,5 km/h (2 Bft) NW 320 ° 1 min 0,000 mm 4,0 UV-I 918 W/m² 14,6 °C 21,0 °C 14,5 km/h (3 Bft)
24.08.2018 15:21 21,1 °C 67 % 1009,8 hPa 0,0 mm 7,9 km/h (2 Bft) NW 308 ° 1 min 0,000 mm 3,5 UV-I 918 W/m² 14,7 °C 21,1 °C 14,5 km/h (3 Bft)
24.08.2018 15:22 21,2 °C 67 % 1009,8 hPa 0,0 mm 12,2 km/h (2 Bft) NW 317 ° 0 min 0,000 mm 3,3 UV-I 396 W/m² 14,8 °C 21,2 °C 19,3 km/h (3 Bft)
24.08.2018 15:23 21,2 °C 68 % 1009,8 hPa 0,0 mm 13,3 km/h (3 Bft) NW 320 ° 0 min 0,000 mm 3,8 UV-I 425 W/m² 15,1 °C 21,2 °C 17,7 km/h (3 Bft)
24.08.2018 15:24 21,2 °C 68 % 1009,8 hPa 0,0 mm 8,6 km/h (2 Bft) W-NW 294 ° 0 min 0,000 mm 3,1 UV-I 369 W/m² 15,1 °C 21,2 °C 16,1 km/h (3 Bft)
24.08.2018 15:25 21,2 °C 67 % 1009,8 hPa 0,0 mm 6,6 km/h (2 Bft) NW 317 ° 0 min 0,000 mm 2,9 UV-I 339 W/m² 14,8 °C 21,2 °C 12,9 km/h (3 Bft)
24.08.2018 15:26 21,1 °C 67 % 1009,8 hPa 0,0 mm 4,9 km/h (1 Bft) W-NW 286 ° 0 min 0,000 mm 2,7 UV-I 308 W/m² 14,7 °C 21,1 °C 9,7 km/h (2 Bft)
24.08.2018 15:27 21,1 °C 66 % 1009,7 hPa 0,0 mm 3,5 km/h (1 Bft) W-SW 246 ° 0 min 0,000 mm 2,4 UV-I 260 W/m² 14,5 °C 21,1 °C 8,0 km/h (2 Bft)
24.08.2018 15:28 21,1 °C 69 % 1009,7 hPa 0,0 mm 9,6 km/h (2 Bft) W-NW 301 ° 0 min 0,000 mm 2,2 UV-I 241 W/m² 15,2 °C 21,1 °C 22,5 km/h (4 Bft)
24.08.2018 15:29 21,1 °C 68 % 1009,8 hPa 0,0 mm 11,7 km/h (2 Bft) NW 305 ° 0 min 0,000 mm 2,2 UV-I 257 W/m² 15,0 °C 21,1 °C 17,7 km/h (3 Bft)
24.08.2018 15:30 21,1 °C 66 % 1009,8 hPa 0,0 mm 4,9 km/h (1 Bft) NW 324 ° 0 min 0,000 mm 2,3 UV-I 265 W/m² 14,5 °C 21,1 °C 6,4 km/h (2 Bft)
24.08.2018 15:31 21,1 °C 66 % 1009,8 hPa 0,0 mm 1,9 km/h (1 Bft) W 261 ° 0 min 0,000 mm 2,4 UV-I 288 W/m² 14,5 °C 21,1 °C 4,8 km/h (1 Bft)
24.08.2018 15:32 21,1 °C 68 % 1009,7 hPa 0,0 mm 4,8 km/h (1 Bft) W-SW 247 ° 0 min 0,000 mm 2,6 UV-I 325 W/m² 15,0 °C 21,1 °C 6,4 km/h (2 Bft)
24.08.2018 15:33 21,1 °C 68 % 1009,6 hPa 0,0 mm 8,1 km/h (2 Bft) S-SW 210 ° 0 min 0,000 mm 2,7 UV-I 329 W/m² 15,0 °C 21,1 °C 14,5 km/h (3 Bft)
24.08.2018 15:34 21,2 °C 67 % 1009,6 hPa 0,0 mm 5,3 km/h (1 Bft) S-SO 167 ° 0 min 0,000 mm 2,8 UV-I 345 W/m² 14,8 °C 21,2 °C 8,0 km/h (2 Bft)
24.08.2018 15:35 21,2 °C 69 % 1009,6 hPa 0,0 mm 6,4 km/h (2 Bft) W 261 ° 0 min 0,000 mm 2,7 UV-I 318 W/m² 15,3 °C 21,2 °C 11,3 km/h (2 Bft)
24.08.2018 15:36 21,2 °C 67 % 1009,5 hPa 0,0 mm 10,3 km/h (2 Bft) W-NW 299 ° 0 min 0,000 mm 2,6 UV-I 308 W/m² 14,8 °C 21,2 °C 17,7 km/h (3 Bft)
24.08.2018 15:37 21,1 °C 66 % 1009,6 hPa 0,0 mm 9,4 km/h (2 Bft) W-NW 291 ° 0 min 0,000 mm 2,6 UV-I 302 W/m² 14,5 °C 21,1 °C 14,5 km/h (3 Bft)
24.08.2018 15:38 21,1 °C 67 % 1009,6 hPa 0,0 mm 5,4 km/h (1 Bft) NW 304 ° 0 min 0,000 mm 2,6 UV-I 304 W/m² 14,7 °C 21,1 °C 9,7 km/h (2 Bft)
24.08.2018 15:39 21,2 °C 68 % 1009,6 hPa 0,0 mm 4,2 km/h (1 Bft) W 275 ° 0 min 0,000 mm 2,6 UV-I 306 W/m² 15,1 °C 21,2 °C 6,4 km/h (2 Bft)
24.08.2018 15:40 21,3 °C 69 % 1009,6 hPa 0,0 mm 5,6 km/h (1 Bft) W-NW 282 ° 0 min 0,000 mm 2,7 UV-I 327 W/m² 15,4 °C 21,3 °C 9,7 km/h (2 Bft)
24.08.2018 15:41 21,3 °C 69 % 1009,6 hPa 0,0 mm 6,9 km/h (2 Bft) W 266 ° 0 min 0,000 mm 2,8 UV-I 345 W/m² 15,4 °C 21,3 °C 16,1 km/h (3 Bft)
24.08.2018 15:42 21,3 °C 65 % 1009,5 hPa 0,0 mm 13,3 km/h (3 Bft) W-NW 294 ° 0 min 0,000 mm 2,6 UV-I 345 W/m² 14,4 °C 21,3 °C 16,1 km/h (3 Bft)
24.08.2018 15:43 21,3 °C 64 % 1009,5 hPa 0,0 mm 8,6 km/h (2 Bft) N-NW 332 ° 0 min 0,000 mm 2,6 UV-I 302 W/m² 14,2 °C 21,3 °C 12,9 km/h (3 Bft)
24.08.2018 15:44 21,4 °C 65 % 1009,6 hPa 0,0 mm 6,3 km/h (2 Bft) NW 317 ° 0 min 0,000 mm 2,6 UV-I 306 W/m² 14,5 °C 21,4 °C 12,9 km/h (3 Bft)
24.08.2018 15:45 21,4 °C 65 % 1009,5 hPa 0,0 mm 5,0 km/h (1 Bft) W-NW 288 ° 0 min 0,000 mm 2,5 UV-I 311 W/m² 14,5 °C 21,4 °C 8,0 km/h (2 Bft)
24.08.2018 15:46 21,4 °C 65 % 1009,5 hPa 0,0 mm 8,7 km/h (2 Bft) N-NW 327 ° 0 min 0,000 mm 2,5 UV-I 316 W/m² 14,5 °C 21,4 °C 12,9 km/h (3 Bft)
24.08.2018 15:47 21,4 °C 65 % 1009,5 hPa 0,0 mm 10,5 km/h (2 Bft) W 271 ° 0 min 0,000 mm 2,6 UV-I 343 W/m² 14,5 °C 21,4 °C 19,3 km/h (3 Bft)
24.08.2018 15:48 21,4 °C 65 % 1009,5 hPa 0,0 mm 12,3 km/h (3 Bft) W 264 ° 0 min 0,000 mm 3,1 UV-I 343 W/m² 14,5 °C 21,4 °C 17,7 km/h (3 Bft)
24.08.2018 15:49 21,4 °C 64 % 1009,5 hPa 0,0 mm 14,6 km/h (3 Bft) W 268 ° 0 min 0,000 mm 3,4 UV-I 492 W/m² 14,3 °C 21,4 °C 20,9 km/h (4 Bft)
24.08.2018 15:50 21,4 °C 66 % 1009,5 hPa 0,0 mm 6,4 km/h (2 Bft) W-NW 290 ° 0 min 0,000 mm 3,1 UV-I 436 W/m² 14,8 °C 21,4 °C 11,3 km/h (2 Bft)
24.08.2018 15:51 21,4 °C 65 % 1009,5 hPa 0,0 mm 10,2 km/h (2 Bft) W-NW 287 ° 0 min 0,000 mm 3,0 UV-I 396 W/m² 14,5 °C 21,4 °C 16,1 km/h (3 Bft)
24.08.2018 15:52 21,5 °C 66 % 1009,4 hPa 0,0 mm 6,4 km/h (2 Bft) S 176 ° 0 min 0,000 mm 2,9 UV-I 439 W/m² 14,9 °C 21,5 °C 14,5 km/h (3 Bft)
24.08.2018 15:53 21,6 °C 65 % 1009,4 hPa 0,0 mm 3,1 km/h (1 Bft) W 278 ° 0 min 0,000 mm 2,9 UV-I 357 W/m² 14,7 °C 21,6 °C 4,8 km/h (1 Bft)
24.08.2018 15:54 21,6 °C 64 % 1009,5 hPa 0,0 mm 2,5 km/h (1 Bft) N-NW 329 ° 0 min 0,000 mm 2,4 UV-I 323 W/m² 14,5 °C 21,6 °C 6,4 km/h (2 Bft)
24.08.2018 15:55 21,7 °C 65 % 1009,4 hPa 0,0 mm 6,4 km/h (2 Bft) W-NW 298 ° 0 min 0,000 mm 2,3 UV-I 297 W/m² 14,8 °C 21,7 °C 11,3 km/h (2 Bft)
24.08.2018 15:56 21,7 °C 65 % 1009,4 hPa 0,0 mm 9,9 km/h (2 Bft) W-NW 286 ° 0 min 0,000 mm 2,2 UV-I 288 W/m² 14,8 °C 21,7 °C 16,1 km/h (3 Bft)
24.08.2018 15:57 21,7 °C 65 % 1009,4 hPa 0,0 mm 7,3 km/h (2 Bft) W-NW 298 ° 0 min 0,000 mm 2,1 UV-I 272 W/m² 14,8 °C 21,7 °C 11,3 km/h (2 Bft)
24.08.2018 15:58 21,7 °C 63 % 1009,4 hPa 0,0 mm 4,3 km/h (1 Bft) NW 321 ° 0 min 0,000 mm 2,1 UV-I 281 W/m² 14,3 °C 21,7 °C 6,4 km/h (2 Bft)
24.08.2018 15:59 21,6 °C 63 % 1009,3 hPa 0,0 mm 5,2 km/h (1 Bft) W-NW 290 ° 0 min 0,000 mm 2,3 UV-I 308 W/m² 14,2 °C 21,6 °C 9,7 km/h (2 Bft)
24.08.2018 16:00 21,5 °C 63 % 1009,3 hPa 0,0 mm 7,5 km/h (2 Bft) N 360 ° 0 min 0,000 mm 2,3 UV-I 304 W/m² 14,2 °C 21,5 °C 11,3 km/h (2 Bft)
24.08.2018 16:01 21,5 °C 66 % 1009,3 hPa 0,0 mm 8,2 km/h (2 Bft) NW 313 ° 0 min 0,254 mm 2,4 UV-I 309 W/m² 14,9 °C 21,5 °C 12,9 km/h (3 Bft)
24.08.2018 16:02 21,4 °C 65 % 1009,4 hPa 0,0 mm 5,4 km/h (1 Bft) NW 326 ° 0 min 0,000 mm 2,5 UV-I 336 W/m² 14,5 °C 21,4 °C 8,0 km/h (2 Bft)
24.08.2018 16:03 21,4 °C 66 % 1009,4 hPa 0,0 mm 6,1 km/h (2 Bft) W-NW 292 ° 0 min 0,000 mm 3,1 UV-I 381 W/m² 14,8 °C 21,4 °C 11,3 km/h (2 Bft)
24.08.2018 16:04 21,4 °C 66 % 1009,4 hPa 0,0 mm 4,1 km/h (1 Bft) W-NW 286 ° 0 min 0,000 mm 2,5 UV-I 308 W/m² 14,8 °C 21,4 °C 11,3 km/h (2 Bft)
24.08.2018 16:05 21,4 °C 66 % 1009,3 hPa 0,0 mm 7,6 km/h (2 Bft) W 275 ° 0 min 0,000 mm 2,6 UV-I 308 W/m² 14,8 °C 21,4 °C 14,5 km/h (3 Bft)
24.08.2018 16:06 21,6 °C 67 % 1009,3 hPa 0,0 mm 12,7 km/h (3 Bft) NW 310 ° 1 min 0,000 mm 3,5 UV-I 789 W/m² 15,2 °C 21,6 °C 19,3 km/h (3 Bft)
24.08.2018 16:07 21,7 °C 64 % 1009,3 hPa 0,0 mm 11,2 km/h (2 Bft) NW 306 ° 1 min 0,000 mm 3,9 UV-I 788 W/m² 14,6 °C 21,7 °C 16,1 km/h (3 Bft)
24.08.2018 16:08 21,8 °C 67 % 1009,2 hPa 0,0 mm 9,4 km/h (2 Bft) W 262 ° 1 min 0,000 mm 4,0 UV-I 782 W/m² 15,4 °C 21,8 °C 12,9 km/h (3 Bft)
24.08.2018 16:09 21,9 °C 64 % 1009,2 hPa 0,0 mm 12,5 km/h (3 Bft) W-NW 292 ° 1 min 0,000 mm 4,0 UV-I 777 W/m² 14,8 °C 21,9 °C 20,9 km/h (4 Bft)
24.08.2018 16:10 22,0 °C 62 % 1009,3 hPa 0,0 mm 10,6 km/h (2 Bft) W-SW 253 ° 1 min 0,000 mm 4,1 UV-I 752 W/m² 14,4 °C 22,0 °C 17,7 km/h (3 Bft)
24.08.2018 16:11 22,1 °C 63 % 1009,2 hPa 0,0 mm 17,6 km/h (3 Bft) W-SW 249 ° 1 min 0,000 mm 4,0 UV-I 735 W/m² 14,7 °C 22,1 °C 25,7 km/h (4 Bft)
24.08.2018 16:12 22,1 °C 63 % 1009,2 hPa 0,0 mm 12,6 km/h (3 Bft) W 279 ° 1 min 0,000 mm 4,0 UV-I 719 W/m² 14,7 °C 22,1 °C 24,1 km/h (4 Bft)
24.08.2018 16:13 22,1 °C 62 % 1009,2 hPa 0,0 mm 13,7 km/h (3 Bft) W 277 ° 1 min 0,000 mm 3,8 UV-I 719 W/m² 14,5 °C 22,1 °C 19,3 km/h (3 Bft)
24.08.2018 16:14 22,1 °C 64 % 1009,3 hPa 0,0 mm 11,5 km/h (2 Bft) W 266 ° 1 min 0,000 mm 3,9 UV-I 719 W/m² 15,0 °C 22,1 °C 19,3 km/h (3 Bft)
24.08.2018 16:15 22,0 °C 63 % 1009,3 hPa 0,0 mm 12,7 km/h (3 Bft) W-NW 282 ° 1 min 0,000 mm 2,6 UV-I 719 W/m² 14,6 °C 22,0 °C 19,3 km/h (3 Bft)
24.08.2018 16:16 21,9 °C 64 % 1009,2 hPa 0,0 mm 15,9 km/h (3 Bft) W-NW 302 ° 0 min 0,000 mm 2,4 UV-I 223 W/m² 14,8 °C 21,9 °C 24,1 km/h (4 Bft)
24.08.2018 16:17 21,8 °C 62 % 1009,3 hPa 0,0 mm 12,3 km/h (3 Bft) NW 306 ° 0 min 0,000 mm 2,3 UV-I 220 W/m² 14,2 °C 21,8 °C 16,1 km/h (3 Bft)
24.08.2018 16:18 21,7 °C 63 % 1009,2 hPa 0,0 mm 10,2 km/h (2 Bft) NW 319 ° 0 min 0,000 mm 2,6 UV-I 276 W/m² 14,3 °C 21,7 °C 17,7 km/h (3 Bft)
24.08.2018 16:19 21,6 °C 65 % 1009,3 hPa 0,0 mm 11,7 km/h (2 Bft) NW 319 ° 0 min 0,000 mm 2,6 UV-I 276 W/m² 14,7 °C 21,6 °C 17,7 km/h (3 Bft)
24.08.2018 16:20 21,5 °C 65 % 1009,3 hPa 0,0 mm 16,2 km/h (3 Bft) NW 315 ° 0 min 0,000 mm 2,6 UV-I 276 W/m² 14,6 °C 21,5 °C 20,9 km/h (4 Bft)
24.08.2018 16:21 21,5 °C 65 % 1009,3 hPa 0,0 mm 12,8 km/h (3 Bft) W 269 ° 0 min 0,000 mm 2,7 UV-I 367 W/m² 14,6 °C 21,5 °C 20,9 km/h (4 Bft)
24.08.2018 16:22 21,5 °C 64 % 1009,3 hPa 0,0 mm 9,6 km/h (2 Bft) NW 309 ° 0 min 0,000 mm 2,6 UV-I 239 W/m² 14,4 °C 21,5 °C 16,1 km/h (3 Bft)
24.08.2018 16:23 21,5 °C 65 % 1009,2 hPa 0,0 mm 10,0 km/h (2 Bft) W-NW 290 ° 0 min 0,000 mm 2,2 UV-I 207 W/m² 14,6 °C 21,5 °C 14,5 km/h (3 Bft)
24.08.2018 16:24 21,5 °C 65 % 1009,2 hPa 0,0 mm 10,5 km/h (2 Bft) W-NW 291 ° 0 min 0,000 mm 2,1 UV-I 181 W/m² 14,6 °C 21,5 °C 17,7 km/h (3 Bft)
24.08.2018 16:25 21,4 °C 64 % 1009,2 hPa 0,0 mm 11,1 km/h (2 Bft) W-SW 254 ° 0 min 0,000 mm 1,9 UV-I 163 W/m² 14,3 °C 21,4 °C 17,7 km/h (3 Bft)
24.08.2018 16:26 21,3 °C 64 % 1009,2 hPa 0,0 mm 11,5 km/h (2 Bft) W-NW 291 ° 0 min 0,000 mm 1,7 UV-I 148 W/m² 14,2 °C 21,3 °C 14,5 km/h (3 Bft)
24.08.2018 16:27 21,3 °C 65 % 1009,1 hPa 0,0 mm 6,6 km/h (2 Bft) W 279 ° 0 min 0,000 mm 1,5 UV-I 137 W/m² 14,4 °C 21,3 °C 16,1 km/h (3 Bft)
24.08.2018 16:28 21,2 °C 65 % 1009,2 hPa 0,0 mm 9,2 km/h (2 Bft) W-NW 300 ° 0 min 0,000 mm 1,4 UV-I 141 W/m² 14,4 °C 21,2 °C 19,3 km/h (3 Bft)
24.08.2018 16:29 21,1 °C 66 % 1009,1 hPa 0,0 mm 8,9 km/h (2 Bft) NW 310 ° 0 min 0,000 mm 1,2 UV-I 134 W/m² 14,5 °C 21,1 °C 14,5 km/h (3 Bft)
24.08.2018 16:30 21,1 °C 66 % 1009,1 hPa 0,0 mm 9,8 km/h (2 Bft) NW 326 ° 0 min 0,000 mm 1,2 UV-I 132 W/m² 14,5 °C 21,1 °C 14,5 km/h (3 Bft)
24.08.2018 16:31 21,0 °C 66 % 1009,1 hPa 0,0 mm 9,7 km/h (2 Bft) NW 304 ° 0 min 0,000 mm 1,1 UV-I 137 W/m² 14,4 °C 21,0 °C 19,3 km/h (3 Bft)
24.08.2018 16:32 20,9 °C 66 % 1009,2 hPa 0,0 mm 11,3 km/h (2 Bft) W 268 ° 0 min 0,000 mm 1,1 UV-I 141 W/m² 14,3 °C 20,9 °C 17,7 km/h (3 Bft)
24.08.2018 16:33 20,8 °C 65 % 1009,2 hPa 0,0 mm 12,2 km/h (2 Bft) W-NW 291 ° 0 min 0,000 mm 1,1 UV-I 151 W/m² 14,0 °C 20,8 °C 19,3 km/h (3 Bft)
24.08.2018 16:34 20,8 °C 65 % 1009,1 hPa 0,0 mm 13,4 km/h (3 Bft) W-NW 288 ° 0 min 0,000 mm 1,2 UV-I 156 W/m² 14,0 °C 20,8 °C 25,7 km/h (4 Bft)
24.08.2018 16:35 20,8 °C 66 % 1009,1 hPa 0,0 mm 7,0 km/h (2 Bft) W 265 ° 0 min 0,000 mm 1,2 UV-I 160 W/m² 14,2 °C 20,8 °C 12,9 km/h (3 Bft)
24.08.2018 16:36 20,8 °C 66 % 1009,2 hPa 0,0 mm 10,2 km/h (2 Bft) W-SW 252 ° 0 min 0,000 mm 1,2 UV-I 167 W/m² 14,2 °C 20,8 °C 20,9 km/h (4 Bft)
24.08.2018 16:37 20,8 °C 64 % 1009,1 hPa 0,0 mm 16,9 km/h (3 Bft) W-NW 293 ° 0 min 0,000 mm 1,3 UV-I 181 W/m² 13,7 °C 20,8 °C 20,9 km/h (4 Bft)
24.08.2018 16:38 20,8 °C 66 % 1009,2 hPa 0,0 mm 13,1 km/h (3 Bft) W-NW 296 ° 0 min 0,000 mm 1,4 UV-I 200 W/m² 14,2 °C 20,8 °C 19,3 km/h (3 Bft)
24.08.2018 16:39 20,8 °C 67 % 1009,2 hPa 0,0 mm 8,6 km/h (2 Bft) NW 306 ° 0 min 0,000 mm 1,6 UV-I 239 W/m² 14,4 °C 20,8 °C 14,5 km/h (3 Bft)
24.08.2018 16:40 20,9 °C 65 % 1009,2 hPa 0,0 mm 12,1 km/h (2 Bft) W-NW 285 ° 0 min 0,000 mm 1,8 UV-I 272 W/m² 14,1 °C 20,9 °C 29,0 km/h (5 Bft)
24.08.2018 16:41 21,0 °C 64 % 1009,2 hPa 0,0 mm 7,7 km/h (2 Bft) NW 319 ° 0 min 0,000 mm 1,9 UV-I 272 W/m² 13,9 °C 21,0 °C 14,5 km/h (3 Bft)
24.08.2018 16:42 21,1 °C 65 % 1009,2 hPa 0,0 mm 10,9 km/h (2 Bft) W-NW 298 ° 0 min 0,000 mm 1,9 UV-I 267 W/m² 14,3 °C 21,1 °C 19,3 km/h (3 Bft)
24.08.2018 16:43 21,2 °C 66 % 1009,2 hPa 0,0 mm 7,5 km/h (2 Bft) N 350 ° 0 min 0,000 mm 1,9 UV-I 267 W/m² 14,6 °C 21,2 °C 20,9 km/h (4 Bft)
24.08.2018 16:44 21,2 °C 66 % 1009,2 hPa 0,0 mm 6,4 km/h (2 Bft) W-NW 282 ° 0 min 0,000 mm 1,8 UV-I 253 W/m² 14,6 °C 21,2 °C 12,9 km/h (3 Bft)
24.08.2018 16:45 21,3 °C 65 % 1009,2 hPa 0,0 mm 11,3 km/h (2 Bft) W 261 ° 0 min 0,000 mm 1,7 UV-I 209 W/m² 14,4 °C 21,3 °C 22,5 km/h (4 Bft)
24.08.2018 16:46 21,2 °C 63 % 1009,2 hPa 0,0 mm 14,1 km/h (3 Bft) W-SW 247 ° 0 min 0,000 mm 1,4 UV-I 190 W/m² 13,9 °C 21,2 °C 19,3 km/h (3 Bft)
24.08.2018 16:47 21,1 °C 63 % 1009,2 hPa 0,0 mm 9,8 km/h (2 Bft) NW 306 ° 0 min 0,000 mm 1,3 UV-I 169 W/m² 13,8 °C 21,1 °C 16,1 km/h (3 Bft)
24.08.2018 16:48 21,1 °C 64 % 1009,2 hPa 0,0 mm 7,4 km/h (2 Bft) NW 319 ° 0 min 0,000 mm 1,2 UV-I 151 W/m² 14,0 °C 21,1 °C 9,7 km/h (2 Bft)
24.08.2018 16:49 20,9 °C 66 % 1009,2 hPa 0,0 mm 8,7 km/h (2 Bft) W-NW 292 ° 0 min 0,000 mm 1,1 UV-I 134 W/m² 14,3 °C 20,9 °C 16,1 km/h (3 Bft)
24.08.2018 16:50 20,8 °C 64 % 1009,2 hPa 0,0 mm 13,6 km/h (3 Bft) W 259 ° 0 min 0,000 mm 1,0 UV-I 121 W/m² 13,7 °C 20,8 °C 16,1 km/h (3 Bft)
24.08.2018 16:51 20,7 °C 64 % 1009,1 hPa 0,0 mm 10,5 km/h (2 Bft) W-NW 290 ° 0 min 0,000 mm 0,9 UV-I 102 W/m² 13,6 °C 20,7 °C 17,7 km/h (3 Bft)
24.08.2018 16:52 20,7 °C 65 % 1009,2 hPa 0,0 mm 8,7 km/h (2 Bft) NW 305 ° 0 min 0,000 mm 0,8 UV-I 97 W/m² 13,9 °C 20,7 °C 17,7 km/h (3 Bft)
24.08.2018 16:53 20,6 °C 65 % 1009,1 hPa 0,0 mm 7,7 km/h (2 Bft) W 279 ° 0 min 0,000 mm 0,7 UV-I 93 W/m² 13,8 °C 20,6 °C 16,1 km/h (3 Bft)
24.08.2018 16:54 20,5 °C 66 % 1009,1 hPa 0,0 mm 9,7 km/h (2 Bft) W-NW 294 ° 0 min 0,000 mm 0,7 UV-I 93 W/m² 13,9 °C 20,5 °C 12,9 km/h (3 Bft)
24.08.2018 16:55 20,4 °C 65 % 1009,1 hPa 0,0 mm 6,6 km/h (2 Bft) W 278 ° 0 min 0,000 mm 0,7 UV-I 91 W/m² 13,6 °C 20,4 °C 11,3 km/h (2 Bft)
24.08.2018 16:56 20,4 °C 67 % 1009,1 hPa 0,0 mm 7,5 km/h (2 Bft) W-SW 258 ° 0 min 0,000 mm 0,7 UV-I 88 W/m² 14,1 °C 20,4 °C 11,3 km/h (2 Bft)
24.08.2018 16:57 20,3 °C 66 % 1009,1 hPa 0,0 mm 3,1 km/h (1 Bft) W-NW 289 ° 0 min 0,000 mm 0,6 UV-I 79 W/m² 13,7 °C 20,3 °C 6,4 km/h (2 Bft)
24.08.2018 16:58 20,3 °C 66 % 1009,1 hPa 0,0 mm 2,7 km/h (1 Bft) W-NW 291 ° 0 min 0,000 mm 0,6 UV-I 76 W/m² 13,7 °C 20,3 °C 4,8 km/h (1 Bft)
24.08.2018 16:59 20,3 °C 66 % 1009,1 hPa 0,0 mm 4,8 km/h (1 Bft) W-NW 285 ° 0 min 0,000 mm 0,6 UV-I 74 W/m² 13,7 °C 20,3 °C 6,4 km/h (2 Bft)
24.08.2018 17:00 20,2 °C 67 % 1009,1 hPa 0,0 mm 7,2 km/h (2 Bft) W-NW 289 ° 0 min 0,228 mm 0,5 UV-I 70 W/m² 13,9 °C 20,2 °C 16,1 km/h (3 Bft)
24.08.2018 17:01 20,2 °C 67 % 1009,1 hPa 0,0 mm 9,4 km/h (2 Bft) W-NW 290 ° 0 min 0,000 mm 0,5 UV-I 65 W/m² 13,9 °C 20,2 °C 16,1 km/h (3 Bft)
24.08.2018 17:02 20,2 °C 67 % 1009,1 hPa 0,0 mm 6,1 km/h (2 Bft) W-NW 303 ° 0 min 0,000 mm 0,0 UV-I 60 W/m² 13,9 °C 20,2 °C 11,3 km/h (2 Bft)
24.08.2018 17:03 20,1 °C 68 % 1009,1 hPa 0,0 mm 5,1 km/h (1 Bft) W 276 ° 0 min 0,000 mm 0,0 UV-I 46 W/m² 14,0 °C 20,1 °C 6,4 km/h (2 Bft)
24.08.2018 17:04 20,1 °C 67 % 1009,1 hPa 0,0 mm 9,7 km/h (2 Bft) W-NW 301 ° 0 min 0,000 mm 0,0 UV-I 42 W/m² 13,8 °C 20,1 °C 17,7 km/h (3 Bft)
24.08.2018 17:05 20,1 °C 67 % 1009,2 hPa 0,0 mm 11,2 km/h (2 Bft) W 262 ° 0 min 0,000 mm 0,0 UV-I 39 W/m² 13,8 °C 20,1 °C 17,7 km/h (3 Bft)
24.08.2018 17:06 20,0 °C 67 % 1009,1 hPa 0,0 mm 7,9 km/h (2 Bft) W-NW 286 ° 0 min 0,000 mm 0,0 UV-I 37 W/m² 13,7 °C 20,0 °C 14,5 km/h (3 Bft)
24.08.2018 17:07 20,0 °C 68 % 1009,2 hPa 0,0 mm 7,3 km/h (2 Bft) W-NW 286 ° 0 min 0,000 mm 0,0 UV-I 39 W/m² 13,9 °C 20,0 °C 12,9 km/h (3 Bft)
24.08.2018 17:08 19,9 °C 68 % 1009,1 hPa 0,0 mm 7,0 km/h (2 Bft) W-NW 285 ° 0 min 0,000 mm 0,0 UV-I 42 W/m² 13,8 °C 19,9 °C 11,3 km/h (2 Bft)
24.08.2018 17:09 19,9 °C 68 % 1009,1 hPa 0,0 mm 9,2 km/h (2 Bft) W-NW 290 ° 0 min 0,000 mm 0,0 UV-I 70 W/m² 13,8 °C 19,9 °C 16,1 km/h (3 Bft)
24.08.2018 17:10 19,9 °C 68 % 1009,1 hPa 0,0 mm 8,4 km/h (2 Bft) W 261 ° 0 min 0,000 mm 0,7 UV-I 90 W/m² 13,8 °C 19,9 °C 16,1 km/h (3 Bft)
24.08.2018 17:11 19,9 °C 68 % 1009,1 hPa 0,0 mm 10,8 km/h (2 Bft) W 281 ° 0 min 0,000 mm 0,8 UV-I 102 W/m² 13,8 °C 19,9 °C 16,1 km/h (3 Bft)
24.08.2018 17:12 19,8 °C 68 % 1009,1 hPa 0,0 mm 9,3 km/h (2 Bft) W-NW 300 ° 0 min 0,000 mm 0,8 UV-I 111 W/m² 13,7 °C 19,8 °C 14,5 km/h (3 Bft)
24.08.2018 17:13 19,9 °C 69 % 1009,1 hPa 0,0 mm 9,2 km/h (2 Bft) W-SW 250 ° 0 min 0,000 mm 0,9 UV-I 118 W/m² 14,0 °C 19,9 °C 12,9 km/h (3 Bft)
24.08.2018 17:14 19,9 °C 68 % 1009,1 hPa 0,0 mm 11,3 km/h (2 Bft) W-SW 246 ° 0 min 0,000 mm 0,9 UV-I 118 W/m² 13,8 °C 19,9 °C 20,9 km/h (4 Bft)
24.08.2018 17:15 19,9 °C 68 % 1009,1 hPa 0,0 mm 6,0 km/h (2 Bft) W-SW 246 ° 0 min 0,000 mm 1,0 UV-I 111 W/m² 13,8 °C 19,9 °C 11,3 km/h (2 Bft)
24.08.2018 17:16 19,9 °C 68 % 1009,1 hPa 0,0 mm 6,1 km/h (2 Bft) W-NW 295 ° 0 min 0,000 mm 1,1 UV-I 121 W/m² 13,8 °C 19,9 °C 20,9 km/h (4 Bft)
24.08.2018 17:17 19,9 °C 69 % 1009,0 hPa 0,0 mm 9,5 km/h (2 Bft) W 274 ° 0 min 0,000 mm 1,2 UV-I 135 W/m² 14,0 °C 19,9 °C 17,7 km/h (3 Bft)
24.08.2018 17:18 19,9 °C 69 % 1009,0 hPa 0,0 mm 7,8 km/h (2 Bft) W-SW 242 ° 0 min 0,000 mm 1,1 UV-I 118 W/m² 14,0 °C 19,9 °C 12,9 km/h (3 Bft)
24.08.2018 17:19 19,9 °C 68 % 1009,0 hPa 0,0 mm 15,5 km/h (3 Bft) W-NW 296 ° 0 min 0,000 mm 1,1 UV-I 102 W/m² 13,8 °C 19,9 °C 19,3 km/h (3 Bft)
24.08.2018 17:20 19,8 °C 67 % 1009,0 hPa 0,0 mm 15,4 km/h (3 Bft) W-NW 295 ° 0 min 0,000 mm 1,0 UV-I 90 W/m² 13,5 °C 19,8 °C 22,5 km/h (4 Bft)
24.08.2018 17:21 19,8 °C 68 % 1009,1 hPa 0,0 mm 8,9 km/h (2 Bft) W-NW 283 ° 0 min 0,000 mm 1,0 UV-I 93 W/m² 13,7 °C 19,8 °C 12,9 km/h (3 Bft)
24.08.2018 17:22 19,7 °C 69 % 1009,0 hPa 0,0 mm 8,9 km/h (2 Bft) W-SW 254 ° 0 min 0,000 mm 0,9 UV-I 97 W/m² 13,8 °C 19,7 °C 12,9 km/h (3 Bft)
24.08.2018 17:23 19,7 °C 69 % 1009,1 hPa 0,0 mm 7,6 km/h (2 Bft) W 281 ° 0 min 0,000 mm 0,9 UV-I 93 W/m² 13,8 °C 19,7 °C 16,1 km/h (3 Bft)
24.08.2018 17:24 19,7 °C 69 % 1009,1 hPa 0,0 mm 9,2 km/h (2 Bft) W-NW 292 ° 0 min 0,000 mm 0,9 UV-I 93 W/m² 13,8 °C 19,7 °C 16,1 km/h (3 Bft)
24.08.2018 17:25 19,6 °C 69 % 1009,1 hPa 0,0 mm 15,7 km/h (3 Bft) W-NW 296 ° 0 min 0,000 mm 0,9 UV-I 97 W/m² 13,8 °C 19,6 °C 25,7 km/h (4 Bft)
24.08.2018 17:26 19,6 °C 68 % 1009,1 hPa 0,0 mm 16,7 km/h (3 Bft) W 267 ° 0 min 0,000 mm 0,9 UV-I 113 W/m² 13,5 °C 19,6 °C 25,7 km/h (4 Bft)
24.08.2018 17:27 19,6 °C 69 % 1009,1 hPa 0,0 mm 12,6 km/h (3 Bft) W-SW 253 ° 0 min 0,000 mm 0,9 UV-I 113 W/m² 13,8 °C 19,6 °C 24,1 km/h (4 Bft)
24.08.2018 17:28 19,6 °C 69 % 1009,1 hPa 0,0 mm 15,8 km/h (3 Bft) W 267 ° 0 min 0,000 mm 0,9 UV-I 107 W/m² 13,8 °C 19,6 °C 27,4 km/h (4 Bft)
24.08.2018 17:29 19,6 °C 69 % 1009,1 hPa 0,0 mm 11,1 km/h (2 Bft) W-NW 295 ° 0 min 0,000 mm 0,9 UV-I 107 W/m² 13,8 °C 19,6 °C 19,3 km/h (3 Bft)
24.08.2018 17:30 19,5 °C 69 % 1009,1 hPa 0,0 mm 13,1 km/h (3 Bft) W-NW 296 ° 0 min 0,000 mm 0,9 UV-I 109 W/m² 13,7 °C 19,5 °C 20,9 km/h (4 Bft)
24.08.2018 17:31 19,4 °C 69 % 1009,1 hPa 0,0 mm 15,0 km/h (3 Bft) W-NW 296 ° 0 min 0,000 mm 0,9 UV-I 109 W/m² 13,6 °C 19,4 °C 24,1 km/h (4 Bft)
24.08.2018 17:32 19,4 °C 69 % 1009,1 hPa 0,0 mm 10,4 km/h (2 Bft) NW 304 ° 0 min 0,000 mm 0,9 UV-I 105 W/m² 13,6 °C 19,4 °C 17,7 km/h (3 Bft)
24.08.2018 17:33 19,4 °C 69 % 1009,1 hPa 0,0 mm 13,3 km/h (3 Bft) W-NW 303 ° 0 min 0,000 mm 0,8 UV-I 100 W/m² 13,6 °C 19,4 °C 19,3 km/h (3 Bft)
24.08.2018 17:34 19,4 °C 69 % 1009,1 hPa 0,0 mm 7,6 km/h (2 Bft) W-NW 294 ° 0 min 0,000 mm 0,8 UV-I 97 W/m² 13,6 °C 19,4 °C 11,3 km/h (2 Bft)
24.08.2018 17:35 19,4 °C 70 % 1009,1 hPa 0,0 mm 7,8 km/h (2 Bft) W 269 ° 0 min 0,000 mm 0,7 UV-I 90 W/m² 13,8 °C 19,4 °C 12,9 km/h (3 Bft)
24.08.2018 17:36 19,3 °C 70 % 1009,1 hPa 0,0 mm 11,5 km/h (2 Bft) NW 321 ° 0 min 0,000 mm 0,7 UV-I 90 W/m² 13,7 °C 19,3 °C 16,1 km/h (3 Bft)
24.08.2018 17:37 19,3 °C 70 % 1009,1 hPa 0,0 mm 13,5 km/h (3 Bft) W 266 ° 0 min 0,000 mm 0,6 UV-I 77 W/m² 13,7 °C 19,3 °C 19,3 km/h (3 Bft)
24.08.2018 17:38 19,3 °C 71 % 1009,1 hPa 0,0 mm 10,2 km/h (2 Bft) W-SW 251 ° 0 min 0,000 mm 0,6 UV-I 67 W/m² 13,9 °C 19,3 °C 12,9 km/h (3 Bft)
24.08.2018 17:39 19,2 °C 71 % 1009,1 hPa 0,0 mm 8,5 km/h (2 Bft) W-SW 257 ° 0 min 0,000 mm 0,6 UV-I 62 W/m² 13,8 °C 19,2 °C 16,1 km/h (3 Bft)
24.08.2018 17:40 19,2 °C 71 % 1009,1 hPa 0,0 mm 8,8 km/h (2 Bft) W 271 ° 0 min 0,000 mm 0,5 UV-I 58 W/m² 13,8 °C 19,2 °C 12,9 km/h (3 Bft)
24.08.2018 17:41 19,2 °C 71 % 1009,1 hPa 0,0 mm 7,6 km/h (2 Bft) W 264 ° 0 min 0,000 mm 0,5 UV-I 56 W/m² 13,8 °C 19,2 °C 11,3 km/h (2 Bft)
24.08.2018 17:42 19,1 °C 72 % 1009,1 hPa 0,0 mm 11,8 km/h (2 Bft) W-NW 296 ° 0 min 0,000 mm 0,0 UV-I 54 W/m² 13,9 °C 19,1 °C 16,1 km/h (3 Bft)
24.08.2018 17:43 19,1 °C 73 % 1009,2 hPa 0,0 mm 8,4 km/h (2 Bft) W 268 ° 0 min 0,000 mm 0,0 UV-I 54 W/m² 14,1 °C 19,1 °C 14,5 km/h (3 Bft)
24.08.2018 17:44 18,9 °C 73 % 1009,2 hPa 0,0 mm 7,1 km/h (2 Bft) W-NW 292 ° 0 min 0,000 mm 0,0 UV-I 53 W/m² 13,9 °C 18,9 °C 11,3 km/h (2 Bft)
24.08.2018 17:45 18,9 °C 73 % 1009,2 hPa 0,0 mm 6,1 km/h (2 Bft) W 277 ° 0 min 0,000 mm 0,0 UV-I 53 W/m² 13,9 °C 18,9 °C 9,7 km/h (2 Bft)
24.08.2018 17:46 18,8 °C 74 % 1009,2 hPa 0,0 mm 6,7 km/h (2 Bft) W 275 ° 0 min 0,000 mm 0,0 UV-I 51 W/m² 14,1 °C 18,8 °C 11,3 km/h (2 Bft)
24.08.2018 17:47 18,7 °C 75 % 1009,1 hPa 0,0 mm 3,6 km/h (1 Bft) SW 231 ° 0 min 0,000 mm 0,0 UV-I 49 W/m² 14,2 °C 18,7 °C 6,4 km/h (2 Bft)
24.08.2018 17:48 18,6 °C 75 % 1009,1 hPa 0,0 mm 2,3 km/h (1 Bft) W 262 ° 0 min 0,000 mm 0,0 UV-I 49 W/m² 14,1 °C 18,6 °C 6,4 km/h (2 Bft)
24.08.2018 17:49 18,5 °C 75 % 1009,1 hPa 0,0 mm 5,9 km/h (2 Bft) W-SW 253 ° 0 min 0,000 mm 0,0 UV-I 49 W/m² 14,0 °C 18,5 °C 11,3 km/h (2 Bft)
24.08.2018 17:50 18,3 °C 77 % 1009,1 hPa 0,0 mm 8,2 km/h (2 Bft) W 263 ° 0 min 0,000 mm 0,0 UV-I 47 W/m² 14,2 °C 18,3 °C 14,5 km/h (3 Bft)
24.08.2018 17:51 18,2 °C 76 % 1009,1 hPa 0,0 mm 6,9 km/h (2 Bft) SW 221 ° 0 min 0,000 mm 0,0 UV-I 47 W/m² 13,9 °C 18,2 °C 11,3 km/h (2 Bft)
24.08.2018 17:52 18,1 °C 77 % 1009,1 hPa 0,0 mm 7,3 km/h (2 Bft) W 263 ° 0 min 0,000 mm 0,0 UV-I 46 W/m² 14,0 °C 18,1 °C 17,7 km/h (3 Bft)
24.08.2018 17:53 17,9 °C 78 % 1009,1 hPa 0,0 mm 8,5 km/h (2 Bft) W-NW 302 ° 0 min 0,000 mm 0,0 UV-I 44 W/m² 14,0 °C 17,9 °C 14,5 km/h (3 Bft)
24.08.2018 17:54 17,8 °C 78 % 1009,1 hPa 0,0 mm 7,0 km/h (2 Bft) W 263 ° 0 min 0,000 mm 0,0 UV-I 42 W/m² 13,9 °C 17,8 °C 11,3 km/h (2 Bft)
24.08.2018 17:55 17,7 °C 78 % 1009,1 hPa 0,0 mm 4,4 km/h (1 Bft) W 263 ° 0 min 0,000 mm 0,0 UV-I 40 W/m² 13,8 °C 17,7 °C 6,4 km/h (2 Bft)
24.08.2018 17:56 17,7 °C 79 % 1009,0 hPa 0,0 mm 7,8 km/h (2 Bft) W 261 ° 0 min 0,000 mm 0,0 UV-I 39 W/m² 14,0 °C 17,7 °C 12,9 km/h (3 Bft)
24.08.2018 17:57 17,6 °C 79 % 1009,1 hPa 0,0 mm 3,9 km/h (1 Bft) W 271 ° 0 min 0,000 mm 0,0 UV-I 39 W/m² 13,9 °C 17,6 °C 9,7 km/h (2 Bft)
24.08.2018 17:58 17,6 °C 78 % 1009,1 hPa 0,0 mm 3,8 km/h (1 Bft) W 273 ° 0 min 0,000 mm 0,0 UV-I 39 W/m² 13,7 °C 17,6 °C 9,7 km/h (2 Bft)
24.08.2018 17:59 17,5 °C 78 % 1009,1 hPa 0,0 mm 2,8 km/h (1 Bft) W 264 ° 0 min 0,000 mm 0,0 UV-I 39 W/m² 13,6 °C 17,5 °C 6,4 km/h (2 Bft)
24.08.2018 18:00 17,4 °C 79 % 1009,1 hPa 0,0 mm 3,4 km/h (1 Bft) W 261 ° 0 min 0,000 mm 0,0 UV-I 39 W/m² 13,7 °C 17,4 °C 6,4 km/h (2 Bft)
24.08.2018 18:01 17,4 °C 78 % 1009,1 hPa 0,0 mm 2,3 km/h (1 Bft) W 261 ° 0 min 0,076 mm 0,0 UV-I 39 W/m² 13,5 °C 17,4 °C 3,2 km/h (1 Bft)
24.08.2018 18:02 17,3 °C 78 % 1009,2 hPa 0,0 mm 6,5 km/h (2 Bft) W-NW 288 ° 0 min 0,000 mm 0,0 UV-I 39 W/m² 13,4 °C 17,3 °C 14,5 km/h (3 Bft)
24.08.2018 18:03 17,3 °C 79 % 1009,2 hPa 0,0 mm 7,5 km/h (2 Bft) NW 306 ° 0 min 0,000 mm 0,0 UV-I 37 W/m² 13,6 °C 17,3 °C 9,7 km/h (2 Bft)
24.08.2018 18:04 17,3 °C 79 % 1009,3 hPa 0,0 mm 8,3 km/h (2 Bft) NW 310 ° 0 min 0,000 mm 0,0 UV-I 35 W/m² 13,6 °C 17,3 °C 14,5 km/h (3 Bft)
24.08.2018 18:05 17,3 °C 78 % 1009,4 hPa 0,0 mm 5,9 km/h (2 Bft) N-NW 333 ° 0 min 0,000 mm 0,0 UV-I 35 W/m² 13,4 °C 17,3 °C 11,3 km/h (2 Bft)
24.08.2018 18:06 17,3 °C 78 % 1009,4 hPa 0,0 mm 4,2 km/h (1 Bft) N-NW 328 ° 0 min 0,000 mm 0,0 UV-I 33 W/m² 13,4 °C 17,3 °C 8,0 km/h (2 Bft)
24.08.2018 18:07 17,3 °C 78 % 1009,5 hPa 0,0 mm 4,5 km/h (1 Bft) NW 324 ° 0 min 0,000 mm 0,0 UV-I 30 W/m² 13,4 °C 17,3 °C 6,4 km/h (2 Bft)
24.08.2018 18:08 17,3 °C 79 % 1009,5 hPa 0,0 mm 5,0 km/h (1 Bft) NW 319 ° 0 min 0,000 mm 0,0 UV-I 28 W/m² 13,6 °C 17,3 °C 8,0 km/h (2 Bft)
24.08.2018 18:09 17,3 °C 79 % 1009,6 hPa 0,0 mm 3,0 km/h (1 Bft) N-NW 338 ° 0 min 0,000 mm 0,0 UV-I 26 W/m² 13,6 °C 17,3 °C 4,8 km/h (1 Bft)
24.08.2018 18:10 17,3 °C 80 % 1009,6 hPa 0,0 mm 3,8 km/h (1 Bft) W-NW 303 ° 0 min 0,000 mm 0,0 UV-I 26 W/m² 13,8 °C 17,3 °C 6,4 km/h (2 Bft)
24.08.2018 18:11 17,2 °C 81 % 1009,6 hPa 0,0 mm 3,5 km/h (1 Bft) W-NW 302 ° 0 min 0,000 mm 0,0 UV-I 25 W/m² 13,9 °C 17,2 °C 6,4 km/h (2 Bft)
24.08.2018 18:12 17,2 °C 82 % 1009,6 hPa 0,0 mm 7,0 km/h (2 Bft) N-NW 348 ° 0 min 0,000 mm 0,0 UV-I 23 W/m² 14,1 °C 17,2 °C 16,1 km/h (3 Bft)
24.08.2018 18:13 17,2 °C 83 % 1009,7 hPa 0,0 mm 6,7 km/h (2 Bft) N-NO 32 ° 0 min 0,000 mm 0,0 UV-I 18 W/m² 14,3 °C 17,2 °C 11,3 km/h (2 Bft)
24.08.2018 18:14 17,2 °C 83 % 1009,7 hPa 0,0 mm 8,4 km/h (2 Bft) N-NW 342 ° 0 min 0,000 mm 0,0 UV-I 16 W/m² 14,3 °C 17,2 °C 14,5 km/h (3 Bft)
24.08.2018 18:15 17,2 °C 84 % 1009,8 hPa 0,0 mm 1,7 km/h (1 Bft) NO 49 ° 0 min 0,000 mm 0,0 UV-I 14 W/m² 14,5 °C 17,2 °C 3,2 km/h (1 Bft)
24.08.2018 18:16 17,1 °C 84 % 1009,7 hPa 0,0 mm 5,1 km/h (1 Bft) NW 320 ° 0 min 0,000 mm 0,0 UV-I 14 W/m² 14,4 °C 17,1 °C 8,0 km/h (2 Bft)
24.08.2018 18:17 17,1 °C 85 % 1009,7 hPa 0,0 mm 6,2 km/h (2 Bft) NW 317 ° 0 min 0,000 mm 0,0 UV-I 14 W/m² 14,6 °C 17,1 °C 9,7 km/h (2 Bft)
24.08.2018 18:18 17,0 °C 85 % 1009,8 hPa 0,0 mm 4,5 km/h (1 Bft) NW 325 ° 0 min 0,000 mm 0,0 UV-I 14 W/m² 14,5 °C 17,0 °C 6,4 km/h (2 Bft)
24.08.2018 18:19 17,0 °C 85 % 1009,8 hPa 0,0 mm 5,0 km/h (1 Bft) N 360 ° 0 min 0,000 mm 0,0 UV-I 18 W/m² 14,5 °C 17,0 °C 9,7 km/h (2 Bft)
24.08.2018 18:20 17,0 °C 86 % 1009,8 hPa 0,0 mm 4,2 km/h (1 Bft) N 5 ° 0 min 0,000 mm 0,0 UV-I 19 W/m² 14,6 °C 17,0 °C 4,8 km/h (1 Bft)
24.08.2018 18:21 17,0 °C 86 % 1009,8 hPa 0,0 mm 6,2 km/h (2 Bft) NW 320 ° 0 min 0,000 mm 0,0 UV-I 21 W/m² 14,6 °C 17,0 °C 12,9 km/h (3 Bft)
24.08.2018 18:22 16,9 °C 86 % 1009,9 hPa 0,0 mm 6,2 km/h (2 Bft) N 5 ° 0 min 0,000 mm 0,0 UV-I 25 W/m² 14,5 °C 16,9 °C 12,9 km/h (3 Bft)
24.08.2018 18:23 16,9 °C 86 % 1009,9 hPa 0,0 mm 4,2 km/h (1 Bft) NW 311 ° 0 min 0,000 mm 0,0 UV-I 28 W/m² 14,5 °C 16,9 °C 8,0 km/h (2 Bft)
24.08.2018 18:24 16,9 °C 86 % 1009,9 hPa 0,0 mm 7,0 km/h (2 Bft) N 355 ° 0 min 0,000 mm 0,0 UV-I 30 W/m² 14,5 °C 16,9 °C 12,9 km/h (3 Bft)
24.08.2018 18:25 16,9 °C 86 % 1009,9 hPa 0,0 mm 5,0 km/h (1 Bft) N-NO 33 ° 0 min 0,000 mm 0,0 UV-I 32 W/m² 14,5 °C 16,9 °C 6,4 km/h (2 Bft)
24.08.2018 18:26 16,8 °C 86 % 1009,9 hPa 0,0 mm 5,4 km/h (1 Bft) NW 311 ° 0 min 0,000 mm 0,0 UV-I 32 W/m² 14,4 °C 16,8 °C 9,7 km/h (2 Bft)
24.08.2018 18:27 16,8 °C 86 % 1009,9 hPa 0,0 mm 5,5 km/h (1 Bft) NW 317 ° 0 min 0,000 mm 0,0 UV-I 28 W/m² 14,4 °C 16,8 °C 8,0 km/h (2 Bft)
24.08.2018 18:28 16,8 °C 86 % 1010,0 hPa 0,0 mm 6,2 km/h (2 Bft) NW 322 ° 0 min 0,000 mm 0,0 UV-I 26 W/m² 14,4 °C 16,8 °C 9,7 km/h (2 Bft)
24.08.2018 18:29 16,8 °C 86 % 1010,0 hPa 0,0 mm 5,6 km/h (1 Bft) N 5 ° 0 min 0,000 mm 0,0 UV-I 25 W/m² 14,4 °C 16,8 °C 9,7 km/h (2 Bft)
24.08.2018 18:30 16,7 °C 86 % 1010,0 hPa 0,0 mm 7,0 km/h (2 Bft) NW 313 ° 0 min 0,000 mm 0,0 UV-I 21 W/m² 14,3 °C 16,7 °C 12,9 km/h (3 Bft)
24.08.2018 18:31 16,7 °C 87 % 1010,0 hPa 0,0 mm 3,1 km/h (1 Bft) N 360 ° 0 min 0,000 mm 0,0 UV-I 14 W/m² 14,5 °C 16,7 °C 4,8 km/h (1 Bft)
24.08.2018 18:32 16,6 °C 87 % 1010,0 hPa 0,0 mm 7,6 km/h (2 Bft) N-NO 13 ° 0 min 0,000 mm 0,0 UV-I 11 W/m² 14,4 °C 16,6 °C 12,9 km/h (3 Bft)
24.08.2018 18:33 16,5 °C 87 % 1010,0 hPa 0,0 mm 3,6 km/h (1 Bft) NW 325 ° 0 min 0,000 mm 0,0 UV-I 9 W/m² 14,3 °C 16,5 °C 6,4 km/h (2 Bft)
24.08.2018 18:34 16,4 °C 87 % 1010,0 hPa 0,0 mm 3,9 km/h (1 Bft) W-NW 300 ° 0 min 0,000 mm 0,0 UV-I 7 W/m² 14,2 °C 16,4 °C 12,9 km/h (3 Bft)
24.08.2018 18:35 16,3 °C 87 % 1010,0 hPa 0,0 mm 4,9 km/h (1 Bft) NW 305 ° 0 min 0,000 mm 0,0 UV-I 5 W/m² 14,1 °C 16,3 °C 8,0 km/h (2 Bft)
24.08.2018 18:36 16,2 °C 87 % 1010,0 hPa 0,0 mm 3,2 km/h (1 Bft) S-SW 195 ° 0 min 0,000 mm 0,0 UV-I 0 W/m² 14,0 °C 16,2 °C 8,0 km/h (2 Bft)
24.08.2018 18:37 16,2 °C 87 % 1010,0 hPa 0,0 mm 8,4 km/h (2 Bft) N-NO 17 ° 0 min 0,000 mm 0,0 UV-I 0 W/m² 14,0 °C 16,2 °C 14,5 km/h (3 Bft)
24.08.2018 18:38 16,1 °C 88 % 1010,0 hPa 0,0 mm 5,4 km/h (1 Bft) NW 326 ° 0 min 0,000 mm 0,0 UV-I 0 W/m² 14,1 °C 16,1 °C 8,0 km/h (2 Bft)
24.08.2018 18:39 16,0 °C 88 % 1010,1 hPa 0,0 mm 5,0 km/h (1 Bft) NO 38 ° 0 min 0,000 mm 0,0 UV-I 0 W/m² 14,0 °C 16,0 °C 9,7 km/h (2 Bft)
24.08.2018 18:40 15,9 °C 88 % 1010,2 hPa 0,0 mm 7,4 km/h (2 Bft) NW 312 ° 0 min 0,000 mm 0,0 UV-I 0 W/m² 13,9 °C 15,9 °C 9,7 km/h (2 Bft)
24.08.2018 18:41 15,8 °C 88 % 1010,3 hPa 0,0 mm 3,4 km/h (1 Bft) N-NW 335 ° 0 min 0,000 mm 0,0 UV-I 0 W/m² 13,8 °C 15,8 °C 8,0 km/h (2 Bft)
24.08.2018 18:42 15,8 °C 89 % 1010,3 hPa 0,0 mm 6,8 km/h (2 Bft) NW 321 ° 0 min 0,000 mm 0,0 UV-I 0 W/m² 14,0 °C 15,8 °C 9,7 km/h (2 Bft)
24.08.2018 18:43 15,7 °C 89 % 1010,3 hPa 0,0 mm 6,3 km/h (2 Bft) NW 325 ° 0 min 0,000 mm 0,0 UV-I 0 W/m² 13,9 °C 15,7 °C 12,9 km/h (3 Bft)
24.08.2018 18:44 15,7 °C 89 % 1010,3 hPa 0,0 mm 6,5 km/h (2 Bft) NW 310 ° 0 min 0,000 mm 0,0 UV-I 0 W/m² 13,9 °C 15,7 °C 12,9 km/h (3 Bft)
24.08.2018 18:45 15,6 °C 89 % 1010,3 hPa 0,2 mm 4,8 km/h (1 Bft) NW 309 ° 0 min 0,000 mm 0,0 UV-I 0 W/m² 13,8 °C 15,6 °C 6,4 km/h (2 Bft)
24.08.2018 18:46 15,6 °C 89 % 1010,3 hPa 0,0 mm 3,4 km/h (1 Bft) NW 317 ° 0 min 0,000 mm 0,0 UV-I 0 W/m² 13,8 °C 15,6 °C 8,0 km/h (2 Bft)
24.08.2018 18:47 15,6 °C 89 % 1010,4 hPa 0,2 mm 3,8 km/h (1 Bft) NW 311 ° 0 min 0,000 mm 0,0 UV-I 0 W/m² 13,8 °C 15,6 °C 6,4 km/h (2 Bft)
24.08.2018 18:48 15,4 °C 90 % 1010,4 hPa 0,0 mm 3,0 km/h (1 Bft) NW 322 ° 0 min 0,000 mm 0,0 UV-I 0 W/m² 13,8 °C 15,4 °C 6,4 km/h (2 Bft)
24.08.2018 18:49 15,4 °C 90 % 1010,4 hPa 0,2 mm 3,9 km/h (1 Bft) N-NW 328 ° 0 min 0,000 mm 0,0 UV-I 0 W/m² 13,8 °C 15,4 °C 8,0 km/h (2 Bft)
24.08.2018 18:50 15,4 °C 90 % 1010,3 hPa 0,0 mm 3,8 km/h (1 Bft) W-NW 301 ° 0 min 0,000 mm 0,0 UV-I 0 W/m² 13,8 °C 15,4 °C 4,8 km/h (1 Bft)
24.08.2018 18:51 15,3 °C 90 % 1010,4 hPa 0,0 mm 4,5 km/h (1 Bft) W-NW 298 ° 0 min 0,000 mm 0,0 UV-I 0 W/m² 13,7 °C 15,3 °C 8,0 km/h (2 Bft)
24.08.2018 18:52 15,2 °C 90 % 1010,4 hPa 0,0 mm 4,3 km/h (1 Bft) NW 315 ° 0 min 0,000 mm 0,0 UV-I 0 W/m² 13,6 °C 15,2 °C 6,4 km/h (2 Bft)
24.08.2018 18:53 15,2 °C 90 % 1010,4 hPa 0,0 mm 3,1 km/h (1 Bft) N-NW 333 ° 0 min 0,000 mm 0,0 UV-I 0 W/m² 13,6 °C 15,2 °C 4,8 km/h (1 Bft)
24.08.2018 18:54 15,1 °C 90 % 1010,4 hPa 0,0 mm 5,7 km/h (1 Bft) NW 326 ° 0 min 0,000 mm 0,0 UV-I 0 W/m² 13,5 °C 15,1 °C 9,7 km/h (2 Bft)
24.08.2018 18:55 15,1 °C 90 % 1010,5 hPa 0,0 mm 6,8 km/h (2 Bft) W-NW 292 ° 0 min 0,000 mm 0,0 UV-I 0 W/m² 13,5 °C 15,1 °C 9,7 km/h (2 Bft)
24.08.2018 18:56 15,0 °C 90 % 1010,6 hPa 0,2 mm 6,8 km/h (2 Bft) NW 323 ° 0 min 0,000 mm 0,0 UV-I 0 W/m² 13,4 °C 15,0 °C 12,9 km/h (3 Bft)
24.08.2018 18:57 15,0 °C 90 % 1010,6 hPa 0,0 mm 6,7 km/h (2 Bft) N-NW 333 ° 0 min 0,000 mm 0,0 UV-I 0 W/m² 13,4 °C 15,0 °C 9,7 km/h (2 Bft)
24.08.2018 18:58 14,9 °C 90 % 1010,6 hPa 0,0 mm 4,5 km/h (1 Bft) W-NW 283 ° 0 min 0,000 mm 0,0 UV-I 5 W/m² 13,3 °C 14,9 °C 9,7 km/h (2 Bft)
24.08.2018 18:59 14,8 °C 90 % 1010,6 hPa 0,0 mm 3,5 km/h (1 Bft) NW 322 ° 0 min 0,000 mm 0,0 UV-I 5 W/m² 13,2 °C 14,8 °C 8,0 km/h (2 Bft)
24.08.2018 19:00 14,8 °C 91 % 1010,5 hPa 0,0 mm 4,7 km/h (1 Bft) NW 312 ° 0 min 0,000 mm 0,0 UV-I 7 W/m² 13,3 °C 14,8 °C 8,0 km/h (2 Bft)
24.08.2018 19:01 14,7 °C 91 % 1010,6 hPa 0,2 mm 9,8 km/h (2 Bft) N 5 ° 0 min 0,026 mm 0,0 UV-I 9 W/m² 13,2 °C 14,7 °C 17,7 km/h (3 Bft)
24.08.2018 19:02 14,7 °C 91 % 1010,6 hPa 0,0 mm 6,8 km/h (2 Bft) NW 319 ° 0 min 0,000 mm 0,0 UV-I 9 W/m² 13,2 °C 14,7 °C 8,0 km/h (2 Bft)
24.08.2018 19:03 14,7 °C 91 % 1010,6 hPa 0,2 mm 7,5 km/h (2 Bft) N-NW 327 ° 0 min 0,000 mm 0,0 UV-I 11 W/m² 13,2 °C 14,7 °C 12,9 km/h (3 Bft)
24.08.2018 19:04 14,7 °C 91 % 1010,6 hPa 0,0 mm 7,8 km/h (2 Bft) N-NW 344 ° 0 min 0,000 mm 0,0 UV-I 11 W/m² 13,2 °C 14,7 °C 12,9 km/h (3 Bft)
24.08.2018 19:05 14,6 °C 91 % 1010,6 hPa 0,2 mm 3,9 km/h (1 Bft) W-NW 301 ° 0 min 0,000 mm 0,0 UV-I 11 W/m² 13,1 °C 14,6 °C 8,0 km/h (2 Bft)
24.08.2018 19:06 14,6 °C 91 % 1010,6 hPa 0,0 mm 6,0 km/h (2 Bft) N 9 ° 0 min 0,000 mm 0,0 UV-I 11 W/m² 13,1 °C 14,6 °C 9,7 km/h (2 Bft)
24.08.2018 19:07 14,5 °C 91 % 1010,6 hPa 0,2 mm 2,6 km/h (1 Bft) NW 312 ° 0 min 0,000 mm 0,0 UV-I 11 W/m² 13,0 °C 14,5 °C 6,4 km/h (2 Bft)
24.08.2018 19:08 14,5 °C 91 % 1010,6 hPa 0,0 mm 8,2 km/h (2 Bft) NW 321 ° 0 min 0,000 mm 0,0 UV-I 9 W/m² 13,0 °C 14,5 °C 11,3 km/h (2 Bft)
24.08.2018 19:09 14,4 °C 91 % 1010,7 hPa 0,0 mm 7,2 km/h (2 Bft) W-NW 288 ° 0 min 0,000 mm 0,0 UV-I 9 W/m² 12,9 °C 14,4 °C 12,9 km/h (3 Bft)
24.08.2018 19:10 14,4 °C 91 % 1010,7 hPa 0,0 mm 4,9 km/h (1 Bft) W-NW 299 ° 0 min 0,000 mm 0,0 UV-I 7 W/m² 12,9 °C 14,4 °C 6,4 km/h (2 Bft)
24.08.2018 19:11 14,4 °C 91 % 1010,7 hPa 0,2 mm 5,4 km/h (1 Bft) N-NW 329 ° 0 min 0,000 mm 0,0 UV-I 7 W/m² 12,9 °C 14,4 °C 8,0 km/h (2 Bft)
24.08.2018 19:12 14,3 °C 91 % 1010,8 hPa 0,0 mm 1,0 km/h (0 Bft) N-NW 329 ° 0 min 0,000 mm 0,0 UV-I 7 W/m² 12,8 °C 14,3 °C 3,2 km/h (1 Bft)
24.08.2018 19:13 14,3 °C 91 % 1010,8 hPa 0,0 mm 3,0 km/h (1 Bft) N-NW 327 ° 0 min 0,000 mm 0,0 UV-I 9 W/m² 12,8 °C 14,3 °C 6,4 km/h (2 Bft)
24.08.2018 19:14 14,3 °C 91 % 1010,8 hPa 0,0 mm 3,0 km/h (1 Bft) NW 317 ° 0 min 0,000 mm 0,0 UV-I 9 W/m² 12,8 °C 14,3 °C 4,8 km/h (1 Bft)
24.08.2018 19:15 14,3 °C 91 % 1010,8 hPa 0,0 mm 5,9 km/h (2 Bft) NW 321 ° 0 min 0,000 mm 0,0 UV-I 11 W/m² 12,8 °C 14,3 °C 12,9 km/h (3 Bft)
24.08.2018 19:16 14,3 °C 91 % 1010,8 hPa 0,4 mm 4,5 km/h (1 Bft) W-NW 291 ° 0 min 0,000 mm 0,0 UV-I 11 W/m² 12,8 °C 14,3 °C 6,4 km/h (2 Bft)
24.08.2018 19:17 14,2 °C 91 % 1010,8 hPa 0,2 mm 3,0 km/h (1 Bft) NW 317 ° 0 min 0,000 mm 0,0 UV-I 12 W/m² 12,8 °C 14,2 °C 4,8 km/h (1 Bft)
24.08.2018 19:18 14,2 °C 91 % 1010,8 hPa 0,2 mm 2,8 km/h (1 Bft) N-NW 333 ° 0 min 0,000 mm 0,0 UV-I 12 W/m² 12,8 °C 14,2 °C 6,4 km/h (2 Bft)
24.08.2018 19:19 14,2 °C 91 % 1010,8 hPa 0,0 mm 4,4 km/h (1 Bft) NW 314 ° 0 min 0,000 mm 0,0 UV-I 12 W/m² 12,8 °C 14,2 °C 6,4 km/h (2 Bft)
24.08.2018 19:20 14,2 °C 91 % 1010,7 hPa 0,2 mm 1,8 km/h (1 Bft) NW 314 ° 0 min 0,000 mm 0,0 UV-I 11 W/m² 12,8 °C 14,2 °C 3,2 km/h (1 Bft)
24.08.2018 19:21 14,1 °C 91 % 1010,7 hPa 0,0 mm 2,2 km/h (1 Bft) N-NO 14 ° 0 min 0,000 mm 0,0 UV-I 9 W/m² 12,7 °C 14,1 °C 4,8 km/h (1 Bft)
24.08.2018 19:22 14,1 °C 92 % 1010,7 hPa 0,0 mm 0,7 km/h (0 Bft) N 11 ° 0 min 0,000 mm 0,0 UV-I 7 W/m² 12,8 °C 14,1 °C 3,2 km/h (1 Bft)
24.08.2018 19:23 14,1 °C 92 % 1010,7 hPa 0,0 mm 3,4 km/h (1 Bft) N-NW 329 ° 0 min 0,000 mm 0,0 UV-I 5 W/m² 12,8 °C 14,1 °C 4,8 km/h (1 Bft)
24.08.2018 19:24 14,1 °C 92 % 1010,8 hPa 0,0 mm 3,6 km/h (1 Bft) N-NW 330 ° 0 min 0,000 mm 0,0 UV-I 5 W/m² 12,8 °C 14,1 °C 6,4 km/h (2 Bft)
24.08.2018 19:25 14,1 °C 92 % 1010,7 hPa 0,0 mm 3,7 km/h (1 Bft) W-NW 293 ° 0 min 0,000 mm 0,0 UV-I 5 W/m² 12,8 °C 14,1 °C 8,0 km/h (2 Bft)
24.08.2018 19:26 14,1 °C 92 % 1010,7 hPa 0,0 mm 2,5 km/h (1 Bft) NW 304 ° 0 min 0,000 mm 0,0 UV-I 5 W/m² 12,8 °C 14,1 °C 4,8 km/h (1 Bft)
24.08.2018 19:27 14,1 °C 92 % 1010,7 hPa 0,2 mm 2,3 km/h (1 Bft) NW 304 ° 0 min 0,000 mm 0,0 UV-I 5 W/m² 12,8 °C 14,1 °C 3,2 km/h (1 Bft)
24.08.2018 19:28 14,1 °C 92 % 1010,7 hPa 0,0 mm 1,9 km/h (1 Bft) W-NW 286 ° 0 min 0,000 mm 0,0 UV-I 5 W/m² 12,8 °C 14,1 °C 4,8 km/h (1 Bft)
24.08.2018 19:29 14,1 °C 92 % 1010,7 hPa 0,0 mm 1,0 km/h (0 Bft) W-NW 286 ° 0 min 0,000 mm 0,0 UV-I 0 W/m² 12,8 °C 14,1 °C 3,2 km/h (1 Bft)
24.08.2018 19:30 14,1 °C 92 % 1010,7 hPa 0,0 mm 0,0 km/h (0 Bft) W-NW 286 ° 0 min 0,000 mm 0,0 UV-I 0 W/m² 12,8 °C 14,1 °C 0,0 km/h (0 Bft)
24.08.2018 19:31 14,1 °C 92 % 1010,8 hPa 0,2 mm 0,0 km/h (0 Bft) W-NW 286 ° 0 min 0,000 mm 0,0 UV-I 0 W/m² 12,8 °C 14,1 °C 0,0 km/h (0 Bft)
24.08.2018 19:32 14,1 °C 92 % 1010,7 hPa 0,0 mm 0,3 km/h (0 Bft) W-NW 286 ° 0 min 0,000 mm 0,0 UV-I 0 W/m² 12,8 °C 14,1 °C 1,6 km/h (1 Bft)
24.08.2018 19:33 14,0 °C 92 % 1010,8 hPa 0,0 mm 0,0 km/h (0 Bft) W-NW 286 ° 0 min 0,000 mm 0,0 UV-I 0 W/m² 12,7 °C 14,0 °C 0,0 km/h (0 Bft)
24.08.2018 19:34 14,1 °C 92 % 1010,8 hPa 0,0 mm 0,0 km/h (0 Bft) W-NW 286 ° 0 min 0,000 mm 0,0 UV-I 0 W/m² 12,8 °C 14,1 °C 0,0 km/h (0 Bft)
24.08.2018 19:35 14,0 °C 92 % 1010,9 hPa 0,0 mm 0,0 km/h (0 Bft) W-NW 286 ° 0 min 0,000 mm 0,0 UV-I 0 W/m² 12,7 °C 14,0 °C 0,0 km/h (0 Bft)
24.08.2018 19:36 14,0 °C 92 % 1010,9 hPa 0,0 mm 0,7 km/h (0 Bft) W-NW 286 ° 0 min 0,000 mm 0,0 UV-I 0 W/m² 12,7 °C 14,0 °C 1,6 km/h (1 Bft)
24.08.2018 19:37 14,0 °C 92 % 1011,0 hPa 0,0 mm 1,9 km/h (1 Bft) W-NW 286 ° 0 min 0,000 mm 0,0 UV-I 0 W/m² 12,7 °C 14,0 °C 3,2 km/h (1 Bft)
24.08.2018 19:38 14,0 °C 92 % 1011,0 hPa 0,0 mm 0,0 km/h (0 Bft) W-NW 286 ° 0 min 0,000 mm 0,0 UV-I 0 W/m² 12,7 °C 14,0 °C 0,0 km/h (0 Bft)
24.08.2018 19:39 14,0 °C 92 % 1011,0 hPa 0,2 mm 0,1 km/h (0 Bft) W-NW 286 ° 0 min 0,000 mm 0,0 UV-I 0 W/m² 12,7 °C 14,0 °C 1,6 km/h (1 Bft)
24.08.2018 19:40 14,0 °C 92 % 1011,0 hPa 0,0 mm 0,0 km/h (0 Bft) W-NW 286 ° 0 min 0,000 mm 0,0 UV-I 0 W/m² 12,7 °C 14,0 °C 0,0 km/h (0 Bft)
24.08.2018 19:41 14,0 °C 92 % 1011,0 hPa 0,0 mm 0,0 km/h (0 Bft) W-NW 286 ° 0 min 0,000 mm 0,0 UV-I 0 W/m² 12,7 °C 14,0 °C 0,0 km/h (0 Bft)
24.08.2018 19:42 14,0 °C 92 % 1011,1 hPa 0,0 mm 0,0 km/h (0 Bft) W-NW 286 ° 0 min 0,000 mm 0,0 UV-I 0 W/m² 12,7 °C 14,0 °C 0,0 km/h (0 Bft)
24.08.2018 19:43 14,0 °C 92 % 1011,1 hPa 0,0 mm 0,0 km/h (0 Bft) W-NW 286 ° 0 min 0,000 mm 0,0 UV-I 0 W/m² 12,7 °C 14,0 °C 0,0 km/h (0 Bft)
24.08.2018 19:44 14,0 °C 92 % 1011,1 hPa 0,2 mm 0,1 km/h (0 Bft) W-NW 286 ° 0 min 0,000 mm 0,0 UV-I 0 W/m² 12,7 °C 14,0 °C 1,6 km/h (1 Bft)
24.08.2018 19:45 13,9 °C 92 % 1011,1 hPa 0,0 mm 0,4 km/h (0 Bft) W-NW 286 ° 0 min 0,000 mm 0,0 UV-I 0 W/m² 12,6 °C 13,9 °C 1,6 km/h (1 Bft)
24.08.2018 19:46 13,9 °C 92 % 1011,1 hPa 0,0 mm 1,5 km/h (1 Bft) W-NW 286 ° 0 min 0,000 mm 0,0 UV-I 0 W/m² 12,6 °C 13,9 °C 3,2 km/h (1 Bft)
24.08.2018 19:47 13,9 °C 92 % 1011,1 hPa 0,0 mm 0,0 km/h (0 Bft) W-NW 286 ° 0 min 0,000 mm 0,0 UV-I 0 W/m² 12,6 °C 13,9 °C 0,0 km/h (0 Bft)
24.08.2018 19:48 14,0 °C 92 % 1011,1 hPa 0,0 mm 0,8 km/h (0 Bft) W-NW 286 ° 0 min 0,000 mm 0,0 UV-I 0 W/m² 12,7 °C 14,0 °C 3,2 km/h (1 Bft)
24.08.2018 19:49 13,9 °C 92 % 1011,1 hPa 0,2 mm 0,3 km/h (0 Bft) W-NW 286 ° 0 min 0,000 mm 0,0 UV-I 0 W/m² 12,6 °C 13,9 °C 1,6 km/h (1 Bft)
24.08.2018 19:50 13,9 °C 92 % 1011,1 hPa 0,0 mm 0,1 km/h (0 Bft) W-NW 286 ° 0 min 0,000 mm 0,0 UV-I 0 W/m² 12,6 °C 13,9 °C 1,6 km/h (1 Bft)
24.08.2018 19:51 13,9 °C 92 % 1011,1 hPa 0,2 mm 0,0 km/h (0 Bft) W-NW 286 ° 0 min 0,000 mm 0,0 UV-I 0 W/m² 12,6 °C 13,9 °C 0,0 km/h (0 Bft)
24.08.2018 19:52 14,0 °C 92 % 1011,1 hPa 0,0 mm 0,0 km/h (0 Bft) W-NW 286 ° 0 min 0,000 mm 0,0 UV-I 0 W/m² 12,7 °C 14,0 °C 0,0 km/h (0 Bft)
24.08.2018 19:53 13,9 °C 93 % 1011,2 hPa 0,2 mm 0,0 km/h (0 Bft) W-NW 286 ° 0 min 0,000 mm 0,0 UV-I 0 W/m² 12,8 °C 13,9 °C 0,0 km/h (0 Bft)
24.08.2018 19:54 14,0 °C 93 % 1011,2 hPa 0,0 mm 0,0 km/h (0 Bft) W-NW 286 ° 0 min 0,000 mm 0,0 UV-I 0 W/m² 12,9 °C 14,0 °C 0,0 km/h (0 Bft)
24.08.2018 19:55 14,0 °C 93 % 1011,2 hPa 0,0 mm 0,0 km/h (0 Bft) W-NW 286 ° 0 min 0,000 mm 0,0 UV-I 0 W/m² 12,9 °C 14,0 °C 0,0 km/h (0 Bft)
24.08.2018 19:56 14,0 °C 93 % 1011,3 hPa 0,4 mm 0,0 km/h (0 Bft) W-NW 286 ° 0 min 0,000 mm 0,0 UV-I 0 W/m² 12,9 °C 14,0 °C 0,0 km/h (0 Bft)
24.08.2018 19:57 14,1 °C 93 % 1011,3 hPa 0,2 mm 1,0 km/h (0 Bft) W-NW 286 ° 0 min 0,000 mm 0,0 UV-I 0 W/m² 13,0 °C 14,1 °C 1,6 km/h (1 Bft)
24.08.2018 19:58 14,1 °C 93 % 1011,3 hPa 0,0 mm 1,1 km/h (1 Bft) W-NW 286 ° 0 min 0,000 mm 0,0 UV-I 0 W/m² 13,0 °C 14,1 °C 1,6 km/h (1 Bft)
24.08.2018 19:59 14,1 °C 93 % 1011,3 hPa 0,2 mm 2,3 km/h (1 Bft) W-NW 286 ° 0 min 0,000 mm 0,0 UV-I 0 W/m² 13,0 °C 14,1 °C 3,2 km/h (1 Bft)
24.08.2018 20:00 14,1 °C 93 % 1011,3 hPa 0,4 mm 0,0 km/h (0 Bft) W-NW 286 ° 0 min 0,000 mm 0,0 UV-I 0 W/m² 13,0 °C 14,1 °C 0,0 km/h (0 Bft)
24.08.2018 20:01 14,1 °C 93 % 1011,4 hPa 0,2 mm 0,0 km/h (0 Bft) W-NW 286 ° 0 min 0,000 mm 0,0 UV-I 0 W/m² 13,0 °C 14,1 °C 0,0 km/h (0 Bft)
24.08.2018 20:02 14,0 °C 93 % 1011,4 hPa 0,4 mm 0,0 km/h (0 Bft) W-NW 286 ° 0 min 0,000 mm 0,0 UV-I 0 W/m² 12,9 °C 14,0 °C 0,0 km/h (0 Bft)
24.08.2018 20:03 13,9 °C 93 % 1011,4 hPa 0,2 mm 0,0 km/h (0 Bft) W-NW 286 ° 0 min 0,000 mm 0,0 UV-I 0 W/m² 12,8 °C 13,9 °C 0,0 km/h (0 Bft)
24.08.2018 20:04 13,9 °C 93 % 1011,4 hPa 0,2 mm 0,0 km/h (0 Bft) W-NW 286 ° 0 min 0,000 mm 0,0 UV-I 0 W/m² 12,8 °C 13,9 °C 0,0 km/h (0 Bft)
24.08.2018 20:05 13,9 °C 93 % 1011,4 hPa 0,2 mm 0,0 km/h (0 Bft) W-NW 286 ° 0 min 0,000 mm 0,0 UV-I 0 W/m² 12,8 °C 13,9 °C 0,0 km/h (0 Bft)
24.08.2018 20:06 13,9 °C 93 % 1011,4 hPa 0,0 mm 1,3 km/h (1 Bft) W-NW 286 ° 0 min 0,000 mm 0,0 UV-I 0 W/m² 12,8 °C 13,9 °C 4,8 km/h (1 Bft)
24.08.2018 20:07 13,9 °C 93 % 1011,5 hPa 0,2 mm 3,5 km/h (1 Bft) W 273 ° 0 min 0,000 mm 0,0 UV-I 0 W/m² 12,8 °C 13,9 °C 4,8 km/h (1 Bft)
24.08.2018 20:08 13,9 °C 93 % 1011,5 hPa 0,0 mm 3,8 km/h (1 Bft) W-NW 292 ° 0 min 0,000 mm 0,0 UV-I 0 W/m² 12,8 °C 13,9 °C 4,8 km/h (1 Bft)
24.08.2018 20:09 13,9 °C 93 % 1011,6 hPa 0,2 mm 4,2 km/h (1 Bft) W-NW 290 ° 0 min 0,000 mm 0,0 UV-I 0 W/m² 12,8 °C 13,9 °C 8,0 km/h (2 Bft)
24.08.2018 20:10 13,9 °C 93 % 1011,6 hPa 0,2 mm 2,9 km/h (1 Bft) W-NW 288 ° 0 min 0,000 mm 0,0 UV-I 0 W/m² 12,8 °C 13,9 °C 4,8 km/h (1 Bft)
24.08.2018 20:11 13,9 °C 93 % 1011,7 hPa 0,2 mm 4,2 km/h (1 Bft) NW 305 ° 0 min 0,000 mm 0,0 UV-I 0 W/m² 12,8 °C 13,9 °C 6,4 km/h (2 Bft)
24.08.2018 20:12 13,8 °C 93 % 1011,8 hPa 0,2 mm 5,8 km/h (2 Bft) W-NW 296 ° 0 min 0,000 mm 0,0 UV-I 0 W/m² 12,7 °C 13,8 °C 6,4 km/h (2 Bft)
24.08.2018 20:13 13,8 °C 93 % 1011,8 hPa 0,2 mm 5,9 km/h (2 Bft) NW 308 ° 0 min 0,000 mm 0,0 UV-I 0 W/m² 12,7 °C 13,8 °C 8,0 km/h (2 Bft)
24.08.2018 20:14 13,8 °C 93 % 1011,8 hPa 0,0 mm 4,4 km/h (1 Bft) NW 320 ° 0 min 0,000 mm 0,0 UV-I 0 W/m² 12,7 °C 13,8 °C 6,4 km/h (2 Bft)
24.08.2018 20:15 13,8 °C 93 % 1011,8 hPa 0,0 mm 2,9 km/h (1 Bft) NW 320 ° 0 min 0,000 mm 0,0 UV-I 0 W/m² 12,7 °C 13,8 °C 4,8 km/h (1 Bft)
24.08.2018 20:16 13,8 °C 93 % 1011,8 hPa 0,0 mm 2,5 km/h (1 Bft) W-NW 299 ° 0 min 0,000 mm 0,0 UV-I 0 W/m² 12,7 °C 13,8 °C 4,8 km/h (1 Bft)
24.08.2018 20:17 13,7 °C 93 % 1011,8 hPa 0,2 mm 5,3 km/h (1 Bft) W-NW 294 ° 0 min 0,000 mm 0,0 UV-I 0 W/m² 12,6 °C 13,7 °C 8,0 km/h (2 Bft)
24.08.2018 20:18 13,7 °C 93 % 1011,9 hPa 0,0 mm 4,2 km/h (1 Bft) NW 314 ° 0 min 0,000 mm 0,0 UV-I 0 W/m² 12,6 °C 13,7 °C 6,4 km/h (2 Bft)
24.08.2018 20:19 13,7 °C 93 % 1011,9 hPa 0,2 mm 2,8 km/h (1 Bft) W-NW 290 ° 0 min 0,000 mm 0,0 UV-I 0 W/m² 12,6 °C 13,7 °C 4,8 km/h (1 Bft)
24.08.2018 20:20 13,7 °C 93 % 1011,9 hPa 0,0 mm 6,3 km/h (2 Bft) W-NW 294 ° 0 min 0,000 mm 0,0 UV-I 0 W/m² 12,6 °C 13,7 °C 9,7 km/h (2 Bft)
24.08.2018 20:21 13,7 °C 93 % 1011,9 hPa 0,2 mm 3,6 km/h (1 Bft) NW 315 ° 0 min 0,000 mm 0,0 UV-I 0 W/m² 12,6 °C 13,7 °C 4,8 km/h (1 Bft)
24.08.2018 20:22 13,7 °C 93 % 1012,0 hPa 0,4 mm 1,7 km/h (1 Bft) NW 317 ° 0 min 0,000 mm 0,0 UV-I 0 W/m² 12,6 °C 13,7 °C 3,2 km/h (1 Bft)
24.08.2018 20:23 13,7 °C 93 % 1011,9 hPa 0,2 mm 1,6 km/h (1 Bft) NW 322 ° 0 min 0,000 mm 0,0 UV-I 0 W/m² 12,6 °C 13,7 °C 4,8 km/h (1 Bft)
24.08.2018 20:24 13,6 °C 93 % 1011,9 hPa 0,2 mm 0,2 km/h (0 Bft) NW 322 ° 0 min 0,000 mm 0,0 UV-I 0 W/m² 12,5 °C 13,6 °C 1,6 km/h (1 Bft)
24.08.2018 20:25 13,6 °C 93 % 1011,9 hPa 0,2 mm 1,9 km/h (1 Bft) W-NW 288 ° 0 min 0,000 mm 0,0 UV-I 0 W/m² 12,5 °C 13,6 °C 6,4 km/h (2 Bft)
24.08.2018 20:26 13,6 °C 93 % 1011,9 hPa 0,2 mm 3,4 km/h (1 Bft) W-NW 289 ° 0 min 0,000 mm 0,0 UV-I 0 W/m² 12,5 °C 13,6 °C 6,4 km/h (2 Bft)
24.08.2018 20:27 13,5 °C 93 % 1011,9 hPa 0,0 mm 1,8 km/h (1 Bft) W-NW 289 ° 0 min 0,000 mm 0,0 UV-I 0 W/m² 12,4 °C 13,5 °C 3,2 km/h (1 Bft)
24.08.2018 20:28 13,6 °C 93 % 1011,9 hPa 0,2 mm 1,2 km/h (1 Bft) W-NW 289 ° 0 min 0,000 mm 0,0 UV-I 0 W/m² 12,5 °C 13,6 °C 1,6 km/h (1 Bft)
24.08.2018 20:29 13,6 °C 93 % 1011,9 hPa 0,0 mm 1,3 km/h (1 Bft) W 264 ° 0 min 0,000 mm 0,0 UV-I 0 W/m² 12,5 °C 13,6 °C 4,8 km/h (1 Bft)
24.08.2018 20:30 13,5 °C 93 % 1012,0 hPa 0,0 mm 3,4 km/h (1 Bft) W 264 ° 0 min 0,000 mm 0,0 UV-I 0 W/m² 12,4 °C 13,5 °C 4,8 km/h (1 Bft)
24.08.2018 20:31 13,5 °C 93 % 1012,0 hPa 0,0 mm 1,1 km/h (1 Bft) W 264 ° 0 min 0,000 mm 0,0 UV-I 0 W/m² 12,4 °C 13,5 °C 3,2 km/h (1 Bft)
24.08.2018 20:32 13,5 °C 93 % 1012,0 hPa 0,0 mm 0,9 km/h (0 Bft) W 264 ° 0 min 0,000 mm 0,0 UV-I 0 W/m² 12,4 °C 13,5 °C 3,2 km/h (1 Bft)
24.08.2018 20:33 13,5 °C 93 % 1012,0 hPa 0,0 mm 0,0 km/h (0 Bft) W 264 ° 0 min 0,000 mm 0,0 UV-I 0 W/m² 12,4 °C 13,5 °C 0,0 km/h (0 Bft)
24.08.2018 20:34 13,5 °C 93 % 1012,0 hPa 0,0 mm 0,0 km/h (0 Bft) W 264 ° 0 min 0,000 mm 0,0 UV-I 0 W/m² 12,4 °C 13,5 °C 0,0 km/h (0 Bft)
24.08.2018 20:35 13,5 °C 93 % 1012,0 hPa 0,0 mm 1,0 km/h (0 Bft) W 264 ° 0 min 0,000 mm 0,0 UV-I 0 W/m² 12,4 °C 13,5 °C 1,6 km/h (1 Bft)
24.08.2018 20:36 13,5 °C 93 % 1012,0 hPa 0,2 mm 1,8 km/h (1 Bft) W 264 ° 0 min 0,000 mm 0,0 UV-I 0 W/m² 12,4 °C 13,5 °C 3,2 km/h (1 Bft)
24.08.2018 20:37 13,5 °C 93 % 1012,0 hPa 0,0 mm 0,5 km/h (0 Bft) W 264 ° 0 min 0,000 mm 0,0 UV-I 0 W/m² 12,4 °C 13,5 °C 1,6 km/h (1 Bft)
24.08.2018 20:38 13,5 °C 93 % 1012,0 hPa 0,0 mm 0,7 km/h (0 Bft) W 264 ° 0 min 0,000 mm 0,0 UV-I 0 W/m² 12,4 °C 13,5 °C 3,2 km/h (1 Bft)
24.08.2018 20:39 13,5 °C 93 % 1012,0 hPa 0,0 mm 0,0 km/h (0 Bft) W 264 ° 0 min 0,000 mm 0,0 UV-I 0 W/m² 12,4 °C 13,5 °C 0,0 km/h (0 Bft)
24.08.2018 20:40 13,5 °C 93 % 1012,0 hPa 0,0 mm 0,0 km/h (0 Bft) W 264 ° 0 min 0,000 mm 0,0 UV-I 0 W/m² 12,4 °C 13,5 °C 0,0 km/h (0 Bft)
24.08.2018 20:41 13,5 °C 93 % 1012,0 hPa 0,0 mm 0,0 km/h (0 Bft) W 264 ° 0 min 0,000 mm 0,0 UV-I 0 W/m² 12,4 °C 13,5 °C 0,0 km/h (0 Bft)
24.08.2018 20:42 13,5 °C 93 % 1011,9 hPa 0,0 mm 0,0 km/h (0 Bft) W 264 ° 0 min 0,000 mm 0,0 UV-I 0 W/m² 12,4 °C 13,5 °C 0,0 km/h (0 Bft)
24.08.2018 20:43 13,4 °C 93 % 1011,9 hPa 0,0 mm 0,0 km/h (0 Bft) W 264 ° 0 min 0,000 mm 0,0 UV-I 0 W/m² 12,3 °C 13,4 °C 0,0 km/h (0 Bft)
24.08.2018 20:44 13,4 °C 93 % 1011,9 hPa 0,2 mm 0,0 km/h (0 Bft) W 264 ° 0 min 0,000 mm 0,0 UV-I 0 W/m² 12,3 °C 13,4 °C 0,0 km/h (0 Bft)
24.08.2018 20:45 13,4 °C 93 % 1011,9 hPa 0,0 mm 0,0 km/h (0 Bft) W 264 ° 0 min 0,000 mm 0,0 UV-I 0 W/m² 12,3 °C 13,4 °C 0,0 km/h (0 Bft)
24.08.2018 20:46 13,4 °C 93 % 1012,0 hPa 0,0 mm 0,0 km/h (0 Bft) W 264 ° 0 min 0,000 mm 0,0 UV-I 0 W/m² 12,3 °C 13,4 °C 0,0 km/h (0 Bft)
24.08.2018 20:47 13,4 °C 93 % 1011,9 hPa 0,0 mm 0,0 km/h (0 Bft) W 264 ° 0 min 0,000 mm 0,0 UV-I 0 W/m² 12,3 °C 13,4 °C 0,0 km/h (0 Bft)
24.08.2018 20:48 13,4 °C 93 % 1011,8 hPa 0,0 mm 0,0 km/h (0 Bft) W 264 ° 0 min 0,000 mm 0,0 UV-I 0 W/m² 12,3 °C 13,4 °C 0,0 km/h (0 Bft)
24.08.2018 20:49 13,4 °C 93 % 1011,8 hPa 0,0 mm 0,3 km/h (0 Bft) W-SW 254 ° 0 min 0,000 mm 0,0 UV-I 0 W/m² 12,3 °C 13,4 °C 1,6 km/h (1 Bft)
24.08.2018 20:50 13,4 °C 93 % 1011,8 hPa 0,0 mm 0,0 km/h (0 Bft) W-SW 254 ° 0 min 0,000 mm 0,0 UV-I 0 W/m² 12,3 °C 13,4 °C 0,0 km/h (0 Bft)
24.08.2018 20:51 13,4 °C 93 % 1011,7 hPa 0,0 mm 0,9 km/h (0 Bft) W-SW 248 ° 0 min 0,000 mm 0,0 UV-I 0 W/m² 12,3 °C 13,4 °C 3,2 km/h (1 Bft)
24.08.2018 20:52 13,4 °C 93 % 1011,8 hPa 0,0 mm 0,0 km/h (0 Bft) W-SW 248 ° 0 min 0,000 mm 0,0 UV-I 0 W/m² 12,3 °C 13,4 °C 0,0 km/h (0 Bft)
24.08.2018 20:53 13,4 °C 93 % 1011,8 hPa 0,0 mm 0,3 km/h (0 Bft) W-SW 248 ° 0 min 0,000 mm 0,0 UV-I 0 W/m² 12,3 °C 13,4 °C 1,6 km/h (1 Bft)
24.08.2018 20:54 13,4 °C 93 % 1011,8 hPa 0,0 mm 0,0 km/h (0 Bft) W-SW 248 ° 0 min 0,000 mm 0,0 UV-I 0 W/m² 12,3 °C 13,4 °C 0,0 km/h (0 Bft)
24.08.2018 20:55 13,4 °C 93 % 1011,9 hPa 0,0 mm 0,0 km/h (0 Bft) W-SW 248 ° 0 min 0,000 mm 0,0 UV-I 0 W/m² 12,3 °C 13,4 °C 0,0 km/h (0 Bft)
24.08.2018 20:56 13,5 °C 93 % 1011,9 hPa 0,0 mm 0,0 km/h (0 Bft) W-SW 248 ° 0 min 0,000 mm 0,0 UV-I 0 W/m² 12,4 °C 13,5 °C 0,0 km/h (0 Bft)
24.08.2018 20:57 13,5 °C 93 % 1011,9 hPa 0,2 mm 1,3 km/h (1 Bft) W-SW 248 ° 0 min 0,000 mm 0,0 UV-I 0 W/m² 12,4 °C 13,5 °C 3,2 km/h (1 Bft)
24.08.2018 20:58 13,5 °C 93 % 1012,0 hPa 0,0 mm 0,3 km/h (0 Bft) W-SW 248 ° 0 min 0,000 mm 0,0 UV-I 0 W/m² 12,4 °C 13,5 °C 3,2 km/h (1 Bft)
24.08.2018 20:59 13,5 °C 93 % 1012,0 hPa 0,0 mm 2,4 km/h (1 Bft) W-SW 248 ° 0 min 0,000 mm 0,0 UV-I 0 W/m² 12,4 °C 13,5 °C 4,8 km/h (1 Bft)
24.08.2018 21:00 13,5 °C 93 % 1012,0 hPa 0,0 mm 1,5 km/h (1 Bft) W-SW 248 ° 0 min 0,000 mm 0,0 UV-I 0 W/m² 12,4 °C 13,5 °C 3,2 km/h (1 Bft)
24.08.2018 21:01 13,4 °C 93 % 1012,0 hPa 0,0 mm 0,3 km/h (0 Bft) W-SW 248 ° 0 min 0,000 mm 0,0 UV-I 0 W/m² 12,3 °C 13,4 °C 1,6 km/h (1 Bft)
24.08.2018 21:02 13,4 °C 93 % 1012,0 hPa 0,0 mm 1,4 km/h (1 Bft) W-SW 248 ° 0 min 0,000 mm 0,0 UV-I 0 W/m² 12,3 °C 13,4 °C 3,2 km/h (1 Bft)
24.08.2018 21:03 13,4 °C 93 % 1012,1 hPa 0,0 mm 0,1 km/h (0 Bft) W-SW 248 ° 0 min 0,000 mm 0,0 UV-I 0 W/m² 12,3 °C 13,4 °C 1,6 km/h (1 Bft)
24.08.2018 21:04 13,4 °C 93 % 1012,1 hPa 0,0 mm 0,9 km/h (0 Bft) W-SW 248 ° 0 min 0,000 mm 0,0 UV-I 0 W/m² 12,3 °C 13,4 °C 3,2 km/h (1 Bft)
24.08.2018 21:05 13,4 °C 93 % 1012,1 hPa 0,0 mm 0,0 km/h (0 Bft) W-SW 248 ° 0 min 0,000 mm 0,0 UV-I 0 W/m² 12,3 °C 13,4 °C 0,0 km/h (0 Bft)
24.08.2018 21:06 13,4 °C 93 % 1012,0 hPa 0,0 mm 0,2 km/h (0 Bft) W-SW 248 ° 0 min 0,000 mm 0,0 UV-I 0 W/m² 12,3 °C 13,4 °C 1,6 km/h (1 Bft)
24.08.2018 21:07 13,4 °C 93 % 1012,1 hPa 0,0 mm 0,0 km/h (0 Bft) W-SW 248 ° 0 min 0,000 mm 0,0 UV-I 0 W/m² 12,3 °C 13,4 °C 0,0 km/h (0 Bft)
24.08.2018 21:08 13,4 °C 93 % 1012,2 hPa 0,0 mm 2,0 km/h (1 Bft) W-SW 248 ° 0 min 0,000 mm 0,0 UV-I 0 W/m² 12,3 °C 13,4 °C 3,2 km/h (1 Bft)
24.08.2018 21:09 13,5 °C 94 % 1012,2 hPa 0,2 mm 1,7 km/h (1 Bft) W-SW 248 ° 0 min 0,000 mm 0,0 UV-I 0 W/m² 12,6 °C 13,5 °C 3,2 km/h (1 Bft)
24.08.2018 21:10 13,5 °C 94 % 1012,2 hPa 0,0 mm 2,2 km/h (1 Bft) W-SW 248 ° 0 min 0,000 mm 0,0 UV-I 0 W/m² 12,6 °C 13,5 °C 3,2 km/h (1 Bft)
24.08.2018 21:11 13,4 °C 93 % 1012,1 hPa 0,0 mm 0,3 km/h (0 Bft) W-SW 248 ° 0 min 0,000 mm 0,0 UV-I 0 W/m² 12,3 °C 13,4 °C 1,6 km/h (1 Bft)
24.08.2018 21:12 13,5 °C 93 % 1012,1 hPa 0,0 mm 2,3 km/h (1 Bft) NW 306 ° 0 min 0,000 mm 0,0 UV-I 0 W/m² 12,4 °C 13,5 °C 4,8 km/h (1 Bft)
24.08.2018 21:13 13,5 °C 93 % 1012,0 hPa 0,0 mm 0,2 km/h (0 Bft) NW 306 ° 0 min 0,000 mm 0,0 UV-I 0 W/m² 12,4 °C 13,5 °C 1,6 km/h (1 Bft)
24.08.2018 21:14 13,5 °C 93 % 1012,0 hPa 0,0 mm 0,1 km/h (0 Bft) NW 306 ° 0 min 0,000 mm 0,0 UV-I 0 W/m² 12,4 °C 13,5 °C 1,6 km/h (1 Bft)
24.08.2018 21:15 13,4 °C 94 % 1011,9 hPa 0,0 mm 0,1 km/h (0 Bft) NW 306 ° 0 min 0,000 mm 0,0 UV-I 0 W/m² 12,5 °C 13,4 °C 1,6 km/h (1 Bft)
24.08.2018 21:16 13,4 °C 93 % 1011,8 hPa 0,0 mm 1,2 km/h (1 Bft) NW 306 ° 0 min 0,000 mm 0,0 UV-I 0 W/m² 12,3 °C 13,4 °C 3,2 km/h (1 Bft)
24.08.2018 21:17 13,4 °C 93 % 1011,5 hPa 0,0 mm 4,1 km/h (1 Bft) NW 306 ° 0 min 0,000 mm 0,0 UV-I 0 W/m² 12,3 °C 13,4 °C 4,8 km/h (1 Bft)
24.08.2018 21:18 13,3 °C 93 % 1011,5 hPa 0,0 mm 3,5 km/h (1 Bft) S 188 ° 0 min 0,000 mm 0,0 UV-I 0 W/m² 12,2 °C 13,3 °C 4,8 km/h (1 Bft)
24.08.2018 21:19 13,3 °C 93 % 1011,5 hPa 0,0 mm 3,3 km/h (1 Bft) S 190 ° 0 min 0,000 mm 0,0 UV-I 0 W/m² 12,2 °C 13,3 °C 4,8 km/h (1 Bft)
24.08.2018 21:20 13,3 °C 93 % 1011,6 hPa 0,0 mm 0,8 km/h (0 Bft) S 190 ° 0 min 0,000 mm 0,0 UV-I 0 W/m² 12,2 °C 13,3 °C 3,2 km/h (1 Bft)
24.08.2018 21:21 13,3 °C 93 % 1011,6 hPa 0,0 mm 0,0 km/h (0 Bft) S 190 ° 0 min 0,000 mm 0,0 UV-I 0 W/m² 12,2 °C 13,3 °C 0,0 km/h (0 Bft)
24.08.2018 21:22 13,3 °C 93 % 1011,6 hPa 0,2 mm 0,1 km/h (0 Bft) S 190 ° 0 min 0,000 mm 0,0 UV-I 0 W/m² 12,2 °C 13,3 °C 1,6 km/h (1 Bft)
24.08.2018 21:23 13,3 °C 93 % 1011,6 hPa 0,0 mm 1,0 km/h (0 Bft) S 190 ° 0 min 0,000 mm 0,0 UV-I 0 W/m² 12,2 °C 13,3 °C 1,6 km/h (1 Bft)
24.08.2018 21:24 13,3 °C 93 % 1011,8 hPa 0,0 mm 3,0 km/h (1 Bft) W 266 ° 0 min 0,000 mm 0,0 UV-I 0 W/m² 12,2 °C 13,3 °C 4,8 km/h (1 Bft)
24.08.2018 21:25 13,3 °C 94 % 1011,8 hPa 0,0 mm 3,4 km/h (1 Bft) W 271 ° 0 min 0,000 mm 0,0 UV-I 0 W/m² 12,4 °C 13,3 °C 4,8 km/h (1 Bft)
24.08.2018 21:26 13,3 °C 94 % 1011,8 hPa 0,0 mm 3,5 km/h (1 Bft) W-NW 283 ° 0 min 0,000 mm 0,0 UV-I 0 W/m² 12,4 °C 13,3 °C 4,8 km/h (1 Bft)
24.08.2018 21:27 13,3 °C 93 % 1011,9 hPa 0,0 mm 3,7 km/h (1 Bft) W 271 ° 0 min 0,000 mm 0,0 UV-I 0 W/m² 12,2 °C 13,3 °C 4,8 km/h (1 Bft)
24.08.2018 21:28 13,3 °C 93 % 1011,9 hPa 0,0 mm 4,1 km/h (1 Bft) NW 323 ° 0 min 0,000 mm 0,0 UV-I 0 W/m² 12,2 °C 13,3 °C 6,4 km/h (2 Bft)
24.08.2018 21:29 13,3 °C 93 % 1011,9 hPa 0,0 mm 2,2 km/h (1 Bft) NW 306 ° 0 min 0,000 mm 0,0 UV-I 0 W/m² 12,2 °C 13,3 °C 4,8 km/h (1 Bft)
24.08.2018 21:30 13,3 °C 93 % 1011,9 hPa 0,0 mm 3,2 km/h (1 Bft) NW 306 ° 0 min 0,000 mm 0,0 UV-I 0 W/m² 12,2 °C 13,3 °C 4,8 km/h (1 Bft)
24.08.2018 21:31 13,3 °C 93 % 1012,0 hPa 0,0 mm 4,1 km/h (1 Bft) NW 317 ° 0 min 0,000 mm 0,0 UV-I 0 W/m² 12,2 °C 13,3 °C 8,0 km/h (2 Bft)
24.08.2018 21:32 13,2 °C 93 % 1012,0 hPa 0,0 mm 5,4 km/h (1 Bft) NW 325 ° 0 min 0,000 mm 0,0 UV-I 0 W/m² 12,1 °C 13,2 °C 8,0 km/h (2 Bft)
24.08.2018 21:33 13,2 °C 93 % 1012,0 hPa 0,0 mm 6,8 km/h (2 Bft) W 269 ° 0 min 0,000 mm 0,0 UV-I 0 W/m² 12,1 °C 13,2 °C 11,3 km/h (2 Bft)
24.08.2018 21:34 13,2 °C 93 % 1012,1 hPa 0,0 mm 4,9 km/h (1 Bft) NW 309 ° 0 min 0,000 mm 0,0 UV-I 0 W/m² 12,1 °C 13,2 °C 6,4 km/h (2 Bft)
24.08.2018 21:35 13,1 °C 93 % 1012,1 hPa 0,0 mm 6,4 km/h (2 Bft) NW 306 ° 0 min 0,000 mm 0,0 UV-I 0 W/m² 12,0 °C 13,1 °C 9,7 km/h (2 Bft)
24.08.2018 21:36 12,9 °C 93 % 1012,1 hPa 0,0 mm 4,5 km/h (1 Bft) NW 304 ° 0 min 0,000 mm 0,0 UV-I 0 W/m² 11,8 °C 12,9 °C 9,7 km/h (2 Bft)
24.08.2018 21:37 12,8 °C 93 % 1012,1 hPa 0,0 mm 2,6 km/h (1 Bft) W-NW 303 ° 0 min 0,000 mm 0,0 UV-I 0 W/m² 11,7 °C 12,8 °C 4,8 km/h (1 Bft)
24.08.2018 21:38 12,8 °C 93 % 1012,1 hPa 0,0 mm 2,9 km/h (1 Bft) W-NW 300 ° 0 min 0,000 mm 0,0 UV-I 0 W/m² 11,7 °C 12,8 °C 4,8 km/h (1 Bft)
24.08.2018 21:39 12,8 °C 93 % 1012,1 hPa 0,0 mm 2,5 km/h (1 Bft) W-NW 297 ° 0 min 0,000 mm 0,0 UV-I 0 W/m² 11,7 °C 12,8 °C 4,8 km/h (1 Bft)
24.08.2018 21:40 12,7 °C 93 % 1012,1 hPa 0,0 mm 3,0 km/h (1 Bft) W-NW 297 ° 0 min 0,000 mm 0,0 UV-I 0 W/m² 11,6 °C 12,7 °C 4,8 km/h (1 Bft)
24.08.2018 21:41 12,7 °C 93 % 1012,0 hPa 0,0 mm 2,3 km/h (1 Bft) W-NW 297 ° 0 min 0,000 mm 0,0 UV-I 0 W/m² 11,6 °C 12,7 °C 3,2 km/h (1 Bft)
24.08.2018 21:42 12,7 °C 93 % 1012,1 hPa 0,0 mm 3,4 km/h (1 Bft) W 279 ° 0 min 0,000 mm 0,0 UV-I 0 W/m² 11,6 °C 12,7 °C 4,8 km/h (1 Bft)
24.08.2018 21:43 12,6 °C 93 % 1012,1 hPa 0,0 mm 3,4 km/h (1 Bft) W 279 ° 0 min 0,000 mm 0,0 UV-I 0 W/m² 11,5 °C 12,6 °C 4,8 km/h (1 Bft)
24.08.2018 21:44 12,6 °C 93 % 1012,1 hPa 0,0 mm 1,9 km/h (1 Bft) W 279 ° 0 min 0,000 mm 0,0 UV-I 0 W/m² 11,5 °C 12,6 °C 3,2 km/h (1 Bft)
24.08.2018 21:45 12,6 °C 93 % 1012,0 hPa 0,0 mm 1,5 km/h (1 Bft) W 279 ° 0 min 0,000 mm 0,0 UV-I 0 W/m² 11,5 °C 12,6 °C 3,2 km/h (1 Bft)
24.08.2018 21:46 12,6 °C 93 % 1012,0 hPa 0,0 mm 0,6 km/h (0 Bft) W 279 ° 0 min 0,000 mm 0,0 UV-I 0 W/m² 11,5 °C 12,6 °C 1,6 km/h (1 Bft)
24.08.2018 21:47 12,5 °C 92 % 1012,1 hPa 0,0 mm 1,0 km/h (0 Bft) W 279 ° 0 min 0,000 mm 0,0 UV-I 0 W/m² 11,2 °C 12,5 °C 1,6 km/h (1 Bft)
24.08.2018 21:48 12,4 °C 93 % 1012,0 hPa 0,0 mm 0,6 km/h (0 Bft) W 279 ° 0 min 0,000 mm 0,0 UV-I 0 W/m² 11,3 °C 12,4 °C 1,6 km/h (1 Bft)
24.08.2018 21:49 12,4 °C 93 % 1012,0 hPa 0,0 mm 0,2 km/h (0 Bft) W 279 ° 0 min 0,000 mm 0,0 UV-I 0 W/m² 11,3 °C 12,4 °C 1,6 km/h (1 Bft)
24.08.2018 21:50 12,4 °C 92 % 1012,0 hPa 0,0 mm 0,0 km/h (0 Bft) W 279 ° 0 min 0,000 mm 0,0 UV-I 0 W/m² 11,1 °C 12,4 °C 0,0 km/h (0 Bft)
24.08.2018 21:51 12,4 °C 93 % 1012,1 hPa 0,0 mm 0,0 km/h (0 Bft) W 279 ° 0 min 0,000 mm 0,0 UV-I 0 W/m² 11,3 °C 12,4 °C 0,0 km/h (0 Bft)
24.08.2018 21:52 12,4 °C 92 % 1012,1 hPa 0,0 mm 0,0 km/h (0 Bft) W 279 ° 0 min 0,000 mm 0,0 UV-I 0 W/m² 11,1 °C 12,4 °C 0,0 km/h (0 Bft)
24.08.2018 21:53 12,4 °C 92 % 1012,1 hPa 0,0 mm 0,0 km/h (0 Bft) W 279 ° 0 min 0,000 mm 0,0 UV-I 0 W/m² 11,1 °C 12,4 °C 0,0 km/h (0 Bft)
24.08.2018 21:54 12,3 °C 92 % 1012,1 hPa 0,0 mm 0,0 km/h (0 Bft) W 279 ° 0 min 0,000 mm 0,0 UV-I 0 W/m² 11,0 °C 12,3 °C 0,0 km/h (0 Bft)
24.08.2018 21:55 12,3 °C 92 % 1012,1 hPa 0,0 mm 0,0 km/h (0 Bft) W 279 ° 0 min 0,000 mm 0,0 UV-I 0 W/m² 11,0 °C 12,3 °C 0,0 km/h (0 Bft)
24.08.2018 21:56 12,3 °C 93 % 1012,1 hPa 0,0 mm 0,0 km/h (0 Bft) W 279 ° 0 min 0,000 mm 0,0 UV-I 0 W/m² 11,2 °C 12,3 °C 0,0 km/h (0 Bft)
24.08.2018 21:57 12,3 °C 93 % 1012,2 hPa 0,0 mm 0,0 km/h (0 Bft) W 279 ° 0 min 0,000 mm 0,0 UV-I 0 W/m² 11,2 °C 12,3 °C 0,0 km/h (0 Bft)
24.08.2018 21:58 12,3 °C 92 % 1012,2 hPa 0,0 mm 0,0 km/h (0 Bft) W 279 ° 0 min 0,000 mm 0,0 UV-I 0 W/m² 11,0 °C 12,3 °C 0,0 km/h (0 Bft)
24.08.2018 21:59 12,3 °C 93 % 1012,1 hPa 0,0 mm 1,0 km/h (0 Bft) SW 234 ° 0 min 0,000 mm 0,0 UV-I 0 W/m² 11,2 °C 12,3 °C 3,2 km/h (1 Bft)
24.08.2018 22:00 12,2 °C 93 % 1012,2 hPa 0,0 mm 3,1 km/h (1 Bft) SW 235 ° 0 min 0,000 mm 0,0 UV-I 0 W/m² 11,1 °C 12,2 °C 4,8 km/h (1 Bft)
24.08.2018 22:01 12,2 °C 92 % 1012,2 hPa 0,0 mm 2,3 km/h (1 Bft) SW 235 ° 0 min 0,000 mm 0,0 UV-I 0 W/m² 10,9 °C 12,2 °C 3,2 km/h (1 Bft)
24.08.2018 22:02 12,2 °C 93 % 1012,2 hPa 0,2 mm 0,0 km/h (0 Bft) SW 235 ° 0 min 0,000 mm 0,0 UV-I 0 W/m² 11,1 °C 12,2 °C 1,6 km/h (1 Bft)
24.08.2018 22:03 12,2 °C 93 % 1012,2 hPa 0,2 mm 0,4 km/h (0 Bft) SW 235 ° 0 min 0,000 mm 0,0 UV-I 0 W/m² 11,1 °C 12,2 °C 1,6 km/h (1 Bft)
24.08.2018 22:04 12,3 °C 93 % 1012,3 hPa 0,0 mm 0,0 km/h (0 Bft) SW 235 ° 0 min 0,000 mm 0,0 UV-I 0 W/m² 11,2 °C 12,3 °C 0,0 km/h (0 Bft)
24.08.2018 22:05 12,3 °C 93 % 1012,3 hPa 0,0 mm 0,1 km/h (0 Bft) SW 234 ° 0 min 0,000 mm 0,0 UV-I 0 W/m² 11,2 °C 12,3 °C 1,6 km/h (1 Bft)
24.08.2018 22:06 12,2 °C 93 % 1012,2 hPa 0,0 mm 0,2 km/h (0 Bft) SW 235 ° 0 min 0,000 mm 0,0 UV-I 0 W/m² 11,1 °C 12,2 °C 1,6 km/h (1 Bft)
24.08.2018 22:07 12,2 °C 93 % 1012,3 hPa 0,0 mm 0,0 km/h (0 Bft) SW 235 ° 0 min 0,000 mm 0,0 UV-I 0 W/m² 11,1 °C 12,2 °C 0,0 km/h (0 Bft)
24.08.2018 22:08 12,2 °C 93 % 1012,3 hPa 0,0 mm 0,2 km/h (0 Bft) SW 235 ° 0 min 0,000 mm 0,0 UV-I 0 W/m² 11,1 °C 12,2 °C 1,6 km/h (1 Bft)
24.08.2018 22:09 12,2 °C 93 % 1012,3 hPa 0,0 mm 0,0 km/h (0 Bft) SW 235 ° 0 min 0,000 mm 0,0 UV-I 0 W/m² 11,1 °C 12,2 °C 0,0 km/h (0 Bft)
24.08.2018 22:10 12,2 °C 93 % 1012,3 hPa 0,2 mm 0,1 km/h (0 Bft) SW 235 ° 0 min 0,000 mm 0,0 UV-I 0 W/m² 11,1 °C 12,2 °C 1,6 km/h (1 Bft)
24.08.2018 22:11 12,2 °C 93 % 1012,3 hPa 0,0 mm 2,1 km/h (1 Bft) SW 234 ° 0 min 0,000 mm 0,0 UV-I 0 W/m² 11,1 °C 12,2 °C 3,2 km/h (1 Bft)
24.08.2018 22:12 12,2 °C 93 % 1012,3 hPa 0,0 mm 3,8 km/h (1 Bft) S-SO 167 ° 0 min 0,000 mm 0,0 UV-I 0 W/m² 11,1 °C 12,2 °C 6,4 km/h (2 Bft)
24.08.2018 22:13 12,2 °C 93 % 1012,2 hPa 0,0 mm 5,9 km/h (2 Bft) SO 136 ° 0 min 0,000 mm 0,0 UV-I 0 W/m² 11,1 °C 12,2 °C 8,0 km/h (2 Bft)
24.08.2018 22:14 12,2 °C 93 % 1012,1 hPa 0,0 mm 4,5 km/h (1 Bft) SO 129 ° 0 min 0,000 mm 0,0 UV-I 0 W/m² 11,1 °C 12,2 °C 6,4 km/h (2 Bft)
24.08.2018 22:15 12,2 °C 93 % 1012,1 hPa 0,0 mm 0,1 km/h (0 Bft) SO 129 ° 0 min 0,000 mm 0,0 UV-I 0 W/m² 11,1 °C 12,2 °C 1,6 km/h (1 Bft)
24.08.2018 22:16 12,2 °C 93 % 1012,1 hPa 0,0 mm 0,1 km/h (0 Bft) SO 129 ° 0 min 0,000 mm 0,0 UV-I 0 W/m² 11,1 °C 12,2 °C 1,6 km/h (1 Bft)
24.08.2018 22:17 12,2 °C 93 % 1012,1 hPa 0,0 mm 0,0 km/h (0 Bft) SO 129 ° 0 min 0,000 mm 0,0 UV-I 0 W/m² 11,1 °C 12,2 °C 0,0 km/h (0 Bft)
24.08.2018 22:18 12,3 °C 93 % 1012,1 hPa 0,0 mm 0,4 km/h (0 Bft) SO 129 ° 0 min 0,000 mm 0,0 UV-I 0 W/m² 11,2 °C 12,3 °C 1,6 km/h (1 Bft)
24.08.2018 22:19 12,3 °C 93 % 1012,1 hPa 0,0 mm 0,0 km/h (0 Bft) SO 129 ° 0 min 0,000 mm 0,0 UV-I 0 W/m² 11,2 °C 12,3 °C 0,0 km/h (0 Bft)
24.08.2018 22:20 12,3 °C 93 % 1012,1 hPa 0,0 mm 1,4 km/h (1 Bft) SO 129 ° 0 min 0,000 mm 0,0 UV-I 0 W/m² 11,2 °C 12,3 °C 3,2 km/h (1 Bft)
24.08.2018 22:21 12,3 °C 93 % 1012,2 hPa 0,0 mm 2,5 km/h (1 Bft) SO 129 ° 0 min 0,000 mm 0,0 UV-I 0 W/m² 11,2 °C 12,3 °C 3,2 km/h (1 Bft)
24.08.2018 22:22 12,3 °C 93 % 1012,2 hPa 0,0 mm 0,9 km/h (0 Bft) SO 126 ° 0 min 0,000 mm 0,0 UV-I 0 W/m² 11,2 °C 12,3 °C 1,6 km/h (1 Bft)
24.08.2018 22:23 12,3 °C 93 % 1012,2 hPa 0,0 mm 0,0 km/h (0 Bft) SO 126 ° 0 min 0,000 mm 0,0 UV-I 0 W/m² 11,2 °C 12,3 °C 0,0 km/h (0 Bft)
24.08.2018 22:24 12,3 °C 93 % 1012,2 hPa 0,0 mm 0,0 km/h (0 Bft) SO 126 ° 0 min 0,000 mm 0,0 UV-I 0 W/m² 11,2 °C 12,3 °C 0,0 km/h (0 Bft)
24.08.2018 22:25 12,3 °C 93 % 1012,2 hPa 0,2 mm 0,0 km/h (0 Bft) SO 126 ° 0 min 0,000 mm 0,0 UV-I 0 W/m² 11,2 °C 12,3 °C 0,0 km/h (0 Bft)
24.08.2018 22:26 12,3 °C 93 % 1012,3 hPa 0,0 mm 0,2 km/h (0 Bft) SO 126 ° 0 min 0,000 mm 0,0 UV-I 0 W/m² 11,2 °C 12,3 °C 1,6 km/h (1 Bft)
24.08.2018 22:27 12,3 °C 93 % 1012,3 hPa 0,0 mm 0,0 km/h (0 Bft) SO 126 ° 0 min 0,000 mm 0,0 UV-I 0 W/m² 11,2 °C 12,3 °C 0,0 km/h (0 Bft)
24.08.2018 22:28 12,3 °C 93 % 1012,3 hPa 0,0 mm 0,0 km/h (0 Bft) SO 126 ° 0 min 0,000 mm 0,0 UV-I 0 W/m² 11,2 °C 12,3 °C 0,0 km/h (0 Bft)
24.08.2018 22:29 12,3 °C 93 % 1012,4 hPa 0,0 mm 0,3 km/h (0 Bft) SO 126 ° 0 min 0,000 mm 0,0 UV-I 0 W/m² 11,2 °C 12,3 °C 1,6 km/h (1 Bft)
24.08.2018 22:30 12,3 °C 93 % 1012,4 hPa 0,0 mm 0,0 km/h (0 Bft) SO 126 ° 0 min 0,000 mm 0,0 UV-I 0 W/m² 11,2 °C 12,3 °C 0,0 km/h (0 Bft)
24.08.2018 22:31 12,3 °C 93 % 1012,3 hPa 0,0 mm 0,0 km/h (0 Bft) SO 126 ° 0 min 0,000 mm 0,0 UV-I 0 W/m² 11,2 °C 12,3 °C 0,0 km/h (0 Bft)
24.08.2018 22:32 12,2 °C 93 % 1012,3 hPa 0,0 mm 0,6 km/h (0 Bft) SO 126 ° 0 min 0,000 mm 0,0 UV-I 0 W/m² 11,1 °C 12,2 °C 3,2 km/h (1 Bft)
24.08.2018 22:33 12,2 °C 93 % 1012,3 hPa 0,0 mm 0,1 km/h (0 Bft) SO 126 ° 0 min 0,000 mm 0,0 UV-I 0 W/m² 11,1 °C 12,2 °C 1,6 km/h (1 Bft)
24.08.2018 22:34 12,2 °C 93 % 1012,2 hPa 0,0 mm 0,0 km/h (0 Bft) SO 126 ° 0 min 0,000 mm 0,0 UV-I 0 W/m² 11,1 °C 12,2 °C 0,0 km/h (0 Bft)
24.08.2018 22:35 12,2 °C 93 % 1012,2 hPa 0,0 mm 2,1 km/h (1 Bft) SO 126 ° 0 min 0,000 mm 0,0 UV-I 0 W/m² 11,1 °C 12,2 °C 4,8 km/h (1 Bft)
24.08.2018 22:36 12,2 °C 93 % 1012,1 hPa 0,0 mm 0,1 km/h (0 Bft) SO 126 ° 0 min 0,000 mm 0,0 UV-I 0 W/m² 11,1 °C 12,2 °C 1,6 km/h (1 Bft)
24.08.2018 22:37 12,2 °C 93 % 1012,2 hPa 0,0 mm 0,7 km/h (0 Bft) SO 126 ° 0 min 0,000 mm 0,0 UV-I 0 W/m² 11,1 °C 12,2 °C 1,6 km/h (1 Bft)
24.08.2018 22:38 12,2 °C 93 % 1012,2 hPa 0,0 mm 0,3 km/h (0 Bft) SO 126 ° 0 min 0,000 mm 0,0 UV-I 0 W/m² 11,1 °C 12,2 °C 1,6 km/h (1 Bft)
24.08.2018 22:39 12,2 °C 93 % 1012,2 hPa 0,0 mm 0,2 km/h (0 Bft) SO 126 ° 0 min 0,000 mm 0,0 UV-I 0 W/m² 11,1 °C 12,2 °C 1,6 km/h (1 Bft)
24.08.2018 22:40 12,2 °C 94 % 1012,3 hPa 0,0 mm 0,0 km/h (0 Bft) SO 126 ° 0 min 0,000 mm 0,0 UV-I 0 W/m² 11,3 °C 12,2 °C 0,0 km/h (0 Bft)
24.08.2018 22:41 12,2 °C 94 % 1012,3 hPa 0,0 mm 0,0 km/h (0 Bft) SO 126 ° 0 min 0,000 mm 0,0 UV-I 0 W/m² 11,3 °C 12,2 °C 0,0 km/h (0 Bft)
24.08.2018 22:42 12,2 °C 94 % 1012,3 hPa 0,0 mm 0,0 km/h (0 Bft) SO 126 ° 0 min 0,000 mm 0,0 UV-I 0 W/m² 11,3 °C 12,2 °C 0,0 km/h (0 Bft)
24.08.2018 22:43 12,2 °C 93 % 1012,3 hPa 0,0 mm 0,0 km/h (0 Bft) SO 126 ° 0 min 0,000 mm 0,0 UV-I 0 W/m² 11,1 °C 12,2 °C 0,0 km/h (0 Bft)
24.08.2018 22:44 12,2 °C 94 % 1012,2 hPa 0,0 mm 1,2 km/h (1 Bft) SO 126 ° 0 min 0,000 mm 0,0 UV-I 0 W/m² 11,3 °C 12,2 °C 3,2 km/h (1 Bft)
24.08.2018 22:45 12,3 °C 93 % 1012,2 hPa 0,0 mm 1,9 km/h (1 Bft) SO 126 ° 0 min 0,000 mm 0,0 UV-I 0 W/m² 11,2 °C 12,3 °C 3,2 km/h (1 Bft)
24.08.2018 22:46 12,2 °C 94 % 1012,3 hPa 0,0 mm 0,0 km/h (0 Bft) SO 126 ° 0 min 0,000 mm 0,0 UV-I 0 W/m² 11,3 °C 12,2 °C 0,0 km/h (0 Bft)
24.08.2018 22:47 12,3 °C 94 % 1012,3 hPa 0,0 mm 0,1 km/h (0 Bft) SO 126 ° 0 min 0,000 mm 0,0 UV-I 0 W/m² 11,4 °C 12,3 °C 1,6 km/h (1 Bft)
24.08.2018 22:48 12,2 °C 94 % 1012,3 hPa 0,0 mm 0,1 km/h (0 Bft) SO 126 ° 0 min 0,000 mm 0,0 UV-I 0 W/m² 11,3 °C 12,2 °C 1,6 km/h (1 Bft)
24.08.2018 22:49 12,2 °C 94 % 1012,2 hPa 0,0 mm 0,2 km/h (0 Bft) SO 126 ° 0 min 0,000 mm 0,0 UV-I 0 W/m² 11,3 °C 12,2 °C 1,6 km/h (1 Bft)
24.08.2018 22:50 12,3 °C 94 % 1012,3 hPa 0,0 mm 0,7 km/h (0 Bft) SO 126 ° 0 min 0,000 mm 0,0 UV-I 0 W/m² 11,4 °C 12,3 °C 1,6 km/h (1 Bft)
24.08.2018 22:51 12,2 °C 94 % 1012,3 hPa 0,0 mm 0,9 km/h (0 Bft) SO 126 ° 0 min 0,000 mm 0,0 UV-I 0 W/m² 11,3 °C 12,2 °C 1,6 km/h (1 Bft)
24.08.2018 22:52 12,2 °C 94 % 1012,3 hPa 0,0 mm 2,0 km/h (1 Bft) SO 127 ° 0 min 0,000 mm 0,0 UV-I 0 W/m² 11,3 °C 12,2 °C 3,2 km/h (1 Bft)
24.08.2018 22:53 12,2 °C 93 % 1012,3 hPa 0,0 mm 0,3 km/h (0 Bft) SO 127 ° 0 min 0,000 mm 0,0 UV-I 0 W/m² 11,1 °C 12,2 °C 1,6 km/h (1 Bft)
24.08.2018 22:54 12,2 °C 94 % 1012,3 hPa 0,0 mm 0,0 km/h (0 Bft) SO 127 ° 0 min 0,000 mm 0,0 UV-I 0 W/m² 11,3 °C 12,2 °C 0,0 km/h (0 Bft)
24.08.2018 22:55 12,2 °C 94 % 1012,2 hPa 0,0 mm 0,0 km/h (0 Bft) SO 127 ° 0 min 0,000 mm 0,0 UV-I 0 W/m² 11,3 °C 12,2 °C 0,0 km/h (0 Bft)
24.08.2018 22:56 12,2 °C 94 % 1012,2 hPa 0,0 mm 0,2 km/h (0 Bft) SO 127 ° 0 min 0,000 mm 0,0 UV-I 0 W/m² 11,3 °C 12,2 °C 1,6 km/h (1 Bft)
24.08.2018 22:57 12,2 °C 94 % 1012,2 hPa 0,0 mm 0,5 km/h (0 Bft) SO 127 ° 0 min 0,000 mm 0,0 UV-I 0 W/m² 11,3 °C 12,2 °C 1,6 km/h (1 Bft)
24.08.2018 22:58 12,3 °C 94 % 1012,2 hPa 0,0 mm 0,4 km/h (0 Bft) SO 127 ° 0 min 0,000 mm 0,0 UV-I 0 W/m² 11,4 °C 12,3 °C 1,6 km/h (1 Bft)
24.08.2018 22:59 12,2 °C 93 % 1012,3 hPa 0,0 mm 0,0 km/h (0 Bft) SO 127 ° 0 min 0,000 mm 0,0 UV-I 0 W/m² 11,1 °C 12,2 °C 0,0 km/h (0 Bft)
24.08.2018 23:00 12,2 °C 93 % 1012,2 hPa 0,0 mm 0,0 km/h (0 Bft) SO 127 ° 0 min 0,000 mm 0,0 UV-I 0 W/m² 11,1 °C 12,2 °C 0,0 km/h (0 Bft)
24.08.2018 23:01 12,2 °C 93 % 1012,3 hPa 0,0 mm 0,0 km/h (0 Bft) SO 127 ° 0 min 0,000 mm 0,0 UV-I 0 W/m² 11,1 °C 12,2 °C 0,0 km/h (0 Bft)
24.08.2018 23:02 12,3 °C 94 % 1012,3 hPa 0,0 mm 0,0 km/h (0 Bft) SO 127 ° 0 min 0,000 mm 0,0 UV-I 0 W/m² 11,4 °C 12,3 °C 0,0 km/h (0 Bft)
24.08.2018 23:03 12,3 °C 94 % 1012,3 hPa 0,0 mm 0,2 km/h (0 Bft) SO 127 ° 0 min 0,000 mm 0,0 UV-I 0 W/m² 11,4 °C 12,3 °C 1,6 km/h (1 Bft)
24.08.2018 23:04 12,3 °C 94 % 1012,2 hPa 0,0 mm 0,0 km/h (0 Bft) SO 127 ° 0 min 0,000 mm 0,0 UV-I 0 W/m² 11,4 °C 12,3 °C 0,0 km/h (0 Bft)
24.08.2018 23:05 12,2 °C 94 % 1012,2 hPa 0,0 mm 0,0 km/h (0 Bft) SO 127 ° 0 min 0,000 mm 0,0 UV-I 0 W/m² 11,3 °C 12,2 °C 0,0 km/h (0 Bft)
24.08.2018 23:06 12,2 °C 94 % 1012,3 hPa 0,0 mm 0,0 km/h (0 Bft) SO 127 ° 0 min 0,000 mm 0,0 UV-I 0 W/m² 11,3 °C 12,2 °C 0,0 km/h (0 Bft)
24.08.2018 23:07 12,3 °C 93 % 1012,2 hPa 0,0 mm 0,0 km/h (0 Bft) SO 127 ° 0 min 0,000 mm 0,0 UV-I 0 W/m² 11,2 °C 12,3 °C 0,0 km/h (0 Bft)
24.08.2018 23:08 12,3 °C 94 % 1012,2 hPa 0,0 mm 0,0 km/h (0 Bft) SO 127 ° 0 min 0,000 mm 0,0 UV-I 0 W/m² 11,4 °C 12,3 °C 0,0 km/h (0 Bft)
24.08.2018 23:09 12,3 °C 94 % 1012,3 hPa 0,0 mm 0,0 km/h (0 Bft) SO 127 ° 0 min 0,000 mm 0,0 UV-I 0 W/m² 11,4 °C 12,3 °C 0,0 km/h (0 Bft)
24.08.2018 23:10 12,3 °C 94 % 1012,3 hPa 0,0 mm 0,2 km/h (0 Bft) SO 127 ° 0 min 0,000 mm 0,0 UV-I 0 W/m² 11,4 °C 12,3 °C 1,6 km/h (1 Bft)
24.08.2018 23:11 12,3 °C 94 % 1012,4 hPa 0,0 mm 3,3 km/h (1 Bft) SO 126 ° 0 min 0,000 mm 0,0 UV-I 0 W/m² 11,4 °C 12,3 °C 4,8 km/h (1 Bft)
24.08.2018 23:12 12,3 °C 94 % 1012,5 hPa 0,0 mm 1,3 km/h (1 Bft) SO 127 ° 0 min 0,000 mm 0,0 UV-I 0 W/m² 11,4 °C 12,3 °C 3,2 km/h (1 Bft)
24.08.2018 23:13 12,3 °C 94 % 1012,4 hPa 0,0 mm 1,1 km/h (1 Bft) SO 127 ° 0 min 0,000 mm 0,0 UV-I 0 W/m² 11,4 °C 12,3 °C 3,2 km/h (1 Bft)
24.08.2018 23:14 12,3 °C 94 % 1012,4 hPa 0,0 mm 0,7 km/h (0 Bft) SO 127 ° 0 min 0,000 mm 0,0 UV-I 0 W/m² 11,4 °C 12,3 °C 3,2 km/h (1 Bft)
24.08.2018 23:15 12,4 °C 94 % 1012,4 hPa 0,0 mm 0,1 km/h (0 Bft) SO 127 ° 0 min 0,000 mm 0,0 UV-I 0 W/m² 11,5 °C 12,4 °C 1,6 km/h (1 Bft)
24.08.2018 23:16 12,3 °C 94 % 1012,3 hPa 0,0 mm 0,0 km/h (0 Bft) SO 127 ° 0 min 0,000 mm 0,0 UV-I 0 W/m² 11,4 °C 12,3 °C 0,0 km/h (0 Bft)
24.08.2018 23:17 12,3 °C 94 % 1012,3 hPa 0,0 mm 0,0 km/h (0 Bft) SO 127 ° 0 min 0,000 mm 0,0 UV-I 0 W/m² 11,4 °C 12,3 °C 0,0 km/h (0 Bft)
24.08.2018 23:18 12,3 °C 94 % 1012,4 hPa 0,0 mm 0,0 km/h (0 Bft) SO 127 ° 0 min 0,000 mm 0,0 UV-I 0 W/m² 11,4 °C 12,3 °C 0,0 km/h (0 Bft)
24.08.2018 23:19 12,3 °C 94 % 1012,4 hPa 0,0 mm 0,1 km/h (0 Bft) SO 127 ° 0 min 0,000 mm 0,0 UV-I 0 W/m² 11,4 °C 12,3 °C 1,6 km/h (1 Bft)
24.08.2018 23:20 12,3 °C 94 % 1012,4 hPa 0,0 mm 0,0 km/h (0 Bft) SO 127 ° 0 min 0,000 mm 0,0 UV-I 0 W/m² 11,4 °C 12,3 °C 0,0 km/h (0 Bft)
24.08.2018 23:21 12,3 °C 94 % 1012,3 hPa 0,0 mm 0,0 km/h (0 Bft) SO 127 ° 0 min 0,000 mm 0,0 UV-I 0 W/m² 11,4 °C 12,3 °C 0,0 km/h (0 Bft)
24.08.2018 23:22 12,3 °C 94 % 1012,3 hPa 0,0 mm 0,7 km/h (0 Bft) SO 127 ° 0 min 0,000 mm 0,0 UV-I 0 W/m² 11,4 °C 12,3 °C 1,6 km/h (1 Bft)
24.08.2018 23:23 12,3 °C 94 % 1012,4 hPa 0,0 mm 0,1 km/h (0 Bft) SO 127 ° 0 min 0,000 mm 0,0 UV-I 0 W/m² 11,4 °C 12,3 °C 1,6 km/h (1 Bft)
24.08.2018 23:24 12,3 °C 94 % 1012,4 hPa 0,0 mm 1,5 km/h (1 Bft) SO 134 ° 0 min 0,000 mm 0,0 UV-I 0 W/m² 11,4 °C 12,3 °C 3,2 km/h (1 Bft)
24.08.2018 23:25 12,3 °C 94 % 1012,4 hPa 0,0 mm 1,6 km/h (1 Bft) SO 135 ° 0 min 0,000 mm 0,0 UV-I 0 W/m² 11,4 °C 12,3 °C 3,2 km/h (1 Bft)
24.08.2018 23:26 12,3 °C 94 % 1012,3 hPa 0,0 mm 2,0 km/h (1 Bft) W 271 ° 0 min 0,000 mm 0,0 UV-I 0 W/m² 11,4 °C 12,3 °C 3,2 km/h (1 Bft)
24.08.2018 23:27 12,4 °C 94 % 1012,3 hPa 0,0 mm 0,3 km/h (0 Bft) W 271 ° 0 min 0,000 mm 0,0 UV-I 0 W/m² 11,5 °C 12,4 °C 1,6 km/h (1 Bft)
24.08.2018 23:28 12,4 °C 94 % 1012,3 hPa 0,0 mm 0,1 km/h (0 Bft) W 271 ° 0 min 0,000 mm 0,0 UV-I 0 W/m² 11,5 °C 12,4 °C 1,6 km/h (1 Bft)
24.08.2018 23:29 12,3 °C 94 % 1012,2 hPa 0,0 mm 0,0 km/h (0 Bft) W 271 ° 0 min 0,000 mm 0,0 UV-I 0 W/m² 11,4 °C 12,3 °C 0,0 km/h (0 Bft)
24.08.2018 23:30 12,3 °C 94 % 1012,3 hPa 0,0 mm 1,0 km/h (0 Bft) W 271 ° 0 min 0,000 mm 0,0 UV-I 0 W/m² 11,4 °C 12,3 °C 3,2 km/h (1 Bft)
24.08.2018 23:31 12,3 °C 94 % 1012,3 hPa 0,0 mm 0,9 km/h (0 Bft) W 271 ° 0 min 0,000 mm 0,0 UV-I 0 W/m² 11,4 °C 12,3 °C 1,6 km/h (1 Bft)
24.08.2018 23:32 12,3 °C 94 % 1012,2 hPa 0,0 mm 0,0 km/h (0 Bft) W 271 ° 0 min 0,000 mm 0,0 UV-I 0 W/m² 11,4 °C 12,3 °C 0,0 km/h (0 Bft)
24.08.2018 23:33 12,3 °C 94 % 1012,3 hPa 0,0 mm 0,0 km/h (0 Bft) W 271 ° 0 min 0,000 mm 0,0 UV-I 0 W/m² 11,4 °C 12,3 °C 0,0 km/h (0 Bft)
24.08.2018 23:34 12,3 °C 94 % 1012,3 hPa 0,0 mm 0,0 km/h (0 Bft) W 271 ° 0 min 0,000 mm 0,0 UV-I 0 W/m² 11,4 °C 12,3 °C 0,0 km/h (0 Bft)
24.08.2018 23:35 12,2 °C 94 % 1012,3 hPa 0,0 mm 0,0 km/h (0 Bft) W 271 ° 0 min 0,000 mm 0,0 UV-I 0 W/m² 11,3 °C 12,2 °C 0,0 km/h (0 Bft)
24.08.2018 23:36 12,2 °C 94 % 1012,3 hPa 0,0 mm 0,0 km/h (0 Bft) W 271 ° 0 min 0,000 mm 0,0 UV-I 0 W/m² 11,3 °C 12,2 °C 0,0 km/h (0 Bft)
24.08.2018 23:37 12,2 °C 94 % 1012,3 hPa 0,0 mm 0,0 km/h (0 Bft) W 271 ° 0 min 0,000 mm 0,0 UV-I 0 W/m² 11,3 °C 12,2 °C 0,0 km/h (0 Bft)
24.08.2018 23:38 12,2 °C 94 % 1012,2 hPa 0,0 mm 1,5 km/h (1 Bft) W 271 ° 0 min 0,000 mm 0,0 UV-I 0 W/m² 11,3 °C 12,2 °C 3,2 km/h (1 Bft)
24.08.2018 23:39 12,3 °C 94 % 1012,2 hPa 0,0 mm 1,1 km/h (1 Bft) W 271 ° 0 min 0,000 mm 0,0 UV-I 0 W/m² 11,4 °C 12,3 °C 3,2 km/h (1 Bft)
24.08.2018 23:40 12,2 °C 94 % 1012,2 hPa 0,0 mm 0,0 km/h (0 Bft) W 271 ° 0 min 0,000 mm 0,0 UV-I 0 W/m² 11,3 °C 12,2 °C 0,0 km/h (0 Bft)
24.08.2018 23:41 12,3 °C 94 % 1012,2 hPa 0,0 mm 0,2 km/h (0 Bft) W 271 ° 0 min 0,000 mm 0,0 UV-I 0 W/m² 11,4 °C 12,3 °C 3,2 km/h (1 Bft)
24.08.2018 23:42 12,3 °C 94 % 1012,3 hPa 0,0 mm 0,9 km/h (0 Bft) W 271 ° 0 min 0,000 mm 0,0 UV-I 0 W/m² 11,4 °C 12,3 °C 3,2 km/h (1 Bft)
24.08.2018 23:43 12,3 °C 94 % 1012,2 hPa 0,0 mm 1,2 km/h (1 Bft) W-SW 248 ° 0 min 0,000 mm 0,0 UV-I 0 W/m² 11,4 °C 12,3 °C 3,2 km/h (1 Bft)
24.08.2018 23:44 12,3 °C 94 % 1012,2 hPa 0,0 mm 0,6 km/h (0 Bft) W-SW 248 ° 0 min 0,000 mm 0,0 UV-I 0 W/m² 11,4 °C 12,3 °C 1,6 km/h (1 Bft)
24.08.2018 23:45 12,3 °C 94 % 1012,2 hPa 0,0 mm 2,6 km/h (1 Bft) SW 236 ° 0 min 0,000 mm 0,0 UV-I 0 W/m² 11,4 °C 12,3 °C 4,8 km/h (1 Bft)
24.08.2018 23:46 12,3 °C 94 % 1012,2 hPa 0,0 mm 2,3 km/h (1 Bft) SW 234 ° 0 min 0,000 mm 0,0 UV-I 0 W/m² 11,4 °C 12,3 °C 6,4 km/h (2 Bft)
24.08.2018 23:47 12,3 °C 94 % 1012,2 hPa 0,0 mm 3,1 km/h (1 Bft) S 190 ° 0 min 0,000 mm 0,0 UV-I 0 W/m² 11,4 °C 12,3 °C 6,4 km/h (2 Bft)
24.08.2018 23:48 12,3 °C 94 % 1012,2 hPa 0,0 mm 0,6 km/h (0 Bft) S 190 ° 0 min 0,000 mm 0,0 UV-I 0 W/m² 11,4 °C 12,3 °C 1,6 km/h (1 Bft)
24.08.2018 23:49 12,3 °C 94 % 1012,2 hPa 0,0 mm 1,6 km/h (1 Bft) SW 221 ° 0 min 0,000 mm 0,0 UV-I 0 W/m² 11,4 °C 12,3 °C 4,8 km/h (1 Bft)
24.08.2018 23:50 12,3 °C 94 % 1012,2 hPa 0,0 mm 3,8 km/h (1 Bft) W-NW 285 ° 0 min 0,000 mm 0,0 UV-I 0 W/m² 11,4 °C 12,3 °C 6,4 km/h (2 Bft)
24.08.2018 23:51 12,4 °C 94 % 1012,2 hPa 0,0 mm 2,7 km/h (1 Bft) S-SW 208 ° 0 min 0,000 mm 0,0 UV-I 0 W/m² 11,5 °C 12,4 °C 4,8 km/h (1 Bft)
24.08.2018 23:52 12,4 °C 94 % 1012,2 hPa 0,0 mm 1,9 km/h (1 Bft) W-SW 246 ° 0 min 0,000 mm 0,0 UV-I 0 W/m² 11,5 °C 12,4 °C 4,8 km/h (1 Bft)
24.08.2018 23:53 12,4 °C 94 % 1012,2 hPa 0,0 mm 0,0 km/h (0 Bft) W-SW 246 ° 0 min 0,000 mm 0,0 UV-I 0 W/m² 11,5 °C 12,4 °C 0,0 km/h (0 Bft)
24.08.2018 23:54 12,4 °C 94 % 1012,2 hPa 0,0 mm 0,3 km/h (0 Bft) S-SW 208 ° 0 min 0,000 mm 0,0 UV-I 0 W/m² 11,5 °C 12,4 °C 3,2 km/h (1 Bft)
24.08.2018 23:55 12,4 °C 94 % 1012,2 hPa 0,0 mm 1,3 km/h (1 Bft) SW 223 ° 0 min 0,000 mm 0,0 UV-I 0 W/m² 11,5 °C 12,4 °C 4,8 km/h (1 Bft)
24.08.2018 23:56 12,4 °C 94 % 1012,2 hPa 0,0 mm 1,9 km/h (1 Bft) S-SW 211 ° 0 min 0,000 mm 0,0 UV-I 0 W/m² 11,5 °C 12,4 °C 4,8 km/h (1 Bft)
24.08.2018 23:57 12,4 °C 94 % 1012,2 hPa 0,0 mm 0,0 km/h (0 Bft) S-SW 207 ° 0 min 0,000 mm 0,0 UV-I 0 W/m² 11,5 °C 12,4 °C 0,0 km/h (0 Bft)
24.08.2018 23:58 12,4 °C 94 % 1012,2 hPa 0,0 mm 2,0 km/h (1 Bft) S-SW 207 ° 0 min 0,000 mm 0,0 UV-I 0 W/m² 11,5 °C 12,4 °C 3,2 km/h (1 Bft)
24.08.2018 23:59 12,4 °C 94 % 1012,2 hPa 0,0 mm 1,5 km/h (1 Bft) S-SW 207 ° 0 min 0,000 mm 0,0 UV-I 0 W/m² 11,5 °C 12,4 °C 4,8 km/h (1 Bft)
_ Min-Zeit 23:40 16:17 17:56 - 23:57 - - - - - - 22:01 23:40 23:57
Minimum _ 12,2 °C 62 % 1009,0 hPa - 0,0 km/h (0 Bft) - - - - - - 10,9 °C 12,2 °C 0,0 km/h (0 Bft)
_ Max-Zeit 16:14 23:59 23:12 20:22 15:15 - - 16:15 16:01 12:58 15:21 13:08 16:14 16:40
Maximum _ 22,1 °C 94 % 1012,5 hPa 0,4 mm 17,7 km/h
NW (3 Bft)
- - 1 min 0,254 mm 6,9 UV-I 918 W/m² 15,9 °C 22,1 °C 29,0 km/h
W-NW (5 Bft)
Durchschnitt _ 16,4 °C 83 % 1010,6 hPa #11,6 mm 3,8 km/h (1 Bft) W-NW - #16 min. #1,829 mm 2,2 UV-I 106 W/m² 13,4 °C 16,4 °C 6,5 km/h (2 Bft)